Provisional Data: Catatonk Creek near Spencer, NY


Please select a monitoring station.
Please select start date.
Please select start date.

Toggle Unit: C/F Toggle Unit: C/F
Sample Time Temperature (C) Temperature (F) Specific Conductivity (mS/cm) pH   Turbidity (NTU+) DO (mg/L)
8/1/2022 12:00:00 AM 19.28 66.704 0.444 7.68 4.78 7.19
8/1/2022 12:15:00 AM 19.24 66.632 0.444 7.68 4.91 7.05
8/1/2022 12:30:00 AM 18.97 66.146 0.447 7.67 4.63 6.99
8/1/2022 12:45:00 AM 19.11 66.398 0.445 7.67 4.56 6.99
8/1/2022 1:00:00 AM 18.92 66.056 0.446 7.66 5.19 6.91
8/1/2022 1:15:00 AM 18.88 65.984 0.446 7.66 5.02 6.86
8/1/2022 1:30:00 AM 18.79 65.82201 0.446 7.65 4.92 6.71
8/1/2022 1:45:00 AM 18.75 65.75 0.446 7.65 5.14 6.71
8/1/2022 2:00:00 AM 18.68 65.624 0.446 7.63 5.61 6.57
8/1/2022 2:15:00 AM 18.59 65.462 0.447 7.63 5.38 6.53
8/1/2022 2:30:00 AM 18.46 65.228 0.448 7.62 5.14 6.45
8/1/2022 2:45:00 AM 18.4 65.12 0.448 7.62 5.67 6.42
8/1/2022 3:00:00 AM 18.38 65.084 0.447 7.62 5.21 6.39
8/1/2022 3:15:00 AM 18.34 65.012 0.447 7.6 4.61 6.28
8/1/2022 3:30:00 AM 18.2 64.76 0.449 7.6 5.09 6.25
8/1/2022 3:45:00 AM 18.09 64.562 0.449 7.6 5.07 6.18
8/1/2022 4:00:00 AM 18.13 64.634 0.448 7.6 4.82 6.2
8/1/2022 4:15:00 AM 18.02 64.436 0.448 7.59 4.74 6.13
8/1/2022 4:30:00 AM 17.99 64.382 0.448 7.58 4.9 6.1
8/1/2022 4:45:00 AM 17.87 64.166 0.449 7.59 4.89 6.08
8/1/2022 5:00:00 AM 17.77 63.986 0.449 7.57 4.81 5.88
8/1/2022 5:15:00 AM 17.75 63.95 0.449 7.57 5.46 5.98
8/1/2022 5:30:00 AM 17.62 63.716 0.451 7.55 14.44 5.81
8/1/2022 5:45:00 AM 17.6 63.68 0.45 7.56 6.69 5.76
8/1/2022 6:00:00 AM 17.57 63.626 0.449 7.55 7.61 5.82
8/1/2022 6:15:00 AM 17.53 63.554 0.449 7.54 5.89 5.7
8/1/2022 6:30:00 AM 17.42 63.356 0.451 7.55 6.06 5.8
8/1/2022 6:45:00 AM 17.41 63.338 0.45 7.55 5.72 5.79
8/1/2022 7:00:00 AM 17.34 63.212 0.45 7.53 11.61 5.61
8/1/2022 7:15:00 AM 17.35 63.23 0.45 7.54 4.82 5.82
8/1/2022 7:30:00 AM 17.31 63.158 0.45 7.55 5.66 5.88
8/1/2022 7:45:00 AM 17.24 63.032 0.451 7.54 6.1 5.74
8/1/2022 8:00:00 AM 17.3 63.14 0.451 7.54 5.36 5.87
8/1/2022 8:15:00 AM 17.26 63.068 0.451 7.54 4.98 5.86
8/1/2022 8:30:00 AM 17.19 62.942 0.453 7.52 4.6 5.88
8/1/2022 8:45:00 AM 17.32 63.176 0.451 7.56 5.13 6
8/1/2022 9:00:00 AM 17.41 63.338 0.451 7.56 5.17 6.1
8/1/2022 9:15:00 AM 17.45 63.41 0.451 7.52 4.85 6.04
8/1/2022 9:30:00 AM 17.67 63.806 0.449 7.58 4.97 6.34
8/1/2022 9:45:00 AM 17.7 63.86 0.45 7.57 4.18 6.44
8/1/2022 10:00:00 AM 17.83 64.094 0.449 7.59 4.51 6.62
8/1/2022 10:15:00 AM 17.9 64.22 0.449 7.59 4.76 6.75
8/1/2022 10:30:00 AM 17.92 64.256 0.45 7.57 4.63 6.61
8/1/2022 10:45:00 AM 18.06 64.508 0.451 7.6 4.91 6.71
8/1/2022 11:00:00 AM 18.22 64.796 0.451 7.61 3.7 7.02
8/1/2022 11:15:00 AM 18.53 65.354 0.449 7.62 4.23 7.2
8/1/2022 11:30:00 AM 18.63 65.534 0.449 7.62 4.51 7.28
8/1/2022 11:45:00 AM 18.92 66.056 0.448 7.64 4.09 7.43
8/1/2022 12:00:00 PM 18.96 66.128 0.449 7.63 4.75 7.34
8/1/2022 12:15:00 PM 19.13 66.434 0.448 7.64 3.87 7.61
8/1/2022 12:30:00 PM 19.1 66.38 0.448 7.65 3.83 7.66
8/1/2022 12:45:00 PM 19.13 66.434 0.448 7.65 3.84 7.7
8/1/2022 1:00:00 PM 19.15 66.47 0.449 7.65 3.82 7.64
8/1/2022 1:15:00 PM 19.44 66.992 0.448 7.64 3.54 7.72
8/1/2022 1:30:00 PM 19.64 67.352 0.447 7.67 3.54 8.05
8/1/2022 1:45:00 PM 19.81 67.658 0.447 7.67 4.19 7.96
8/1/2022 2:00:00 PM 19.93 67.874 0.447 7.68 3.57 8.19
8/1/2022 2:15:00 PM 20.08 68.144 0.446 7.7 3.94 8.31
8/1/2022 2:30:00 PM 20.11 68.198 0.447 7.69 3.67 8.28
8/1/2022 2:45:00 PM 20.34 68.612 0.445 7.7 3.94 8.44
8/1/2022 3:00:00 PM 20.54 68.972 0.445 7.7 3.95 8.45
8/1/2022 3:15:00 PM 20.84 69.512 0.444 7.73 3.73 8.79
8/1/2022 3:30:00 PM 20.96 69.728 0.443 7.74 3.89 8.86
8/1/2022 3:45:00 PM 21.04 69.872 0.446 7.7 3.57 8.64
8/1/2022 4:00:00 PM 21.3 70.34 0.443 7.74 3.82 9.06
8/1/2022 4:15:00 PM 21.56 70.808 0.443 7.77 3.68 9.21
8/1/2022 4:30:00 PM 21.61 70.898 0.443 7.77 3.7 9.28
8/1/2022 4:45:00 PM 21.39 70.502 0.443 7.76 3.69 9.15
8/1/2022 5:00:00 PM 21.49 70.682 0.442 7.78 3.66 9.1
8/1/2022 5:15:00 PM 21.48 70.664 0.442 7.77 3.58 8.97
8/1/2022 5:30:00 PM 21.65 70.97 0.441 7.78 3.31 8.98
8/1/2022 5:45:00 PM 21.55 70.79 0.442 7.79 3.74 9.09
8/1/2022 6:00:00 PM 21.61 70.898 0.441 7.78 4.08 8.87
8/1/2022 6:15:00 PM 21.59 70.862 0.441 7.78 3.52 8.81
8/1/2022 6:30:00 PM 21.61 70.898 0.441 7.77 3.84 8.63
8/1/2022 6:45:00 PM 21.61 70.898 0.441 7.79 3.56 8.69
8/1/2022 7:00:00 PM 21.54 70.772 0.441 7.78 3.68 8.51
8/1/2022 7:15:00 PM 21.5 70.7 0.442 7.76 3.79 8.24
8/1/2022 7:30:00 PM 21.38 70.484 0.442 7.75 4.17 8.13
8/1/2022 7:45:00 PM 21.52 70.736 0.441 7.75 3.85 8.1
8/1/2022 8:00:00 PM 21.5 70.7 0.441 7.74 3.93 8.03
8/1/2022 8:15:00 PM 21.46 70.628 0.442 7.74 3.9 7.88
8/1/2022 8:30:00 PM 21.39 70.502 0.442 7.73 3.98 7.78
8/1/2022 8:45:00 PM 21.43 70.574 0.442 7.73 4.22 7.71
8/1/2022 9:00:00 PM 21.29 70.32201 0.442 7.71 3.83 7.56
8/1/2022 9:15:00 PM 21.36 70.448 0.442 7.71 4.31 7.51
8/1/2022 9:30:00 PM 21.32 70.376 0.442 7.71 4.5 7.47
8/1/2022 9:45:00 PM 21.23 70.214 0.443 7.71 4.56 7.36
8/1/2022 10:00:00 PM 21.22 70.196 0.442 7.7 4.9 7.34
8/1/2022 10:15:00 PM 21.13 70.034 0.442 7.69 5 7.27
8/1/2022 10:30:00 PM 21.17 70.106 0.442 7.69 4.69 7.2
8/1/2022 10:45:00 PM 21.09 69.962 0.442 7.69 5.03 7.14
8/1/2022 11:00:00 PM 21.07 69.926 0.442 7.69 5.17 7.12
8/1/2022 11:15:00 PM 20.98 69.764 0.442 7.69 4.88 7.11
8/1/2022 11:30:00 PM 20.78 69.404 0.443 7.67 5.42 7
8/1/2022 11:45:00 PM 20.82 69.476 0.443 7.67 5.09 6.93
8/2/2022 12:00:00 AM 20.77 69.386 0.443 7.67 5.36 6.8
8/2/2022 12:15:00 AM 20.75 69.35 0.443 7.67 4.8 6.82
8/2/2022 12:30:00 AM 20.66 69.188 0.443 7.66 4.91 6.73
8/2/2022 12:45:00 AM 20.63 69.134 0.443 7.66 5.26 6.7
8/2/2022 1:00:00 AM 20.53 68.954 0.443 7.66 4.77 6.6
8/2/2022 1:15:00 AM 20.52 68.936 0.443 7.66 5.51 6.55
8/2/2022 1:30:00 AM 20.38 68.684 0.445 7.65 5.55 6.47
8/2/2022 1:45:00 AM 20.32 68.576 0.444 7.65 4.87 6.37
8/2/2022 2:00:00 AM 20.19 68.342 0.445 7.64 5.72 6.26
8/2/2022 2:15:00 AM 20.12 68.216 0.445 7.63 4.79 6.21
8/2/2022 2:30:00 AM 20.06 68.108 0.445 7.63 5.58 6.15
8/2/2022 2:45:00 AM 19.91 67.838 0.446 7.62 5.67 6.05
8/2/2022 3:00:00 AM 19.82 67.676 0.447 7.62 4.77 5.97
8/2/2022 3:15:00 AM 19.77 67.586 0.446 7.61 4.91 5.91
8/2/2022 3:30:00 AM 19.66 67.388 0.447 7.61 5.13 5.88
8/2/2022 3:45:00 AM 19.55 67.19 0.447 7.59 5.12 5.77
8/2/2022 4:00:00 AM 19.46 67.028 0.448 7.59 5.79 5.7
8/2/2022 4:15:00 AM 19.41 66.938 0.448 7.58 5.38 5.67
8/2/2022 4:30:00 AM 19.38 66.884 0.448 7.58 6.13 5.67
8/2/2022 4:45:00 AM 19.3 66.74 0.448 7.58 5.19 5.61
8/2/2022 5:00:00 AM 19.18 66.524 0.449 7.57 6.6 5.56
8/2/2022 5:15:00 AM 19.17 66.506 0.448 7.56 6.09 5.53
8/2/2022 5:30:00 AM 19.05 66.29 0.449 7.56 5.86 5.52
8/2/2022 5:45:00 AM 19.12 66.416 0.448 7.55 6.19 5.47
8/2/2022 6:00:00 AM 19.08 66.344 0.448 7.56 6.07 5.46
8/2/2022 6:15:00 AM 18.84 65.912 0.451 7.54 8.61 5.26
8/2/2022 6:30:00 AM 18.93 66.074 0.449 7.55 5.28 5.4
8/2/2022 6:45:00 AM 18.96 66.128 0.449 7.55 4.93 5.44
8/2/2022 7:00:00 AM 18.9 66.02 0.449 7.55 5.89 5.36
8/2/2022 7:15:00 AM 18.85 65.93 0.45 7.54 5.97 5.42
8/2/2022 7:30:00 AM 18.85 65.93 0.449 7.54 4.49 5.49
8/2/2022 7:45:00 AM 18.73 65.714 0.451 7.52 7.97 5.34
8/2/2022 8:00:00 AM 18.88 65.984 0.45 7.54 6.2 5.55
8/2/2022 8:15:00 AM 18.9 66.02 0.449 7.55 4.82 5.57
8/2/2022 8:30:00 AM 18.89 66.002 0.449 7.56 5.23 5.64
8/2/2022 8:45:00 AM 18.94 66.092 0.449 7.55 4.98 5.65
8/2/2022 9:00:00 AM 18.99 66.182 0.449 7.56 5.37 5.83
8/2/2022 9:15:00 AM 18.95 66.11 0.449 7.56 4.62 5.86
8/2/2022 9:30:00 AM 19.12 66.416 0.448 7.57 5.8 6.04
8/2/2022 9:45:00 AM 19.15 66.47 0.449 7.58 4.86 6.12
8/2/2022 10:00:00 AM 19.27 66.686 0.448 7.58 4.41 6.27
8/2/2022 10:15:00 AM 19.27 66.686 0.448 7.59 5 6.29
8/2/2022 10:30:00 AM 19.4 66.92 0.448 7.6 4.52 6.45
8/2/2022 10:45:00 AM 19.47 67.046 0.447 7.61 4.86 6.55
8/2/2022 11:00:00 AM 19.49 67.082 0.447 7.61 4.45 6.59
8/2/2022 11:15:00 AM 19.34 66.812 0.45 7.61 4.13 6.58
8/2/2022 11:30:00 AM 19.61 67.298 0.448 7.62 4.45 6.68
8/2/2022 11:45:00 AM 19.68 67.424 0.447 7.61 4.15 6.72
8/2/2022 12:00:00 PM 19.83 67.694 0.449 7.61 4.92 6.8
8/2/2022 12:15:00 PM 20.09 68.162 0.447 7.63 3.88 7.17
8/2/2022 12:30:00 PM 20.12 68.216 0.448 7.63 3.96 7.16
8/2/2022 12:45:00 PM 20.27 68.486 0.447 7.65 3.82 7.23
8/2/2022 1:00:00 PM 20.31 68.558 0.447 7.64 3.79 7.39
8/2/2022 1:15:00 PM 20.55 68.99 0.446 7.66 3.36 7.49
8/2/2022 1:30:00 PM 20.59 69.062 0.446 7.65 3.86 7.45
8/2/2022 1:45:00 PM 20.85 69.53 0.445 7.67 3.88 7.51
8/2/2022 2:00:00 PM 20.92 69.656 0.446 7.67 4.03 7.77
8/2/2022 2:15:00 PM 21.13 70.034 0.445 7.69 3.55 7.93
8/2/2022 2:30:00 PM 21.02 69.836 0.446 7.66 3.66 7.9
8/2/2022 2:45:00 PM 21.18 70.124 0.445 7.69 3.45 8.01
8/2/2022 3:00:00 PM 21.35 70.43 0.444 7.7 4.08 8.09
8/2/2022 3:15:00 PM 21.49 70.682 0.444 7.72 3.79 8.18
8/2/2022 3:30:00 PM 21.61 70.898 0.444 7.7 3.38 8.37
8/2/2022 3:45:00 PM 21.81 71.258 0.443 7.73 3.83 8.53
8/2/2022 4:00:00 PM 21.89 71.402 0.443 7.72 4.03 8.47
8/2/2022 4:15:00 PM 21.71 71.078 0.446 7.69 5.01 8.32
8/2/2022 4:30:00 PM 22.12 71.816 0.442 7.74 4.13 8.69
8/2/2022 4:45:00 PM 22.18 71.924 0.443 7.75 3.83 8.86
8/2/2022 5:00:00 PM 22.19 71.942 0.442 7.76 3.76 8.77
8/2/2022 5:15:00 PM 22.15 71.87 0.442 7.75 4 8.73
8/2/2022 5:30:00 PM 22.06 71.708 0.442 7.77 3.77 8.74
8/2/2022 5:45:00 PM 22.07 71.726 0.442 7.77 3.64 8.8
8/2/2022 6:00:00 PM 21.86 71.348 0.442 7.75 4.13 8.58
8/2/2022 6:15:00 PM 21.74 71.132 0.442 7.76 3.95 8.33
8/2/2022 6:30:00 PM 21.71 71.078 0.442 7.76 3.55 8.31
8/2/2022 6:45:00 PM 21.6 70.88 0.442 7.76 3.86 8.32
8/2/2022 7:00:00 PM 21.44 70.592 0.442 7.76 4.07 8.04
8/2/2022 7:15:00 PM 21.31 70.358 0.442 7.75 4.01 7.97
8/2/2022 7:30:00 PM 21.27 70.286 0.443 7.74 4.01 7.69
8/2/2022 7:45:00 PM 21.12 70.016 0.443 7.74 4.7 7.62
8/2/2022 8:00:00 PM 21.22 70.196 0.442 7.73 3.98 7.6
8/2/2022 8:15:00 PM 21.15 70.07 0.442 7.73 4.05 7.45
8/2/2022 8:30:00 PM 21.11 69.998 0.442 7.72 4.05 7.44
8/2/2022 8:45:00 PM 20.98 69.764 0.442 7.72 4.18 7.36
8/2/2022 9:00:00 PM 20.98 69.764 0.442 7.71 3.78 7.3
8/2/2022 9:15:00 PM 20.99 69.782 0.442 7.71 4.24 7.29
8/2/2022 9:30:00 PM 20.9 69.62 0.442 7.69 4.52 7.12
8/2/2022 9:45:00 PM 20.74 69.332 0.443 7.69 4.31 7.06
8/2/2022 10:00:00 PM 20.8 69.44 0.442 7.7 5.7 7.11
8/2/2022 10:15:00 PM 20.8 69.44 0.441 7.7 4.83 7.11
8/2/2022 10:30:00 PM 20.73 69.314 0.442 7.69 4.95 6.96
8/2/2022 10:45:00 PM 20.65 69.17 0.441 7.69 4.94 7.02
8/2/2022 11:00:00 PM 20.57 69.026 0.442 7.69 4.8 6.93
8/2/2022 11:15:00 PM 20.55 68.99 0.442 7.69 4.39 6.93
8/2/2022 11:30:00 PM 20.46 68.828 0.442 7.69 4.48 6.82
8/2/2022 11:45:00 PM 20.42 68.756 0.442 7.69 4.58 6.83
8/3/2022 12:00:00 AM 20.31 68.558 0.442 7.67 5.08 6.77
8/3/2022 12:15:00 AM 20.17 68.306 0.443 7.65 5.36 6.68
8/3/2022 12:30:00 AM 20.18 68.324 0.443 7.67 4.83 6.61
8/3/2022 12:45:00 AM 20.03 68.054 0.444 7.67 5.47 6.59
8/3/2022 1:00:00 AM 19.99 67.982 0.443 7.67 4.93 6.53
8/3/2022 1:15:00 AM 19.84 67.712 0.444 7.65 5.1 6.35
8/3/2022 1:30:00 AM 19.72 67.496 0.444 7.65 4.63 6.34
8/3/2022 1:45:00 AM 19.66 67.388 0.444 7.65 5.17 6.32
8/3/2022 2:00:00 AM 19.48 67.064 0.445 7.64 5.64 6.23
8/3/2022 2:15:00 AM 19.4 66.92 0.446 7.63 5.08 6.14
8/3/2022 2:30:00 AM 19.32 66.776 0.446 7.63 6.44 6.05
8/3/2022 2:45:00 AM 19.15 66.47 0.446 7.62 5.02 6.02
8/3/2022 3:00:00 AM 19.03 66.254 0.447 7.61 6.48 5.93
8/3/2022 3:15:00 AM 18.9 66.02 0.449 7.58 5.87 5.85
8/3/2022 3:30:00 AM 18.87 65.966 0.448 7.61 5.65 5.76
8/3/2022 3:45:00 AM 18.8 65.84 0.448 7.6 5.2 5.83
8/3/2022 4:00:00 AM 18.69 65.642 0.448 7.6 4.73 5.83
8/3/2022 4:15:00 AM 18.46 65.228 0.451 7.59 4.6 5.65
8/3/2022 4:30:00 AM 18.51 65.318 0.448 7.59 5.66 5.73
8/3/2022 4:45:00 AM 18.36 65.048 0.449 7.58 4.59 5.66
8/3/2022 5:00:00 AM 18.36 65.048 0.448 7.58 5.05 5.65
8/3/2022 5:15:00 AM 18.18 64.724 0.45 7.56 5.16 5.6
8/3/2022 5:30:00 AM 18.09 64.562 0.451 7.56 5.44 5.57
8/3/2022 5:45:00 AM 17.95 64.31 0.45 7.56 5.61 5.47
8/3/2022 6:00:00 AM 17.98 64.364 0.45 7.56 5.83 5.56
8/3/2022 6:15:00 AM 17.83 64.094 0.452 7.54 4.95 5.46
8/3/2022 6:30:00 AM 17.77 63.986 0.451 7.54 5.41 5.43
8/3/2022 6:45:00 AM 17.64 63.752 0.453 7.54 5.44 5.28
8/3/2022 7:00:00 AM 17.78 64.004 0.452 7.54 5.92 5.46
8/3/2022 7:15:00 AM 17.76 63.968 0.451 7.55 5.67 5.53
8/3/2022 7:30:00 AM 17.68 63.824 0.452 7.55 4.73 5.59
8/3/2022 7:45:00 AM 17.75 63.95 0.451 7.55 4.37 5.69
8/3/2022 8:00:00 AM 17.72 63.896 0.451 7.55 4.73 5.68
8/3/2022 8:15:00 AM 17.49 63.482 0.454 7.52 5.08 5.4
8/3/2022 8:30:00 AM 17.73 63.914 0.451 7.55 7.7 5.84
8/3/2022 8:45:00 AM 17.67 63.806 0.452 7.56 5.61 5.81
8/3/2022 9:00:00 AM 17.73 63.914 0.451 7.57 4.32 6.05
8/3/2022 9:15:00 AM 17.83 64.094 0.451 7.57 4.48 6.01
8/3/2022 9:30:00 AM 17.9 64.22 0.451 7.57 4.59 6.14
8/3/2022 9:45:00 AM 17.97 64.346 0.451 7.58 4.59 6.23
8/3/2022 10:00:00 AM 18.18 64.724 0.451 7.59 4.83 6.41
8/3/2022 10:15:00 AM 18.2 64.76 0.451 7.6 4.26 6.39
8/3/2022 10:30:00 AM 18.46 65.228 0.451 7.6 4.71 6.59
8/3/2022 10:45:00 AM 18.72 65.696 0.45 7.6 4.46 6.91
8/3/2022 11:00:00 AM 18.69 65.642 0.452 7.62 4.45 7.03
8/3/2022 11:15:00 AM 18.85 65.93 0.451 7.62 4.38 7.13
8/3/2022 11:30:00 AM 18.97 66.146 0.452 7.63 4.28 7.1
8/3/2022 11:45:00 AM 19.13 66.434 0.451 7.62 4.03 7.2
8/3/2022 12:00:00 PM 19.36 66.848 0.45 7.64 4.15 7.44
8/3/2022 12:15:00 PM 19.37 66.866 0.452 7.63 3.79 7.45
8/3/2022 12:30:00 PM 19.66 67.388 0.45 7.65 3.62 7.59
8/3/2022 12:45:00 PM 19.75 67.55 0.45 7.65 3.74 7.64
8/3/2022 1:00:00 PM 19.93 67.874 0.449 7.66 3.97 7.79
8/3/2022 1:15:00 PM 20.11 68.198 0.449 7.66 4.18 7.75
8/3/2022 1:30:00 PM 20.22 68.396 0.449 7.66 3.92 7.93
8/3/2022 1:45:00 PM 20.41 68.738 0.449 7.67 3.43 7.97
8/3/2022 2:00:00 PM 20.55 68.99 0.448 7.68 3.77 8
8/3/2022 2:15:00 PM 20.74 69.332 0.447 7.69 3.7 8.19
8/3/2022 2:30:00 PM 20.93 69.674 0.447 7.69 3.71 8.18
8/3/2022 2:45:00 PM 20.92 69.656 0.448 7.7 3.6 8.3
8/3/2022 3:00:00 PM 21.22 70.196 0.446 7.72 3.77 8.53
8/3/2022 3:15:00 PM 21.29 70.32201 0.446 7.71 4.02 8.51
8/3/2022 3:30:00 PM 21.55 70.79 0.445 7.74 3.36 8.82
8/3/2022 3:45:00 PM 21.71 71.078 0.444 7.74 3.32 8.98
8/3/2022 4:00:00 PM 21.77 71.186 0.444 7.74 4.13 9
8/3/2022 4:15:00 PM 21.92 71.456 0.444 7.75 3.84 9.11
8/3/2022 4:30:00 PM 22.01 71.618 0.444 7.75 3.69 9.12
8/3/2022 4:45:00 PM 21.96 71.528 0.444 7.77 3.48 9.31
8/3/2022 5:00:00 PM 22.04 71.672 0.443 7.76 3.93 9.19
8/3/2022 5:15:00 PM 22.08 71.744 0.442 7.78 4.35 9.14
8/3/2022 5:30:00 PM 22.13 71.834 0.442 7.78 4.24 9.18
8/3/2022 5:45:00 PM 22.04 71.672 0.442 7.78 4.05 9.13
8/3/2022 6:00:00 PM 21.97 71.546 0.442 7.78 3.68 9.03
8/3/2022 6:15:00 PM 21.89 71.402 0.442 7.78 3.76 8.8
8/3/2022 6:30:00 PM 21.87 71.366 0.442 7.77 3.88 8.67
8/3/2022 6:45:00 PM 21.92 71.456 0.442 7.77 3.85 8.62
8/3/2022 7:00:00 PM 21.81 71.258 0.442 7.77 3.72 8.51
8/3/2022 7:15:00 PM 21.8 71.24 0.442 7.77 3.94 8.34
8/3/2022 7:30:00 PM 21.75 71.15 0.442 7.76 4.09 8.18
8/3/2022 7:45:00 PM 21.67 71.006 0.442 7.74 11.26 8.04
8/3/2022 8:00:00 PM 21.7 71.06 0.442 7.74 3.83 7.93
8/3/2022 8:15:00 PM 21.6 70.88 0.442 7.73 3.57 7.8
8/3/2022 8:30:00 PM 21.66 70.988 0.442 7.72 4.44 7.74
8/3/2022 8:45:00 PM 21.57 70.826 0.442 7.73 3.91 7.65
8/3/2022 9:00:00 PM 21.57 70.826 0.441 7.72 3.76 7.55
8/3/2022 9:15:00 PM 21.53 70.754 0.442 7.71 4.03 7.45
8/3/2022 9:30:00 PM 21.44 70.592 0.443 7.71 3.84 7.4
8/3/2022 9:45:00 PM 21.41 70.538 0.442 7.7 4.18 7.34
8/3/2022 10:00:00 PM 21.38 70.484 0.442 7.7 4.24 7.28
8/3/2022 10:15:00 PM 21.27 70.286 0.443 7.69 4.39 7.23
8/3/2022 10:30:00 PM 21.24 70.232 0.443 7.68 4.63 7.14
8/3/2022 10:45:00 PM 21.13 70.034 0.444 7.67 5.15 7.04
8/3/2022 11:00:00 PM 21.04 69.872 0.443 7.68 4.63 7.05
8/3/2022 11:15:00 PM 21.12 70.016 0.443 7.67 4.58 6.9
8/3/2022 11:30:00 PM 21.03 69.854 0.443 7.67 6.05 6.93
8/3/2022 11:45:00 PM 20.99 69.782 0.443 7.66 5.64 6.81
8/4/2022 12:00:00 AM 20.91 69.638 0.443 7.67 4.83 6.84
8/4/2022 12:15:00 AM 20.88 69.584 0.443 7.66 4.72 6.76
8/4/2022 12:30:00 AM 20.82 69.476 0.443 7.66 5.31 6.72
8/4/2022 12:45:00 AM 20.57 69.026 0.445 7.65 5.82 6.62
8/4/2022 1:00:00 AM 20.58 69.044 0.444 7.65 5.04 6.56
8/4/2022 1:15:00 AM 20.49 68.882 0.445 7.64 5.92 6.45
8/4/2022 1:30:00 AM 20.46 68.828 0.445 7.65 5.24 6.4
8/4/2022 1:45:00 AM 20.3 68.54 0.446 7.64 4.79 6.25
8/4/2022 2:00:00 AM 20.25 68.45 0.446 7.64 5.28 6.25
8/4/2022 2:15:00 AM 20.09 68.162 0.446 7.63 5.34 6.14
8/4/2022 2:30:00 AM 20.08 68.144 0.447 7.63 5.04 6.08
8/4/2022 2:45:00 AM 20.01 68.018 0.447 7.62 5.47 5.98
8/4/2022 3:00:00 AM 19.9 67.82 0.448 7.62 5.32 5.92
8/4/2022 3:15:00 AM 19.67 67.406 0.448 7.6 4.73 5.83
8/4/2022 3:30:00 AM 19.79 67.622 0.448 7.61 5.12 5.8
8/4/2022 3:45:00 AM 19.63 67.334 0.449 7.6 5.38 5.75
8/4/2022 4:00:00 AM 19.59 67.262 0.449 7.6 5.34 5.71
8/4/2022 4:15:00 AM 19.51 67.118 0.45 7.59 5.1 5.6
8/4/2022 4:30:00 AM 19.37 66.866 0.451 7.58 4.93 5.56
8/4/2022 4:45:00 AM 19.32 66.776 0.451 7.57 5.57 5.53
8/4/2022 5:00:00 AM 19.19 66.542 0.451 7.57 4.87 5.47
8/4/2022 5:15:00 AM 19.11 66.398 0.452 7.55 5.52 5.35
8/4/2022 5:30:00 AM 19.06 66.308 0.452 7.55 5.68 5.24
8/4/2022 5:45:00 AM 18.83 65.894 0.454 7.54 8.78 5.28
8/4/2022 6:00:00 AM 18.95 66.11 0.452 7.54 8.12 5.14
8/4/2022 6:15:00 AM 18.83 65.894 0.452 7.54 4.93 5.21
8/4/2022 6:30:00 AM 18.77 65.786 0.452 7.53 5.17 5.21
8/4/2022 6:45:00 AM 18.73 65.714 0.453 7.53 5.71 5.21
8/4/2022 7:00:00 AM 18.57 65.426 0.452 7.53 5.59 5.32
8/4/2022 7:15:00 AM 18.49 65.282 0.453 7.52 5.24 5.33
8/4/2022 7:30:00 AM 18.55 65.39 0.453 7.51 5.35 5.23
8/4/2022 7:45:00 AM 18.49 65.282 0.453 7.52 5.89 5.35
8/4/2022 8:00:00 AM 18.46 65.228 0.453 7.53 4.57 5.33
8/4/2022 8:15:00 AM 18.59 65.462 0.452 7.54 4.96 5.45
8/4/2022 8:30:00 AM 18.73 65.714 0.452 7.55 4.83 5.6
8/4/2022 8:45:00 AM 18.75 65.75 0.452 7.55 4.53 5.73
8/4/2022 9:00:00 AM 18.92 66.056 0.452 7.54 5.41 5.69
8/4/2022 9:15:00 AM 18.88 65.984 0.451 7.56 4.84 5.96
8/4/2022 9:30:00 AM 18.96 66.128 0.452 7.57 4.85 6.06
8/4/2022 9:45:00 AM 19.08 66.344 0.452 7.57 4.53 6.09
8/4/2022 10:00:00 AM 19.24 66.632 0.451 7.58 4.63 6.11
8/4/2022 10:15:00 AM 19.39 66.902 0.451 7.58 3.98 6.32
8/4/2022 10:30:00 AM 19.56 67.208 0.451 7.59 4.06 6.4
8/4/2022 10:45:00 AM 19.68 67.424 0.451 7.58 4.13 6.5
8/4/2022 11:00:00 AM 19.93 67.874 0.451 7.61 4.25 6.71
8/4/2022 11:15:00 AM 20.29 68.522 0.45 7.62 4.38 7.07
8/4/2022 11:30:00 AM 20.3 68.54 0.45 7.62 4.11 7.09
8/4/2022 11:45:00 AM 20.35 68.63 0.45 7.61 4.44 7.12
8/4/2022 12:00:00 PM 20.47 68.846 0.45 7.64 4.7 7.35
8/4/2022 12:15:00 PM 20.44 68.792 0.45 7.63 4.41 7.22
8/4/2022 12:30:00 PM 20.58 69.044 0.45 7.63 4.04 7.44
8/4/2022 12:45:00 PM 20.7 69.26 0.449 7.65 3.78 7.54
8/4/2022 1:00:00 PM 20.61 69.098 0.445 7.66 4.71 7.58
8/4/2022 1:15:00 PM 20.43 68.774 0.446 7.66 4.53 7.44
8/4/2022 1:30:00 PM 20.56 69.008 0.444 7.67 5.46 7.53
8/4/2022 1:45:00 PM 20.31 68.558 0.44 7.65 5.07 7.11
8/4/2022 2:00:00 PM 20.43 68.774 0.429 7.69 7.67 7.44
8/4/2022 2:15:00 PM 20.33 68.594 0.427 7.69 7.79 7.28
8/4/2022 2:30:00 PM 20.11 68.198 0.43 7.66 7.11 7.13
8/4/2022 2:45:00 PM 20.29 68.522 0.427 7.67 7.75 6.99
8/4/2022 3:00:00 PM 20.28 68.504 0.429 7.65 6.58 6.85
8/4/2022 3:15:00 PM 20.25 68.45 0.428 7.65 5.12 6.78
8/4/2022 3:30:00 PM 20.21 68.378 0.423 7.64 7.45 6.94
8/4/2022 3:45:00 PM 20.3 68.54 0.425 7.66 5.88 6.96
8/4/2022 4:00:00 PM 20.26 68.468 0.425 7.66 7.09 6.98
8/4/2022 4:15:00 PM 20.32 68.576 0.424 7.66 6.83 6.92
8/4/2022 4:30:00 PM 20.32 68.576 0.426 7.63 10.66 6.9
8/4/2022 4:45:00 PM 20.44 68.792 0.424 7.67 6.84 6.99
8/4/2022 5:00:00 PM 20.5 68.9 0.424 7.67 8.24 7.14
8/4/2022 5:15:00 PM 20.61 69.098 0.424 7.68 4.55 7.13
8/4/2022 5:30:00 PM 20.63 69.134 0.424 7.68 5.1 7.15
8/4/2022 5:45:00 PM 20.56 69.008 0.427 7.67 5 7.18
8/4/2022 6:00:00 PM 20.71 69.278 0.426 7.69 4.98 7.29
8/4/2022 6:15:00 PM 20.85 69.53 0.426 7.7 4.68 7.32
8/4/2022 6:30:00 PM 20.83 69.494 0.426 7.7 4.89 7.32
8/4/2022 6:45:00 PM 20.86 69.548 0.426 7.7 5.23 7.21
8/4/2022 7:00:00 PM 20.74 69.332 0.425 7.69 4.85 7.08
8/4/2022 7:15:00 PM 20.74 69.332 0.425 7.68 5.22 7
8/4/2022 7:30:00 PM 20.78 69.404 0.423 7.68 5.5 6.88
8/4/2022 7:45:00 PM 20.71 69.278 0.422 7.66 5.16 6.74
8/4/2022 8:00:00 PM 20.55 68.99 0.423 7.65 4.75 6.53
8/4/2022 8:15:00 PM 20.53 68.954 0.421 7.64 5.59 6.49
8/4/2022 8:30:00 PM 20.53 68.954 0.42 7.63 5.88 6.45
8/4/2022 8:45:00 PM 20.38 68.684 0.42 7.62 5.1 6.18
8/4/2022 9:00:00 PM 20.33 68.594 0.42 7.61 5.55 6.21
8/4/2022 9:15:00 PM 20.18 68.324 0.42 7.6 5.67 6.17
8/4/2022 9:30:00 PM 20.2 68.36 0.42 7.6 6.03 6.15
8/4/2022 9:45:00 PM 20.1 68.18 0.42 7.6 6.26 6.1
8/4/2022 10:00:00 PM 20.07 68.126 0.42 7.59 5.27 6.05
8/4/2022 10:15:00 PM 20.09 68.162 0.42 7.59 6.19 6.08
8/4/2022 10:30:00 PM 20.01 68.018 0.421 7.59 6.38 6.03
8/4/2022 10:45:00 PM 20.06 68.108 0.42 7.59 6.67 6.07
8/4/2022 11:00:00 PM 20.05 68.09 0.42 7.59 6.25 6.05
8/4/2022 11:15:00 PM 20.04 68.07201 0.42 7.58 6.1 6.02
8/4/2022 11:30:00 PM 19.92 67.856 0.422 7.57 6.9 5.9
8/4/2022 11:45:00 PM 19.9 67.82 0.421 7.57 5.95 5.93
8/5/2022 12:00:00 AM 19.91 67.838 0.421 7.56 6.54 5.77
8/5/2022 12:15:00 AM 19.99 67.982 0.419 7.55 7.28 5.79
8/5/2022 12:30:00 AM 19.91 67.838 0.419 7.54 6.78 5.69
8/5/2022 12:45:00 AM 19.94 67.892 0.418 7.54 7.22 5.65
8/5/2022 1:00:00 AM 19.93 67.874 0.418 7.53 7.45 5.58
8/5/2022 1:15:00 AM 19.87 67.766 0.418 7.52 7.06 5.48
8/5/2022 1:30:00 AM 19.86 67.748 0.417 7.51 6.56 5.4
8/5/2022 1:45:00 AM 19.94 67.892 0.415 7.51 8.48 5.4
8/5/2022 2:00:00 AM 19.89 67.802 0.416 7.5 6.53 5.32
8/5/2022 2:15:00 AM 19.89 67.802 0.415 7.49 6.99 5.26
8/5/2022 2:30:00 AM 19.81 67.658 0.415 7.49 6.36 5.14
8/5/2022 2:45:00 AM 19.81 67.658 0.416 7.48 7.02 5.11
8/5/2022 3:00:00 AM 19.73 67.514 0.415 7.47 6.85 5.08
8/5/2022 3:15:00 AM 19.77 67.586 0.415 7.47 7.38 4.96
8/5/2022 3:30:00 AM 19.7 67.46 0.415 7.47 8.52 5.02
8/5/2022 3:45:00 AM 19.79 67.622 0.415 7.47 7.14 5.05
8/5/2022 4:00:00 AM 19.74 67.532 0.415 7.47 6.54 5.01
8/5/2022 4:15:00 AM 19.71 67.478 0.416 7.46 6.8 5
8/5/2022 4:30:00 AM 19.73 67.514 0.416 7.45 7.12 4.95
8/5/2022 4:45:00 AM 19.7 67.46 0.417 7.46 6.68 4.98
8/5/2022 5:00:00 AM 19.6 67.28 0.417 7.45 7.97 4.94
8/5/2022 5:15:00 AM 19.67 67.406 0.418 7.45 7.67 4.94
8/5/2022 5:30:00 AM 19.62 67.316 0.418 7.46 7.67 4.98
8/5/2022 5:45:00 AM 19.58 67.244 0.419 7.45 7.02 4.92
8/5/2022 6:00:00 AM 19.31 66.758 0.423 7.44 7.34 4.89
8/5/2022 6:15:00 AM 19.62 67.316 0.42 7.46 6.75 4.97
8/5/2022 6:30:00 AM 19.54 67.172 0.42 7.46 6.42 4.96
8/5/2022 6:45:00 AM 19.51 67.118 0.421 7.46 11.4 5.03
8/5/2022 7:00:00 AM 19.57 67.226 0.421 7.46 9.2 4.97
8/5/2022 7:15:00 AM 19.42 66.956 0.423 7.47 6.05 5.07
8/5/2022 7:30:00 AM 19.51 67.118 0.423 7.46 6.11 5.07
8/5/2022 7:45:00 AM 19.54 67.172 0.422 7.47 5.78 5.16
8/5/2022 8:00:00 AM 19.55 67.19 0.423 7.47 6.34 5.25
8/5/2022 8:15:00 AM 19.53 67.154 0.423 7.49 5.01 5.4
8/5/2022 8:30:00 AM 19.58 67.244 0.423 7.48 10.77 5.41
8/5/2022 8:45:00 AM 19.68 67.424 0.423 7.5 5.3 5.61
8/5/2022 9:00:00 AM 19.63 67.334 0.424 7.5 6.62 5.72
8/5/2022 9:15:00 AM 19.73 67.514 0.424 7.52 5 5.97
8/5/2022 9:30:00 AM 19.74 67.532 0.424 7.53 4.71 6.09
8/5/2022 9:45:00 AM 19.84 67.712 0.423 7.54 4.95 6.14
8/5/2022 10:00:00 AM 19.9 67.82 0.423 7.54 4.48 6.38
8/5/2022 10:15:00 AM 19.94 67.892 0.423 7.55 5.06 6.49
8/5/2022 10:30:00 AM 20.02 68.036 0.423 7.56 4.65 6.65
8/5/2022 10:45:00 AM 20.08 68.144 0.423 7.57 4.2 6.78
8/5/2022 11:00:00 AM 20.16 68.288 0.423 7.58 4.34 6.95
8/5/2022 11:15:00 AM 20.24 68.432 0.424 7.59 4.61 7.02
8/5/2022 11:30:00 AM 20.35 68.63 0.424 7.59 5.54 7.23
8/5/2022 11:45:00 AM 20.32 68.576 0.423 7.6 4.24 7.29
8/5/2022 12:00:00 PM 20.47 68.846 0.424 7.62 4.54 7.47
8/5/2022 12:15:00 PM 20.52 68.936 0.424 7.62 4.23 7.54
8/5/2022 12:30:00 PM 20.5 68.9 0.424 7.62 4.6 7.49
8/5/2022 12:45:00 PM 20.61 69.098 0.424 7.63 6.56 7.53
8/5/2022 1:00:00 PM 20.8 69.44 0.423 7.63 6.62 7.58
8/5/2022 1:15:00 PM 20.88 69.584 0.427 7.63 3.99 7.61
8/5/2022 1:30:00 PM 21.26 70.268 0.424 7.65 4.11 7.9
8/5/2022 1:45:00 PM 21.27 70.286 0.428 7.64 4.14 7.76
8/5/2022 2:00:00 PM 21.63 70.934 0.424 7.66 4.76 8.04
8/5/2022 2:15:00 PM 21.8 71.24 0.424 7.67 4.15 8.12
8/5/2022 2:30:00 PM 21.95 71.51 0.424 7.68 4.1 8.28
8/5/2022 2:45:00 PM 22.12 71.816 0.424 7.69 4.07 8.46
8/5/2022 3:00:00 PM 22.17 71.906 0.424 7.7 4.18 8.61
8/5/2022 3:15:00 PM 22.21 71.978 0.424 7.71 4.13 8.61
8/5/2022 3:30:00 PM 22.21 71.978 0.423 7.72 3.78 8.72
8/5/2022 3:45:00 PM 22.02 71.636 0.424 7.71 3.92 8.61
8/5/2022 4:00:00 PM 22.04 71.672 0.424 7.72 3.99 8.69
8/5/2022 4:15:00 PM 21.99 71.582 0.423 7.71 7.23 8.51
8/5/2022 4:30:00 PM 21.93 71.474 0.423 7.73 4.53 8.64
8/5/2022 4:45:00 PM 21.98 71.564 0.423 7.73 4.11 8.6
8/5/2022 5:00:00 PM 22.02 71.636 0.423 7.73 3.8 8.56
8/5/2022 5:15:00 PM 21.83 71.294 0.425 7.74 3.82 8.69
8/5/2022 5:30:00 PM 21.95 71.51 0.423 7.74 3.67 8.44
8/5/2022 5:45:00 PM 22.01 71.618 0.423 7.73 4.07 8.64
8/5/2022 6:00:00 PM 21.93 71.474 0.423 7.76 3.76 8.64
8/5/2022 6:15:00 PM 22.04 71.672 0.423 7.74 6.1 8.5
8/5/2022 6:30:00 PM 22.09 71.762 0.422 7.74 5.31 8.42
8/5/2022 6:45:00 PM 22.12 71.816 0.422 7.76 4.42 8.44
8/5/2022 7:00:00 PM 22.04 71.672 0.422 7.73 3.92 8.31
8/5/2022 7:15:00 PM 22.12 71.816 0.422 7.74 4.25 8.18
8/5/2022 7:30:00 PM 22.02 71.636 0.423 7.73 5.43 8.06
8/5/2022 7:45:00 PM 22.04 71.672 0.423 7.73 4.52 7.94
8/5/2022 8:00:00 PM 22.02 71.636 0.423 7.72 4.15 7.79
8/5/2022 8:15:00 PM 21.99 71.582 0.422 7.72 4.29 7.81
8/5/2022 8:30:00 PM 22.04 71.672 0.422 7.7 4.67 7.6
8/5/2022 8:45:00 PM 22.04 71.672 0.423 7.71 4.56 7.56
8/5/2022 9:00:00 PM 21.94 71.492 0.424 7.69 4.65 7.41
8/5/2022 9:15:00 PM 22 71.6 0.422 7.7 4.91 7.37
8/5/2022 9:30:00 PM 22.01 71.618 0.422 7.7 4.75 7.33
8/5/2022 9:45:00 PM 21.87 71.366 0.423 7.69 4.7 7.2
8/5/2022 10:00:00 PM 21.91 71.438 0.423 7.68 5.19 7.14
8/5/2022 10:15:00 PM 21.74 71.132 0.424 7.67 5.61 6.96
8/5/2022 10:30:00 PM 21.72 71.096 0.423 7.67 6.06 6.9
8/5/2022 10:45:00 PM 21.59 70.862 0.423 7.66 6.99 6.77
8/5/2022 11:00:00 PM 21.62 70.916 0.423 7.65 6.4 6.61
8/5/2022 11:15:00 PM 21.53 70.754 0.423 7.66 5.69 6.7
8/5/2022 11:30:00 PM 21.44 70.592 0.423 7.64 6.11 6.61
8/5/2022 11:45:00 PM 21.18 70.124 0.426 7.61 6.33 6.35
8/6/2022 12:00:00 AM 21.25 70.25 0.425 7.64 6.07 6.44
8/6/2022 12:15:00 AM 21.22 70.196 0.424 7.64 6.07 6.42
8/6/2022 12:30:00 AM 21.13 70.034 0.424 7.63 5.26 6.21
8/6/2022 12:45:00 AM 21.03 69.854 0.425 7.62 5.72 6.19
8/6/2022 1:00:00 AM 21.03 69.854 0.424 7.61 5.59 6.19
8/6/2022 1:15:00 AM 20.91 69.638 0.424 7.6 5.64 6.09
8/6/2022 1:30:00 AM 20.91 69.638 0.424 7.59 5.61 6.07
8/6/2022 1:45:00 AM 20.83 69.494 0.424 7.59 6.17 5.93
8/6/2022 2:00:00 AM 20.79 69.422 0.424 7.59 5.29 5.89
8/6/2022 2:15:00 AM 20.69 69.242 0.425 7.58 6.08 5.83
8/6/2022 2:30:00 AM 20.6 69.08 0.425 7.57 6.83 5.78
8/6/2022 2:45:00 AM 20.63 69.134 0.424 7.57 6.45 5.73
8/6/2022 3:00:00 AM 20.56 69.008 0.425 7.56 6.23 5.62
8/6/2022 3:15:00 AM 20.55 68.99 0.425 7.55 6.12 5.57
8/6/2022 3:30:00 AM 20.51 68.918 0.425 7.55 6.33 5.55
8/6/2022 3:45:00 AM 20.44 68.792 0.426 7.55 5.94 5.51
8/6/2022 4:00:00 AM 20.4 68.72 0.426 7.54 5.78 5.45
8/6/2022 4:15:00 AM 20.42 68.756 0.426 7.53 6.08 5.44
8/6/2022 4:30:00 AM 20.33 68.594 0.427 7.53 5.7 5.35
8/6/2022 4:45:00 AM 20.29 68.522 0.427 7.52 5.02 5.31
8/6/2022 5:00:00 AM 20.22 68.396 0.428 7.53 5.74 5.27
8/6/2022 5:15:00 AM 20.2 68.36 0.428 7.52 6.31 5.25
8/6/2022 5:30:00 AM 20.15 68.27 0.429 7.51 6.7 5.18
8/6/2022 5:45:00 AM 20.09 68.162 0.429 7.51 6.95 5.19
8/6/2022 6:00:00 AM 19.91 67.838 0.431 7.49 10.11 5
8/6/2022 6:15:00 AM 20.02 68.036 0.43 7.5 7.39 5.06
8/6/2022 6:30:00 AM 20.08 68.144 0.429 7.51 6.66 5.15
8/6/2022 6:45:00 AM 19.99 67.982 0.43 7.51 5.51 5.1
8/6/2022 7:00:00 AM 19.98 67.964 0.43 7.51 5.85 5.13
8/6/2022 7:15:00 AM 19.91 67.838 0.431 7.5 4.76 5.16
8/6/2022 7:30:00 AM 19.94 67.892 0.431 7.51 5.66 5.25
8/6/2022 7:45:00 AM 19.91 67.838 0.431 7.5 4.61 5.24
8/6/2022 8:00:00 AM 19.96 67.92799 0.431 7.51 5.45 5.28
8/6/2022 8:15:00 AM 19.84 67.712 0.433 7.51 4.79 5.33
8/6/2022 8:30:00 AM 19.97 67.946 0.431 7.52 4.51 5.51
8/6/2022 8:45:00 AM 20.07 68.126 0.431 7.53 4.6 5.63
8/6/2022 9:00:00 AM 19.9 67.82 0.435 7.51 4.17 5.58
8/6/2022 9:15:00 AM 20 68 0.433 7.52 4.13 5.75
8/6/2022 9:30:00 AM 20.15 68.27 0.432 7.54 4.08 5.81
8/6/2022 9:45:00 AM 20.15 68.27 0.434 7.54 4.31 5.84
8/6/2022 10:00:00 AM 20.25 68.45 0.434 7.55 4.1 6.02
8/6/2022 10:15:00 AM 20.39 68.702 0.433 7.56 4.19 6.08
8/6/2022 10:30:00 AM 20.66 69.188 0.433 7.56 4.57 6.21
8/6/2022 10:45:00 AM 20.71 69.278 0.434 7.57 4.16 6.32
8/6/2022 11:00:00 AM 20.93 69.674 0.433 7.58 4 6.5
8/6/2022 11:15:00 AM 21.03 69.854 0.434 7.59 4.68 6.62
8/6/2022 11:30:00 AM 21.21 70.17799 0.433 7.59 3.87 6.76
8/6/2022 11:45:00 AM 21.4 70.52 0.434 7.59 3.73 6.83
8/6/2022 12:00:00 PM 21.48 70.664 0.434 7.6 4.06 6.92
8/6/2022 12:15:00 PM 21.6 70.88 0.436 7.6 3.88 6.92
8/6/2022 12:30:00 PM 21.84 71.312 0.435 7.61 3.52 7.15
8/6/2022 12:45:00 PM 21.87 71.366 0.435 7.62 3.55 7.24
8/6/2022 1:00:00 PM 22.19 71.942 0.434 7.64 3.94 7.38
8/6/2022 1:15:00 PM 22.24 72.032 0.434 7.64 3.95 7.45
8/6/2022 1:30:00 PM 22.1 71.78 0.434 7.64 4.27 7.48
8/6/2022 1:45:00 PM 22.09 71.762 0.435 7.64 3.92 7.37
8/6/2022 2:00:00 PM 22.15 71.87 0.435 7.64 4.22 7.38
8/6/2022 2:15:00 PM 22.32 72.176 0.434 7.66 4.19 7.67
8/6/2022 2:30:00 PM 22.3 72.14 0.436 7.66 3.91 7.74
8/6/2022 2:45:00 PM 22.48 72.464 0.434 7.68 4.93 8.04
8/6/2022 3:00:00 PM 22.57 72.626 0.434 7.69 4.19 8.08
8/6/2022 3:15:00 PM 22.72 72.896 0.433 7.7 3.79 8.27
8/6/2022 3:30:00 PM 22.75 72.95 0.434 7.7 3.75 8.21
8/6/2022 3:45:00 PM 22.51 72.518 0.415 7.73 7.49 8.18
8/6/2022 4:00:00 PM 22.7 72.86 0.419 7.74 6.07 8.17
8/6/2022 4:15:00 PM 22.62 72.716 0.421 7.73 6.36 8.08
8/6/2022 4:30:00 PM 22.72 72.896 0.422 7.73 6.12 8.1
8/6/2022 4:45:00 PM 22.74 72.932 0.426 7.72 5.31 8.1
8/6/2022 5:00:00 PM 22.73 72.914 0.428 7.71 4.54 8.09
8/6/2022 5:15:00 PM 22.95 73.31 0.429 7.73 6.39 8.24
8/6/2022 5:30:00 PM 22.68 72.824 0.433 7.7 8.11 8.08
8/6/2022 5:45:00 PM 23.16 73.688 0.429 7.74 5.7 8.3
8/6/2022 6:00:00 PM 23.21 73.778 0.43 7.72 4.36 8.2
8/6/2022 6:15:00 PM 23.16 73.688 0.43 7.73 5.06 8.07
8/6/2022 6:30:00 PM 23.12 73.616 0.43 7.75 4.69 8.1
8/6/2022 6:45:00 PM 23.12 73.616 0.43 7.74 5.52 8.01
8/6/2022 7:00:00 PM 23.08 73.544 0.431 7.73 4.39 7.82
8/6/2022 7:15:00 PM 23.1 73.58 0.43 7.74 4.52 7.79
8/6/2022 7:30:00 PM 23.11 73.598 0.43 7.74 4.94 7.7
8/6/2022 7:45:00 PM 23 73.4 0.43 7.73 4.09 7.57
8/6/2022 8:00:00 PM 23.01 73.418 0.43 7.7 4.12 7.32
8/6/2022 8:15:00 PM 23.01 73.418 0.431 7.71 7.82 7.31
8/6/2022 8:30:00 PM 22.96 73.328 0.431 7.7 4.53 7.2
8/6/2022 8:45:00 PM 22.87 73.166 0.431 7.69 4.76 7.06
8/6/2022 9:00:00 PM 22.9 73.22 0.43 7.7 5.07 7.11
8/6/2022 9:15:00 PM 22.78 73.004 0.43 7.69 5.11 6.96
8/6/2022 9:30:00 PM 22.78 73.004 0.431 7.69 5.04 6.88
8/6/2022 9:45:00 PM 22.71 72.878 0.43 7.68 5.75 6.8
8/6/2022 10:00:00 PM 22.66 72.788 0.43 7.68 5.01 6.74
8/6/2022 10:15:00 PM 22.68 72.824 0.429 7.67 5.27 6.67
8/6/2022 10:30:00 PM 22.65 72.77 0.429 7.66 5.66 6.58
8/6/2022 10:45:00 PM 22.65 72.77 0.429 7.66 5.69 6.53
8/6/2022 11:00:00 PM 22.48 72.464 0.43 7.64 5.5 6.36
8/6/2022 11:15:00 PM 22.51 72.518 0.429 7.64 5.27 6.36
8/6/2022 11:30:00 PM 22.51 72.518 0.429 7.64 5.86 6.34
8/6/2022 11:45:00 PM 22.4 72.32 0.429 7.64 6.28 6.3
8/7/2022 12:00:00 AM 22.32 72.176 0.43 7.64 5.92 6.22
8/7/2022 12:15:00 AM 22.3 72.14 0.429 7.63 5.61 6.21
8/7/2022 12:30:00 AM 22.13 71.834 0.431 7.63 5.83 6.06
8/7/2022 12:45:00 AM 22.16 71.888 0.43 7.62 5.93 6.04
8/7/2022 1:00:00 AM 22.2 71.96 0.43 7.62 5.68 5.93
8/7/2022 1:15:00 AM 22.19 71.942 0.43 7.61 5.87 5.93
8/7/2022 1:30:00 AM 22.05 71.69 0.431 7.6 5.93 5.81
8/7/2022 1:45:00 AM 21.9 71.42 0.432 7.6 6.47 5.7
8/7/2022 2:00:00 AM 21.94 71.492 0.431 7.59 6.39 5.67
8/7/2022 2:15:00 AM 21.83 71.294 0.432 7.58 6.23 5.55
8/7/2022 2:30:00 AM 21.84 71.312 0.432 7.58 6.15 5.52
8/7/2022 2:45:00 AM 21.69 71.042 0.432 7.56 6.33 5.31
8/7/2022 3:00:00 AM 21.76 71.168 0.431 7.56 5.67 5.39
8/7/2022 3:15:00 AM 21.71 71.078 0.431 7.56 5.41 5.31
8/7/2022 3:30:00 AM 21.66 70.988 0.431 7.55 5.23 5.28
8/7/2022 3:45:00 AM 21.6 70.88 0.431 7.54 5.48 5.17
8/7/2022 4:00:00 AM 21.51 70.718 0.431 7.54 5.45 5.08
8/7/2022 4:15:00 AM 21.5 70.7 0.43 7.53 5.95 5.06
8/7/2022 4:30:00 AM 21.44 70.592 0.43 7.53 7.3 5.02
8/7/2022 4:45:00 AM 21.44 70.592 0.429 7.52 5.82 5.02
8/7/2022 5:00:00 AM 21.34 70.412 0.43 7.5 10.77 4.94
8/7/2022 5:15:00 AM 21.33 70.394 0.43 7.51 5.98 4.92
8/7/2022 5:30:00 AM 21.37 70.466 0.429 7.5 5.64 4.87
8/7/2022 5:45:00 AM 21.27 70.286 0.43 7.5 5.64 4.85
8/7/2022 6:00:00 AM 21.26 70.268 0.43 7.5 5.76 4.86
8/7/2022 6:15:00 AM 21.2 70.16 0.431 7.49 6.05 4.81
8/7/2022 6:30:00 AM 21 69.8 0.431 7.49 5.34 4.67
8/7/2022 6:45:00 AM 21.15 70.07 0.43 7.49 6.64 4.76
8/7/2022 7:00:00 AM 21.16 70.088 0.43 7.49 5.88 4.79
8/7/2022 7:15:00 AM 21.06 69.908 0.431 7.48 7.42 4.7
8/7/2022 7:30:00 AM 21.11 69.998 0.43 7.49 5.13 4.86
8/7/2022 7:45:00 AM 21.12 70.016 0.429 7.49 5.81 4.84
8/7/2022 8:00:00 AM 21.22 70.196 0.429 7.5 6.41 4.99
8/7/2022 8:15:00 AM 21.2 70.16 0.429 7.5 5.44 4.97
8/7/2022 8:30:00 AM 21.11 69.998 0.43 7.5 5.95 4.94
8/7/2022 8:45:00 AM 21.01 69.818 0.431 7.49 4.68 4.95
8/7/2022 9:00:00 AM 21.21 70.17799 0.429 7.51 5.1 5.16
8/7/2022 9:15:00 AM 21.17 70.106 0.431 7.51 4.51 5.27
8/7/2022 9:30:00 AM 21.42 70.556 0.429 7.53 5.1 5.44
8/7/2022 9:45:00 AM 21.3 70.34 0.431 7.52 5.39 5.46
8/7/2022 10:00:00 AM 21.41 70.538 0.429 7.54 4.71 5.61
8/7/2022 10:15:00 AM 21.47 70.646 0.429 7.54 4.49 5.6
8/7/2022 10:30:00 AM 21.49 70.682 0.429 7.54 4.67 5.7
8/7/2022 10:45:00 AM 21.52 70.736 0.428 7.55 4.45 5.91
8/7/2022 11:00:00 AM 21.61 70.898 0.428 7.56 4.35 6.06
8/7/2022 11:15:00 AM 21.64 70.952 0.429 7.56 4.26 6.14
8/7/2022 11:30:00 AM 21.69 71.042 0.428 7.57 4.27 6.39
8/7/2022 11:45:00 AM 21.84 71.312 0.428 7.59 3.92 6.51
8/7/2022 12:00:00 PM 21.93 71.474 0.429 7.58 3.71 6.62
8/7/2022 12:15:00 PM 22.18 71.924 0.428 7.59 3.71 6.52
8/7/2022 12:30:00 PM 22.2 71.96 0.429 7.61 4.48 6.83
8/7/2022 12:45:00 PM 22.16 71.888 0.429 7.6 4.31 6.87
8/7/2022 1:00:00 PM 22.15 71.87 0.43 7.61 3.94 6.95
8/7/2022 1:15:00 PM 22.22 71.996 0.429 7.61 4.63 6.97
8/7/2022 1:30:00 PM 22.38 72.284 0.429 7.62 4.26 7.04
8/7/2022 1:45:00 PM 22.38 72.284 0.429 7.63 3.94 7.28
8/7/2022 2:00:00 PM 22.52 72.536 0.429 7.64 3.87 7.33
8/7/2022 2:15:00 PM 22.5 72.5 0.43 7.64 4.05 7.42
8/7/2022 2:30:00 PM 22.71 72.878 0.43 7.64 4.17 7.44
8/7/2022 2:45:00 PM 22.76 72.968 0.43 7.66 3.93 7.56
8/7/2022 3:00:00 PM 23 73.4 0.43 7.64 4.49 7.33
8/7/2022 3:15:00 PM 23.18 73.724 0.429 7.68 3.85 7.85
8/7/2022 3:30:00 PM 23.19 73.742 0.43 7.68 4.08 7.89
8/7/2022 3:45:00 PM 23.18 73.724 0.43 7.69 3.73 7.9
8/7/2022 4:00:00 PM 23.16 73.688 0.431 7.67 3.95 7.81
8/7/2022 4:15:00 PM 23.39 74.102 0.43 7.7 3.63 8
8/7/2022 4:30:00 PM 23.52 74.336 0.43 7.71 3.45 8.28
8/7/2022 4:45:00 PM 23.58 74.444 0.43 7.72 3.39 8.39
8/7/2022 5:00:00 PM 23.58 74.444 0.43 7.73 4.07 8.24
8/7/2022 5:15:00 PM 23.61 74.498 0.43 7.73 3.52 8.27
8/7/2022 5:30:00 PM 23.56 74.408 0.43 7.72 4.23 8.31
8/7/2022 5:45:00 PM 23.55 74.39 0.43 7.73 3.6 8.15
8/7/2022 6:00:00 PM 23.51 74.318 0.43 7.72 3.41 8.06
8/7/2022 6:15:00 PM 23.52 74.336 0.431 7.73 3.62 8.05
8/7/2022 6:30:00 PM 23.44 74.192 0.431 7.71 3.49 7.92
8/7/2022 6:45:00 PM 23.36 74.048 0.432 7.72 3.55 7.9
8/7/2022 7:00:00 PM 23.48 74.264 0.431 7.73 4.03 7.8
8/7/2022 7:15:00 PM 23.31 73.958 0.431 7.7 3.79 7.68
8/7/2022 7:30:00 PM 23.39 74.102 0.431 7.7 3.96 7.58
8/7/2022 7:45:00 PM 23.4 74.12 0.431 7.69 3.85 7.44
8/7/2022 8:00:00 PM 23.31 73.958 0.431 7.69 4.37 7.41
8/7/2022 8:15:00 PM 23.21 73.778 0.431 7.69 3.6 7.34
8/7/2022 8:30:00 PM 23.33 73.994 0.431 7.69 4.05 7.25
8/7/2022 8:45:00 PM 23.3 73.94 0.431 7.69 4.15 7.24
8/7/2022 9:00:00 PM 23.3 73.94 0.431 7.69 4.1 7.15
8/7/2022 9:15:00 PM 23.25 73.85 0.431 7.67 4.2 7.02
8/7/2022 9:30:00 PM 23.24 73.832 0.43 7.68 4.73 7.04
8/7/2022 9:45:00 PM 23.18 73.724 0.431 7.67 4.24 6.96
8/7/2022 10:00:00 PM 23.13 73.634 0.431 7.66 5.38 6.82
8/7/2022 10:15:00 PM 23.19 73.742 0.431 7.68 5.21 6.9
8/7/2022 10:30:00 PM 23.15 73.67 0.43 7.67 4.34 6.79
8/7/2022 10:45:00 PM 23.15 73.67 0.43 7.67 5.27 6.79
8/7/2022 11:00:00 PM 23.03 73.454 0.431 7.66 4.95 6.72
8/7/2022 11:15:00 PM 23.06 73.508 0.43 7.65 4.43 6.64
8/7/2022 11:30:00 PM 23 73.4 0.43 7.65 4.99 6.56
8/7/2022 11:45:00 PM 22.87 73.166 0.433 7.64 5.37 6.4
8/8/2022 12:00:00 AM 22.85 73.13 0.431 7.64 4.66 6.42
8/8/2022 12:15:00 AM 22.78 73.004 0.432 7.64 4.67 6.34
8/8/2022 12:30:00 AM 22.77 72.986 0.431 7.63 4.87 6.3
8/8/2022 12:45:00 AM 22.74 72.932 0.431 7.63 5.13 6.25
8/8/2022 1:00:00 AM 22.57 72.626 0.432 7.62 4.77 6.04
8/8/2022 1:15:00 AM 22.51 72.518 0.432 7.62 5.13 6.07
8/8/2022 1:30:00 AM 22.43 72.374 0.432 7.61 4.71 5.93
8/8/2022 1:45:00 AM 22.4 72.32 0.432 7.6 5.72 5.83
8/8/2022 2:00:00 AM 22.34 72.212 0.432 7.6 5.98 5.77
8/8/2022 2:15:00 AM 22.24 72.032 0.432 7.58 4.92 5.76
8/8/2022 2:30:00 AM 22.1 71.78 0.433 7.58 4.77 5.57
8/8/2022 2:45:00 AM 22.02 71.636 0.433 7.57 4.89 5.49
8/8/2022 3:00:00 AM 22 71.6 0.432 7.58 5 5.49
8/8/2022 3:15:00 AM 21.92 71.456 0.432 7.57 5.61 5.41
8/8/2022 3:30:00 AM 21.87 71.366 0.432 7.56 4.57 5.35
8/8/2022 3:45:00 AM 21.75 71.15 0.433 7.56 5.01 5.32
8/8/2022 4:00:00 AM 21.75 71.15 0.433 7.55 5.46 5.28
8/8/2022 4:15:00 AM 21.67 71.006 0.433 7.54 5.72 5.18
8/8/2022 4:30:00 AM 21.62 70.916 0.433 7.54 5.24 5.14
8/8/2022 4:45:00 AM 21.55 70.79 0.433 7.53 4.64 5.09
8/8/2022 5:00:00 AM 21.46 70.628 0.433 7.53 5.2 5.04
8/8/2022 5:15:00 AM 21.4 70.52 0.433 7.52 5.51 5.05
8/8/2022 5:30:00 AM 21.31 70.358 0.433 7.51 6.53 4.87
8/8/2022 5:45:00 AM 21.32 70.376 0.433 7.51 5.47 4.95
8/8/2022 6:00:00 AM 21.17 70.106 0.434 7.5 6.96 4.86
8/8/2022 6:15:00 AM 21.18 70.124 0.432 7.5 5.52 4.92
8/8/2022 6:30:00 AM 21.09 69.962 0.433 7.51 5.01 4.87
8/8/2022 6:45:00 AM 21.17 70.106 0.432 7.5 5.03 4.95
8/8/2022 7:00:00 AM 21.01 69.818 0.434 7.5 4.98 4.83
8/8/2022 7:15:00 AM 21.03 69.854 0.432 7.5 5.26 4.88
8/8/2022 7:30:00 AM 20.96 69.728 0.433 7.49 5.02 4.82
8/8/2022 7:45:00 AM 21.05 69.89 0.431 7.5 6.39 4.89
8/8/2022 8:00:00 AM 20.97 69.746 0.432 7.48 4.52 4.8
8/8/2022 8:15:00 AM 21.09 69.962 0.431 7.5 4.84 5
8/8/2022 8:30:00 AM 21.08 69.944 0.432 7.5 5.18 5
8/8/2022 8:45:00 AM 20.98 69.764 0.433 7.49 6.04 5
8/8/2022 9:00:00 AM 21.16 70.088 0.431 7.5 4.48 5.09
8/8/2022 9:15:00 AM 21.14 70.052 0.432 7.51 4.66 5.2
8/8/2022 9:30:00 AM 21.25 70.25 0.432 7.51 4.38 5.36
8/8/2022 9:45:00 AM 21.38 70.484 0.431 7.54 4.46 5.55
8/8/2022 10:00:00 AM 21.48 70.664 0.431 7.54 4.13 5.59
8/8/2022 10:15:00 AM 21.4 70.52 0.433 7.53 4.88 5.7
8/8/2022 10:30:00 AM 21.66 70.988 0.43 7.56 3.91 5.99
8/8/2022 10:45:00 AM 21.7 71.06 0.431 7.56 3.89 5.96
8/8/2022 11:00:00 AM 21.81 71.258 0.431 7.57 4.29 6.22
8/8/2022 11:15:00 AM 21.77 71.186 0.431 7.57 4.43 6.14
8/8/2022 11:30:00 AM 21.94 71.492 0.431 7.57 4.09 6.33
8/8/2022 11:45:00 AM 21.96 71.528 0.431 7.57 3.85 6.46
8/8/2022 12:00:00 PM 22.06 71.708 0.431 7.58 3.88 6.46
8/8/2022 12:15:00 PM 22.06 71.708 0.431 7.57 3.99 6.32
8/8/2022 12:30:00 PM 22.16 71.888 0.431 7.58 3.9 6.41
8/8/2022 12:45:00 PM 22.36 72.248 0.431 7.58 3.74 6.4
8/8/2022 1:00:00 PM 22.38 72.284 0.432 7.57 3.61 6.48
8/8/2022 1:15:00 PM 22.6 72.68 0.431 7.59 4.01 6.68
8/8/2022 1:30:00 PM 22.65 72.77 0.432 7.58 4.29 6.63
8/8/2022 1:45:00 PM 22.81 73.058 0.431 7.58 3.87 6.87
8/8/2022 2:00:00 PM 22.81 73.058 0.432 7.61 4.5 6.88
8/8/2022 2:15:00 PM 22.97 73.346 0.431 7.62 3.75 7.06
8/8/2022 2:30:00 PM 23.07 73.526 0.431 7.62 3.39 7.25
8/8/2022 2:45:00 PM 23.18 73.724 0.431 7.64 3.96 7.34
8/8/2022 3:00:00 PM 23.05 73.49 0.432 7.63 3.91 7.3
8/8/2022 3:15:00 PM 23.11 73.598 0.431 7.63 3.73 7.48
8/8/2022 3:30:00 PM 23.09 73.562 0.431 7.65 3.53 7.53
8/8/2022 3:45:00 PM 22.77 72.986 0.433 7.65 3.63 7.44
8/8/2022 4:00:00 PM 22.92 73.256 0.432 7.64 3.65 7.37
8/8/2022 4:15:00 PM 22.92 73.256 0.431 7.65 3.58 7.41
8/8/2022 4:30:00 PM 22.84 73.112 0.431 7.66 3.37 7.36
8/8/2022 4:45:00 PM 22.99 73.382 0.43 7.68 3.51 7.46
8/8/2022 5:00:00 PM 22.96 73.328 0.431 7.67 5.25 7.5
8/8/2022 5:15:00 PM 22.86 73.148 0.432 7.67 3.85 7.51
8/8/2022 5:30:00 PM 23.1 73.58 0.431 7.7 3.93 7.74
8/8/2022 5:45:00 PM 23.17 73.706 0.431 7.71 3.79 7.83
8/8/2022 6:00:00 PM 23.15 73.67 0.43 7.71 3.6 7.83
8/8/2022 6:15:00 PM 23.16 73.688 0.431 7.72 3.63 7.79
8/8/2022 6:30:00 PM 23.21 73.778 0.432 7.71 3.43 7.78
8/8/2022 6:45:00 PM 23.3 73.94 0.431 7.72 3.96 7.71
8/8/2022 7:00:00 PM 23.03 73.454 0.433 7.71 3.39 7.54
8/8/2022 7:15:00 PM 23.2 73.76 0.432 7.71 3.74 7.42
8/8/2022 7:30:00 PM 23.07 73.526 0.432 7.69 3.51 7.23
8/8/2022 7:45:00 PM 23.13 73.634 0.432 7.7 3.61 7.22
8/8/2022 8:00:00 PM 23.12 73.616 0.432 7.7 3.97 7.14
8/8/2022 8:15:00 PM 23.14 73.652 0.431 7.69 4.13 7.12
8/8/2022 8:30:00 PM 23.02 73.436 0.432 7.67 4.01 6.92
8/8/2022 8:45:00 PM 22.96 73.328 0.433 7.68 4.07 6.92
8/8/2022 9:00:00 PM 22.98 73.364 0.432 7.67 4.23 6.9
8/8/2022 9:15:00 PM 22.94 73.292 0.432 7.67 3.98 6.88
8/8/2022 9:30:00 PM 22.88 73.184 0.433 7.67 4.77 6.82
8/8/2022 9:45:00 PM 22.92 73.256 0.432 7.67 4.51 6.78
8/8/2022 10:00:00 PM 22.69 72.842 0.434 7.64 4.09 6.64
8/8/2022 10:15:00 PM 22.71 72.878 0.433 7.66 4.49 6.68
8/8/2022 10:30:00 PM 22.81 73.058 0.433 7.67 4.79 6.62
8/8/2022 10:45:00 PM 22.71 72.878 0.433 7.66 4.38 6.61
8/8/2022 11:00:00 PM 22.7 72.86 0.434 7.65 4.75 6.45
8/8/2022 11:15:00 PM 22.66 72.788 0.434 7.66 5.27 6.43
8/8/2022 11:30:00 PM 22.64 72.752 0.434 7.65 5.42 6.44
8/8/2022 11:45:00 PM 22.6 72.68 0.434 7.65 4.9 6.4
8/9/2022 12:00:00 AM 22.48 72.464 0.435 7.62 4.61 6.23
8/9/2022 12:15:00 AM 22.44 72.392 0.435 7.63 4.75 6.08
8/9/2022 12:30:00 AM 22.39 72.302 0.436 7.62 4.22 6.17
8/9/2022 12:45:00 AM 22.39 72.302 0.435 7.63 4.59 6.15
8/9/2022 1:00:00 AM 22.43 72.374 0.435 7.63 4.43 6.11
8/9/2022 1:15:00 AM 22.37 72.266 0.435 7.63 4.49 6.1
8/9/2022 1:30:00 AM 22.28 72.104 0.436 7.63 4.73 6
8/9/2022 1:45:00 AM 22.27 72.086 0.435 7.63 4.68 5.99
8/9/2022 2:00:00 AM 22.06 71.708 0.436 7.61 4.9 5.86
8/9/2022 2:15:00 AM 22.13 71.834 0.436 7.61 5.02 5.8
8/9/2022 2:30:00 AM 22.06 71.708 0.437 7.6 5.02 5.75
8/9/2022 2:45:00 AM 21.98 71.564 0.436 7.6 4.64 5.67
8/9/2022 3:00:00 AM 21.97 71.546 0.437 7.6 5.07 5.6
8/9/2022 3:15:00 AM 21.94 71.492 0.437 7.6 4.91 5.53
8/9/2022 3:30:00 AM 21.81 71.258 0.437 7.59 4.59 5.53
8/9/2022 3:45:00 AM 21.78 71.204 0.437 7.58 4.44 5.47
8/9/2022 4:00:00 AM 21.69 71.042 0.439 7.56 5.22 5.32
8/9/2022 4:15:00 AM 21.72 71.096 0.438 7.57 4.92 5.34
8/9/2022 4:30:00 AM 21.62 70.916 0.438 7.56 4.97 5.25
8/9/2022 4:45:00 AM 21.65 70.97 0.438 7.56 4.98 5.27
8/9/2022 5:00:00 AM 21.67 71.006 0.437 7.56 4.83 5.21
8/9/2022 5:15:00 AM 21.6 70.88 0.438 7.56 4.97 5.11
8/9/2022 5:30:00 AM 21.54 70.772 0.438 7.55 4.71 5.07
8/9/2022 5:45:00 AM 21.36 70.448 0.44 7.52 4.42 4.94
8/9/2022 6:00:00 AM 21.49 70.682 0.438 7.53 4.64 5
8/9/2022 6:15:00 AM 21.49 70.682 0.438 7.54 5.82 4.99
8/9/2022 6:30:00 AM 21.41 70.538 0.439 7.53 6.08 4.96
8/9/2022 6:45:00 AM 21.34 70.412 0.438 7.53 4.78 4.91
8/9/2022 7:00:00 AM 21.35 70.43 0.439 7.52 6.43 4.84
8/9/2022 7:15:00 AM 21.41 70.538 0.438 7.52 4.36 4.89
8/9/2022 7:30:00 AM 21.32 70.376 0.439 7.52 4.68 4.89
8/9/2022 7:45:00 AM 21.41 70.538 0.438 7.53 4.27 5
8/9/2022 8:00:00 AM 21.28 70.304 0.438 7.51 4.84 4.97
8/9/2022 8:15:00 AM 21.13 70.034 0.44 7.51 5.37 4.96
8/9/2022 8:30:00 AM 21.28 70.304 0.438 7.52 4.09 4.98
8/9/2022 8:45:00 AM 21.42 70.556 0.437 7.53 3.9 5.09
8/9/2022 9:00:00 AM 21.31 70.358 0.437 7.53 3.97 5.03
8/9/2022 9:15:00 AM 21.35 70.43 0.436 7.53 4.14 5.05
8/9/2022 9:30:00 AM 21.26 70.268 0.436 7.53 3.8 5.04
8/9/2022 9:45:00 AM 21.28 70.304 0.435 7.53 4.04 5.21
8/9/2022 10:00:00 AM 21.22 70.196 0.436 7.54 3.46 5.23
8/9/2022 10:15:00 AM 21.18 70.124 0.435 7.54 3.73 5.36
8/9/2022 10:30:00 AM 21.27 70.286 0.434 7.56 3.79 5.57
8/9/2022 10:45:00 AM 21.21 70.17799 0.435 7.55 3.74 5.61
8/9/2022 11:00:00 AM 21.36 70.448 0.434 7.57 3.7 5.97
8/9/2022 11:15:00 AM 21.37 70.466 0.434 7.59 3.96 6.18
8/9/2022 11:30:00 AM 21.47 70.646 0.433 7.59 4.02 6.36
8/9/2022 11:45:00 AM 21.59 70.862 0.433 7.61 4.3 6.57
8/9/2022 12:00:00 PM 21.48 70.664 0.434 7.61 4.05 6.59
8/9/2022 12:15:00 PM 21.52 70.736 0.434 7.61 4.5 6.62
8/9/2022 12:30:00 PM 21.63 70.934 0.433 7.61 3.56 6.65
8/9/2022 12:45:00 PM 21.68 71.024 0.433 7.62 3.62 6.74
8/9/2022 1:00:00 PM 21.59 70.862 0.434 7.61 3.55 6.75
8/9/2022 1:15:00 PM 21.38 70.484 0.437 7.6 3.5 6.65
8/9/2022 1:30:00 PM 21.6 70.88 0.434 7.61 3.77 6.77
8/9/2022 1:45:00 PM 21.72 71.096 0.434 7.63 3.99 6.86
8/9/2022 2:00:00 PM 21.87 71.366 0.433 7.63 3.71 7.07
8/9/2022 2:15:00 PM 21.97 71.546 0.433 7.62 3.54 7.15
8/9/2022 2:30:00 PM 22 71.6 0.433 7.65 3.53 7.29
8/9/2022 2:45:00 PM 21.94 71.492 0.434 7.63 3.68 7.32
8/9/2022 3:00:00 PM 22.02 71.636 0.433 7.66 3.29 7.47
8/9/2022 3:15:00 PM 22.1 71.78 0.433 7.66 3.35 7.39
8/9/2022 3:30:00 PM 22.2 71.96 0.433 7.66 3.35 7.55
8/9/2022 3:45:00 PM 22.22 71.996 0.434 7.68 3.54 7.64
8/9/2022 4:00:00 PM 22.43 72.374 0.433 7.68 3.28 7.82
8/9/2022 4:15:00 PM 22.4 72.32 0.433 7.69 3.4 7.85
8/9/2022 4:30:00 PM 22.43 72.374 0.433 7.69 3.39 7.96
8/9/2022 4:45:00 PM 22.29 72.122 0.435 7.69 3.4 7.75
8/9/2022 5:00:00 PM 22.34 72.212 0.433 7.69 3.51 7.73
8/9/2022 5:15:00 PM 22.31 72.158 0.433 7.68 3.82 7.72
8/9/2022 5:30:00 PM 22.2 71.96 0.434 7.67 3.64 7.54
8/9/2022 5:45:00 PM 22.04 71.672 0.434 7.68 4 7.59
8/9/2022 6:00:00 PM 21.95 71.51 0.434 7.68 3.51 7.41
8/9/2022 6:15:00 PM 21.94 71.492 0.433 7.68 3.5 7.49
8/9/2022 6:30:00 PM 21.86 71.348 0.434 7.68 3.57 7.39
8/9/2022 6:45:00 PM 21.74 71.132 0.434 7.68 3.74 7.47
8/9/2022 7:00:00 PM 21.74 71.132 0.433 7.68 3.68 7.34
8/9/2022 7:15:00 PM 21.65 70.97 0.433 7.68 3.55 7.33
8/9/2022 7:30:00 PM 21.54 70.772 0.433 7.68 3.53 7.22
8/9/2022 7:45:00 PM 21.48 70.664 0.433 7.68 3.41 7.28
8/9/2022 8:00:00 PM 21.43 70.574 0.433 7.68 3.64 7.2
8/9/2022 8:15:00 PM 21.25 70.25 0.434 7.67 3.49 6.97
8/9/2022 8:30:00 PM 21.23 70.214 0.434 7.66 4.5 7.03
8/9/2022 8:45:00 PM 21.21 70.17799 0.434 7.67 3.85 7.02
8/9/2022 9:00:00 PM 21.08 69.944 0.435 7.65 4.21 6.92
8/9/2022 9:15:00 PM 21.08 69.944 0.434 7.66 4.44 6.96
8/9/2022 9:30:00 PM 21.05 69.89 0.434 7.66 4.53 6.96
8/9/2022 9:45:00 PM 21.06 69.908 0.434 7.66 3.96 6.89
8/9/2022 10:00:00 PM 21.02 69.836 0.434 7.66 4.7 6.91
8/9/2022 10:15:00 PM 20.94 69.692 0.435 7.65 4.67 6.81
8/9/2022 10:30:00 PM 21.01 69.818 0.434 7.66 4.71 6.91
8/9/2022 10:45:00 PM 20.83 69.494 0.435 7.65 4.57 6.8
8/9/2022 11:00:00 PM 20.85 69.53 0.435 7.66 4.71 6.78
8/9/2022 11:15:00 PM 20.84 69.512 0.435 7.66 5.28 6.85
8/9/2022 11:30:00 PM 20.78 69.404 0.434 7.66 4.74 6.79
8/9/2022 11:45:00 PM 20.67 69.206 0.435 7.62 5.76 6.67
8/10/2022 12:00:00 AM 20.65 69.17 0.435 7.65 5.93 6.78
8/10/2022 12:15:00 AM 20.58 69.044 0.436 7.65 4.52 6.66
8/10/2022 12:30:00 AM 20.59 69.062 0.435 7.65 5.14 6.65
8/10/2022 12:45:00 AM 20.53 68.954 0.435 7.64 4.73 6.66
8/10/2022 1:00:00 AM 20.35 68.63 0.436 7.62 4.19 6.52
8/10/2022 1:15:00 AM 20.42 68.756 0.435 7.64 4.7 6.57
8/10/2022 1:30:00 AM 20.33 68.594 0.436 7.63 4.9 6.48
8/10/2022 1:45:00 AM 20.28 68.504 0.436 7.63 5.2 6.43
8/10/2022 2:00:00 AM 20.18 68.324 0.437 7.62 4.66 6.34
8/10/2022 2:15:00 AM 20.15 68.27 0.437 7.62 4.63 6.29
8/10/2022 2:30:00 AM 20 68 0.438 7.59 5.67 6.19
8/10/2022 2:45:00 AM 19.96 67.92799 0.438 7.61 5.86 6.16
8/10/2022 3:00:00 AM 19.87 67.766 0.438 7.61 5.65 6.11
8/10/2022 3:15:00 AM 19.81 67.658 0.438 7.6 4.99 6.04
8/10/2022 3:30:00 AM 19.69 67.442 0.439 7.58 5.53 5.91
8/10/2022 3:45:00 AM 19.65 67.37 0.438 7.59 5.63 5.93
8/10/2022 4:00:00 AM 19.62 67.316 0.439 7.59 5.45 5.87
8/10/2022 4:15:00 AM 19.55 67.19 0.439 7.58 5.2 5.83
8/10/2022 4:30:00 AM 19.49 67.082 0.439 7.58 5.47 5.78
8/10/2022 4:45:00 AM 19.41 66.938 0.44 7.58 5.14 5.76
8/10/2022 5:00:00 AM 19.33 66.794 0.44 7.56 5.52 5.64
8/10/2022 5:15:00 AM 19.22 66.596 0.441 7.54 6.11 5.55
8/10/2022 5:30:00 AM 19.08 66.344 0.442 7.54 6.08 5.59
8/10/2022 5:45:00 AM 19.17 66.506 0.44 7.55 5.71 5.53
8/10/2022 6:00:00 AM 19.13 66.434 0.44 7.55 5.27 5.5
8/10/2022 6:15:00 AM 18.94 66.092 0.441 7.52 5.97 5.36
8/10/2022 6:30:00 AM 18.85 65.93 0.442 7.53 6.71 5.37
8/10/2022 6:45:00 AM 18.91 66.038 0.44 7.54 5.03 5.35
8/10/2022 7:00:00 AM 18.74 65.732 0.443 7.53 8.62 5.31
8/10/2022 7:15:00 AM 18.82 65.876 0.442 7.54 5.38 5.53
8/10/2022 7:30:00 AM 18.77 65.786 0.44 7.53 5.66 5.53
8/10/2022 7:45:00 AM 18.83 65.894 0.44 7.53 4.44 5.56
8/10/2022 8:00:00 AM 18.83 65.894 0.44 7.54 4.87 5.62
8/10/2022 8:15:00 AM 18.4 65.12 0.445 7.54 4.43 5.63
8/10/2022 8:30:00 AM 18.47 65.246 0.448 7.51 4.67 5.77
8/10/2022 8:45:00 AM 18.9 66.02 0.439 7.55 4.29 5.82
8/10/2022 9:00:00 AM 18.91 66.038 0.439 7.56 3.74 5.92
8/10/2022 9:15:00 AM 18.96 66.128 0.439 7.56 3.65 5.97
8/10/2022 9:30:00 AM 18.95 66.11 0.439 7.56 3.99 6.05
8/10/2022 9:45:00 AM 18.99 66.182 0.439 7.56 3.98 6.17
8/10/2022 10:00:00 AM 18.97 66.146 0.439 7.57 4.41 6.14
8/10/2022 10:15:00 AM 18.71 65.67799 0.442 7.53 8.74 5.9
8/10/2022 10:30:00 AM 18.74 65.732 0.444 7.55 6.13 6.12
8/10/2022 10:45:00 AM 18.76 65.768 0.444 7.52 8.51 6.06
8/10/2022 11:00:00 AM 18.97 66.146 0.441 7.54 5.77 6.17
8/10/2022 11:15:00 AM 18.95 66.11 0.441 7.55 16.48 6.51
8/10/2022 11:30:00 AM 19.04 66.272 0.44 7.57 4.45 6.75
8/10/2022 11:45:00 AM 19.2 66.56 0.438 7.6 3.67 6.88
8/10/2022 12:00:00 PM 19.22 66.596 0.438 7.59 3.87 6.98
8/10/2022 12:15:00 PM 19.23 66.614 0.438 7.58 3.91 7.08
8/10/2022 12:30:00 PM 19.25 66.65 0.438 7.6 3.84 7.05
8/10/2022 12:45:00 PM 19.38 66.884 0.437 7.62 3.68 7.31
8/10/2022 1:00:00 PM 19.41 66.938 0.438 7.61 4.14 7.43
8/10/2022 1:15:00 PM 19.46 67.028 0.437 7.63 3.78 7.32
8/10/2022 1:30:00 PM 19.54 67.172 0.437 7.63 3.73 7.54
8/10/2022 1:45:00 PM 19.58 67.244 0.436 7.64 3.22 7.56
8/10/2022 2:00:00 PM 19.59 67.262 0.437 7.63 3.43 7.51
8/10/2022 2:15:00 PM 19.61 67.298 0.437 7.64 3.61 7.65
8/10/2022 2:30:00 PM 19.73 67.514 0.436 7.64 3.61 7.87
8/10/2022 2:45:00 PM 19.78 67.604 0.436 7.64 3.45 7.92
8/10/2022 3:00:00 PM 19.91 67.838 0.434 7.67 3.37 8.01
8/10/2022 3:15:00 PM 19.91 67.838 0.435 7.66 3.81 7.99
8/10/2022 3:30:00 PM 19.9 67.82 0.435 7.67 4.78 7.93
8/10/2022 3:45:00 PM 19.98 67.964 0.435 7.67 3.81 8.05
8/10/2022 4:00:00 PM 20.14 68.252 0.435 7.68 3.46 8.16
8/10/2022 4:15:00 PM 20.14 68.252 0.435 7.68 3.57 8.21
8/10/2022 4:30:00 PM 20.3 68.54 0.435 7.69 3.56 8.34
8/10/2022 4:45:00 PM 20.24 68.432 0.435 7.69 3.68 8.31
8/10/2022 5:00:00 PM 20.2 68.36 0.435 7.68 4.34 8.25
8/10/2022 5:15:00 PM 20.23 68.414 0.435 7.68 4.36 8.18
8/10/2022 5:30:00 PM 20.3 68.54 0.434 7.69 3.79 8.31
8/10/2022 5:45:00 PM 20.26 68.468 0.435 7.69 3.29 8.31
8/10/2022 6:00:00 PM 20.18 68.324 0.435 7.69 3.33 8.12
8/10/2022 6:15:00 PM 20.25 68.45 0.435 7.69 3.6 8.1
8/10/2022 6:30:00 PM 20.19 68.342 0.435 7.68 3.53 8.03
8/10/2022 6:45:00 PM 20.13 68.234 0.435 7.68 3.29 7.91
8/10/2022 7:00:00 PM 20.08 68.144 0.435 7.67 3.58 7.75
8/10/2022 7:15:00 PM 19.96 67.92799 0.435 7.67 3.58 7.6
8/10/2022 7:30:00 PM 19.9 67.82 0.435 7.67 3.55 7.59
8/10/2022 7:45:00 PM 19.94 67.892 0.435 7.67 3.29 7.57
8/10/2022 8:00:00 PM 19.81 67.658 0.435 7.67 3.64 7.48
8/10/2022 8:15:00 PM 19.73 67.514 0.435 7.65 3.85 7.41
8/10/2022 8:30:00 PM 19.64 67.352 0.436 7.65 3.67 7.34
8/10/2022 8:45:00 PM 19.61 67.298 0.435 7.66 4 7.34
8/10/2022 9:00:00 PM 19.6 67.28 0.435 7.65 4.03 7.42
8/10/2022 9:15:00 PM 19.52 67.136 0.436 7.65 3.79 7.32
8/10/2022 9:30:00 PM 19.54 67.172 0.435 7.65 4.09 7.37
8/10/2022 9:45:00 PM 19.51 67.118 0.435 7.65 7.83 7.38
8/10/2022 10:00:00 PM 19.46 67.028 0.435 7.65 4.4 7.31
8/10/2022 10:15:00 PM 19.38 66.884 0.436 7.64 4.25 7.26
8/10/2022 10:30:00 PM 19.43 66.974 0.435 7.64 4.44 7.31
8/10/2022 10:45:00 PM 19.35 66.83 0.436 7.63 3.96 7.22
8/10/2022 11:00:00 PM 19.27 66.686 0.437 7.62 4.04 7.15
8/10/2022 11:15:00 PM 19.32 66.776 0.435 7.65 4.45 7.21
8/10/2022 11:30:00 PM 19.38 66.884 0.435 7.65 4.46 7.3
8/10/2022 11:45:00 PM 19.26 66.668 0.437 7.65 5.07 7.25
8/11/2022 12:00:00 AM 19.26 66.668 0.436 7.65 5.27 7.27
8/11/2022 12:15:00 AM 19.18 66.524 0.437 7.63 4.44 7.14
8/11/2022 12:30:00 AM 19.22 66.596 0.436 7.64 4.99 7.15
8/11/2022 12:45:00 AM 19.16 66.488 0.437 7.62 4.91 7.05
8/11/2022 1:00:00 AM 19.2 66.56 0.436 7.63 4.94 7.14
8/11/2022 1:15:00 AM 19.19 66.542 0.436 7.65 4.49 7.12
8/11/2022 1:30:00 AM 19.09 66.362 0.437 7.64 4.93 7.07
8/11/2022 1:45:00 AM 19.02 66.236 0.438 7.63 4.67 6.94
8/11/2022 2:00:00 AM 19 66.2 0.437 7.64 4.58 6.95
8/11/2022 2:15:00 AM 18.87 65.966 0.438 7.63 5 6.87
8/11/2022 2:30:00 AM 18.91 66.038 0.437 7.63 4.85 6.92
8/11/2022 2:45:00 AM 18.87 65.966 0.437 7.63 4.72 6.82
8/11/2022 3:00:00 AM 18.82 65.876 0.437 7.62 4.4 6.68
8/11/2022 3:15:00 AM 18.67 65.606 0.439 7.62 4.51 6.62
8/11/2022 3:30:00 AM 18.62 65.516 0.44 7.61 4.79 6.59
8/11/2022 3:45:00 AM 18.52 65.336 0.44 7.6 5.06 6.38
8/11/2022 4:00:00 AM 18.54 65.372 0.44 7.6 5.22 6.43
8/11/2022 4:15:00 AM 18.44 65.192 0.44 7.58 4.94 6.34
8/11/2022 4:30:00 AM 18.27 64.886 0.443 7.57 5.08 6.23
8/11/2022 4:45:00 AM 18.31 64.958 0.441 7.59 5.66 6.26
8/11/2022 5:00:00 AM 18.17 64.706 0.442 7.58 5.51 6.18
8/11/2022 5:15:00 AM 18.03 64.454 0.443 7.55 6.25 6.02
8/11/2022 5:30:00 AM 17.96 64.328 0.443 7.57 5.68 6.03
8/11/2022 5:45:00 AM 17.89 64.202 0.443 7.57 5.24 5.96
8/11/2022 6:00:00 AM 17.84 64.112 0.444 7.56 5.61 5.94
8/11/2022 6:15:00 AM 17.79 64.022 0.444 7.55 5.9 5.9
8/11/2022 6:30:00 AM 17.69 63.842 0.445 7.54 4.76 5.8
8/11/2022 6:45:00 AM 17.58 63.644 0.445 7.56 6.24 5.75
8/11/2022 7:00:00 AM 17.51 63.518 0.445 7.54 5.61 5.62
8/11/2022 7:15:00 AM 17.56 63.608 0.444 7.55 5.13 5.82
8/11/2022 7:30:00 AM 17.3 63.14 0.448 7.54 4.55 5.55
8/11/2022 7:45:00 AM 17.47 63.446 0.444 7.56 4.94 5.85
8/11/2022 8:00:00 AM 17.28 63.104 0.448 7.55 4.81 5.84
8/11/2022 8:15:00 AM 17.42 63.356 0.445 7.56 5.44 5.86
8/11/2022 8:30:00 AM 17.38 63.284 0.445 7.56 5.02 5.98
8/11/2022 8:45:00 AM 17.44 63.392 0.444 7.54 4.35 5.84
8/11/2022 9:00:00 AM 17.51 63.518 0.444 7.56 4.38 6.06
8/11/2022 9:15:00 AM 17.55 63.59 0.444 7.57 4.12 6.18
8/11/2022 9:30:00 AM 17.67 63.806 0.444 7.57 4.08 6.23
8/11/2022 9:45:00 AM 17.73 63.914 0.444 7.57 3.99 6.35
8/11/2022 10:00:00 AM 17.73 63.914 0.444 7.57 3.5 6.34
8/11/2022 10:15:00 AM 17.94 64.292 0.444 7.59 3.5 6.47
8/11/2022 10:30:00 AM 18.04 64.472 0.444 7.58 3.6 6.64
8/11/2022 10:45:00 AM 18.15 64.67 0.445 7.57 3.75 6.56
8/11/2022 11:00:00 AM 18.44 65.192 0.443 7.6 4.03 6.99
8/11/2022 11:15:00 AM 18.49 65.282 0.445 7.6 3.69 7.13
8/11/2022 11:30:00 AM 18.51 65.318 0.444 7.6 3.61 7.07
8/11/2022 11:45:00 AM 18.69 65.642 0.444 7.62 3.7 7.41
8/11/2022 12:00:00 PM 18.85 65.93 0.442 7.64 3.77 7.5
8/11/2022 12:15:00 PM 18.86 65.948 0.443 7.63 3.75 7.45
8/11/2022 12:30:00 PM 19.05 66.29 0.442 7.65 4.15 7.56
8/11/2022 12:45:00 PM 19.06 66.308 0.441 7.65 3.51 7.64
8/11/2022 1:00:00 PM 19.11 66.398 0.442 7.64 3.7 7.6
8/11/2022 1:15:00 PM 19.2 66.56 0.442 7.65 3.87 7.63
8/11/2022 1:30:00 PM 19.18 66.524 0.443 7.64 3.23 7.56
8/11/2022 1:45:00 PM 19.39 66.902 0.441 7.64 3.28 7.59
8/11/2022 2:00:00 PM 19.48 67.064 0.441 7.65 3.37 7.49
8/11/2022 2:15:00 PM 19.6 67.28 0.441 7.66 3.42 7.68
8/11/2022 2:30:00 PM 19.74 67.532 0.441 7.66 3.69 7.81
8/11/2022 2:45:00 PM 19.83 67.694 0.44 7.64 3.53 7.72
8/11/2022 3:00:00 PM 19.94 67.892 0.441 7.66 3.37 7.77
8/11/2022 3:15:00 PM 19.88 67.784 0.444 7.63 3.29 7.85
8/11/2022 3:30:00 PM 20.16 68.288 0.441 7.66 3.71 7.93
8/11/2022 3:45:00 PM 20.18 68.324 0.441 7.66 3.44 8.01
8/11/2022 4:00:00 PM 20.33 68.594 0.439 7.68 3.54 8.22
8/11/2022 4:15:00 PM 20.34 68.612 0.439 7.7 3.14 8.32
8/11/2022 4:30:00 PM 20.48 68.864 0.438 7.7 3.34 8.29
8/11/2022 4:45:00 PM 20.41 68.738 0.437 7.7 3.61 8.38
8/11/2022 5:00:00 PM 20.38 68.684 0.437 7.71 3.27 8.28
8/11/2022 5:15:00 PM 20.44 68.792 0.436 7.72 3.31 8.39
8/11/2022 5:30:00 PM 20.4 68.72 0.436 7.71 3.67 8.37
8/11/2022 5:45:00 PM 20.35 68.63 0.435 7.72 3.45 8.31
8/11/2022 6:00:00 PM 20.38 68.684 0.435 7.72 3.64 8.22
8/11/2022 6:15:00 PM 20.18 68.324 0.436 7.69 3.27 8
8/11/2022 6:30:00 PM 20.26 68.468 0.435 7.71 3.39 8.11
8/11/2022 6:45:00 PM 20.16 68.288 0.435 7.72 3.45 8.07
8/11/2022 7:00:00 PM 20.06 68.108 0.435 7.7 3.42 7.83
8/11/2022 7:15:00 PM 19.98 67.964 0.435 7.69 3.73 7.66
8/11/2022 7:30:00 PM 19.84 67.712 0.436 7.67 3.49 7.53
8/11/2022 7:45:00 PM 19.98 67.964 0.434 7.7 3.42 7.64
8/11/2022 8:00:00 PM 19.75 67.55 0.436 7.68 3.79 7.4
8/11/2022 8:15:00 PM 19.79 67.622 0.435 7.68 3.38 7.28
8/11/2022 8:30:00 PM 19.79 67.622 0.435 7.69 4.07 7.43
8/11/2022 8:45:00 PM 19.73 67.514 0.435 7.67 4.19 7.3
8/11/2022 9:00:00 PM 19.61 67.298 0.435 7.67 3.82 7.2
8/11/2022 9:15:00 PM 19.58 67.244 0.436 7.65 3.78 7.05
8/11/2022 9:30:00 PM 19.57 67.226 0.435 7.64 3.82 7.07
8/11/2022 9:45:00 PM 19.58 67.244 0.435 7.66 4.1 7.09
8/11/2022 10:00:00 PM 19.44 66.992 0.436 7.65 4.02 6.99
8/11/2022 10:15:00 PM 19.55 67.19 0.434 7.66 4.16 7.11
8/11/2022 10:30:00 PM 19.29 66.722 0.436 7.64 4.54 6.98
8/11/2022 10:45:00 PM 19.37 66.866 0.435 7.63 4.61 7.03
8/11/2022 11:00:00 PM 19.23 66.614 0.437 7.63 4.44 6.85
8/11/2022 11:15:00 PM 19.19 66.542 0.436 7.63 4.99 6.86
8/11/2022 11:30:00 PM 19.14 66.452 0.436 7.64 5 6.87
8/11/2022 11:45:00 PM 19.17 66.506 0.435 7.64 3.86 6.9
8/12/2022 12:00:00 AM 19.18 66.524 0.435 7.65 5.09 6.9
8/12/2022 12:15:00 AM 19.19 66.542 0.434 7.66 4.53 7.01
8/12/2022 12:30:00 AM 19.15 66.47 0.434 7.66 4.47 6.99
8/12/2022 12:45:00 AM 19.03 66.254 0.435 7.63 4.13 6.92
8/12/2022 1:00:00 AM 19.06 66.308 0.434 7.65 4.65 6.95
8/12/2022 1:15:00 AM 18.88 65.984 0.436 7.64 4.19 6.76
8/12/2022 1:30:00 AM 18.78 65.804 0.436 7.63 5.51 6.77
8/12/2022 1:45:00 AM 18.87 65.966 0.434 7.65 4.33 6.9
8/12/2022 2:00:00 AM 18.82 65.876 0.435 7.65 4.75 6.92
8/12/2022 2:15:00 AM 18.45 65.21 0.442 7.59 4.22 6.66
8/12/2022 2:30:00 AM 18.61 65.498 0.436 7.63 4.53 6.69
8/12/2022 2:45:00 AM 18.52 65.336 0.436 7.63 4.16 6.66
8/12/2022 3:00:00 AM 18.35 65.03 0.438 7.61 4.8 6.62
8/12/2022 3:15:00 AM 18.3 64.94 0.438 7.62 5.09 6.47
8/12/2022 3:30:00 AM 18.18 64.724 0.439 7.58 4.6 6.36
8/12/2022 3:45:00 AM 18.08 64.544 0.441 7.6 4.55 6.36
8/12/2022 4:00:00 AM 18.11 64.598 0.439 7.6 4.88 6.38
8/12/2022 4:15:00 AM 17.9 64.22 0.441 7.59 5.04 6.18
8/12/2022 4:30:00 AM 17.74 63.932 0.443 7.6 4.96 6.19
8/12/2022 4:45:00 AM 17.73 63.914 0.44 7.56 5.56 5.98
8/12/2022 5:00:00 AM 17.79 64.022 0.44 7.59 4.85 6.25
8/12/2022 5:15:00 AM 17.62 63.716 0.442 7.57 5.62 6.04
8/12/2022 5:30:00 AM 17.51 63.518 0.442 7.58 4.86 5.88
8/12/2022 5:45:00 AM 17.4 63.32 0.444 7.58 4.68 5.9
8/12/2022 6:00:00 AM 17.41 63.338 0.442 7.58 4.72 5.91
8/12/2022 6:15:00 AM 17.27 63.086 0.443 7.58 4.61 5.95
8/12/2022 6:30:00 AM 17.11 62.798 0.445 7.56 4.97 5.88
8/12/2022 6:45:00 AM 17.11 62.798 0.444 7.57 4.65 5.54
8/12/2022 7:00:00 AM 16.76 62.168 0.453 7.54 6.43 5.76
8/12/2022 7:15:00 AM 16.97 62.546 0.445 7.56 5.01 5.68
8/12/2022 7:30:00 AM 16.98 62.564 0.444 7.56 4.2 5.83
8/12/2022 7:45:00 AM 16.91 62.438 0.445 7.55 4.29 5.64
8/12/2022 8:00:00 AM 16.6 61.88 0.45 7.52 6.88 5.58
8/12/2022 8:15:00 AM 16.82 62.276 0.446 7.56 6.3 5.9
8/12/2022 8:30:00 AM 16.76 62.168 0.448 7.55 5.07 5.67
8/12/2022 8:45:00 AM 16.59 61.862 0.449 7.53 4.78 5.75
8/12/2022 9:00:00 AM 16.81 62.258 0.446 7.53 4.23 6.01
8/12/2022 9:15:00 AM 16.88 62.384 0.446 7.54 4.53 5.79
8/12/2022 9:30:00 AM 16.83 62.294 0.449 7.52 3.95 6
8/12/2022 9:45:00 AM 16.98 62.564 0.446 7.53 4.29 6.11
8/12/2022 10:00:00 AM 16.89 62.402 0.449 7.56 3.91 6.2
8/12/2022 10:15:00 AM 17.01 62.618 0.451 7.54 3.52 6.28
8/12/2022 10:30:00 AM 17.01 62.618 0.454 7.57 4.58 6.44
8/12/2022 10:45:00 AM 17.27 63.086 0.449 7.56 3.88 6.46
8/12/2022 11:00:00 AM 17.15 62.87 0.453 7.55 26.59 6.52
8/12/2022 11:15:00 AM 17.36 63.248 0.449 7.59 5.23 6.79
8/12/2022 11:30:00 AM 17.62 63.716 0.449 7.59 3.66 7.05
8/12/2022 11:45:00 AM 17.67 63.806 0.446 7.59 3.55 6.99
8/12/2022 12:00:00 PM 17.8 64.04 0.446 7.58 4.05 6.84
8/12/2022 12:15:00 PM 17.94 64.292 0.448 7.61 3.61 7.29
8/12/2022 12:30:00 PM 18.11 64.598 0.445 7.6 3.68 7.24
8/12/2022 12:45:00 PM 18.13 64.634 0.445 7.62 3.57 7.11
8/12/2022 1:00:00 PM 18.33 64.994 0.445 7.62 3.29 7.39
8/12/2022 1:15:00 PM 18.33 64.994 0.445 7.6 4.91 7.05
8/12/2022 1:30:00 PM 18.31 64.958 0.447 7.61 3.77 7.4
8/12/2022 1:45:00 PM 18.65 65.57 0.442 7.64 3.51 7.51
8/12/2022 2:00:00 PM 18.36 65.048 0.451 7.63 3.38 7.53
8/12/2022 2:15:00 PM 18.68 65.624 0.444 7.63 3.62 7.44
8/12/2022 2:30:00 PM 18.74 65.732 0.444 7.62 3.7 7.59
8/12/2022 2:45:00 PM 18.8 65.84 0.443 7.64 3.25 7.59
8/12/2022 3:00:00 PM 18.86 65.948 0.444 7.66 4.44 7.54
8/12/2022 3:15:00 PM 18.94 66.092 0.443 7.66 3.7 7.74
8/12/2022 3:30:00 PM 19.21 66.578 0.44 7.66 3.29 8.03
8/12/2022 3:45:00 PM 19.24 66.632 0.443 7.67 3.59 7.96
8/12/2022 4:00:00 PM 19.17 66.506 0.444 7.68 3.23 8.08
8/12/2022 4:15:00 PM 19.45 67.01 0.442 7.68 3.11 8.18
8/12/2022 4:30:00 PM 19.23 66.614 0.444 7.68 3.38 8.06
8/12/2022 4:45:00 PM 19.28 66.704 0.441 7.69 3.44 8.11
8/12/2022 5:00:00 PM 19.07 66.326 0.444 7.69 3.04 8.04
8/12/2022 5:15:00 PM 19.19 66.542 0.442 7.69 2.93 8.11
8/12/2022 5:30:00 PM 19.28 66.704 0.441 7.69 5.12 8.12
8/12/2022 5:45:00 PM 19.16 66.488 0.44 7.7 3.55 8.09
8/12/2022 6:00:00 PM 19.03 66.254 0.44 7.69 3.41 8.01
8/12/2022 6:15:00 PM 18.81 65.858 0.442 7.66 3.15 7.85
8/12/2022 6:30:00 PM 18.74 65.732 0.443 7.63 5.81 7.59
8/12/2022 6:45:00 PM 18.74 65.732 0.442 7.67 3.77 7.85
8/12/2022 7:00:00 PM 18.69 65.642 0.44 7.66 3.25 7.81
8/12/2022 7:15:00 PM 18.67 65.606 0.439 7.68 3.16 7.63
8/12/2022 7:30:00 PM 18.57 65.426 0.44 7.68 3.43 7.52
8/12/2022 7:45:00 PM 18.56 65.408 0.44 7.68 3.51 7.46
8/12/2022 8:00:00 PM 18.6 65.48 0.438 7.68 3.3 7.41
8/12/2022 8:15:00 PM 18.18 64.724 0.443 7.63 3.41 7.21
8/12/2022 8:30:00 PM 18.1 64.58 0.444 7.62 3.75 7.11
8/12/2022 8:45:00 PM 18.22 64.796 0.44 7.65 3.69 7.12
8/12/2022 9:00:00 PM 18.1 64.58 0.442 7.64 3.47 7.15
8/12/2022 9:15:00 PM 18.06 64.508 0.441 7.61 3.66 6.98
8/12/2022 9:30:00 PM 17.92 64.256 0.445 7.6 3.53 6.98
8/12/2022 9:45:00 PM 17.9 64.22 0.443 7.63 3.43 6.96
8/12/2022 10:00:00 PM 18.02 64.436 0.438 7.63 4.05 6.95
8/12/2022 10:15:00 PM 17.82 64.076 0.444 7.62 3.83 7.09
8/12/2022 10:30:00 PM 17.95 64.31 0.44 7.64 3.95 7.2
8/12/2022 10:45:00 PM 17.94 64.292 0.439 7.61 3.81 7
8/12/2022 11:00:00 PM 17.72 63.896 0.444 7.61 4 7.08
8/12/2022 11:15:00 PM 17.86 64.148 0.438 7.62 4.22 7.08
8/12/2022 11:30:00 PM 17.6 63.68 0.444 7.61 3.94 6.98
8/12/2022 11:45:00 PM 17.76 63.968 0.439 7.61 4.1 7.08
8/13/2022 12:00:00 AM 17.63 63.734 0.441 7.62 3.76 7.06
8/13/2022 12:15:00 AM 17.72 63.896 0.44 7.64 4.15 7.11
8/13/2022 12:30:00 AM 17.62 63.716 0.44 7.62 3.85 7.01
8/13/2022 12:45:00 AM 17.61 63.698 0.439 7.63 4.27 6.99
8/13/2022 1:00:00 AM 17.58 63.644 0.44 7.61 4.62 6.8
8/13/2022 1:15:00 AM 17.61 63.698 0.438 7.63 4.38 7.08
8/13/2022 1:30:00 AM 17.46 63.428 0.441 7.61 4.36 6.68
8/13/2022 1:45:00 AM 17.5 63.5 0.439 7.63 4.5 6.91
8/13/2022 2:00:00 AM 17.38 63.284 0.441 7.62 4.27 6.92
8/13/2022 2:15:00 AM 17.32 63.176 0.441 7.62 4.27 6.78
8/13/2022 2:30:00 AM 17.18 62.924 0.443 7.6 4.1 6.52
8/13/2022 2:45:00 AM 17.09 62.762 0.443 7.6 4.45 6.63
8/13/2022 3:00:00 AM 17.15 62.87 0.441 7.63 4.53 6.72
8/13/2022 3:15:00 AM 17.02 62.636 0.443 7.58 4.38 6.6
8/13/2022 3:30:00 AM 16.91 62.438 0.445 7.59 5.22 6.47
8/13/2022 3:45:00 AM 16.76 62.168 0.447 7.58 4.84 6.51
8/13/2022 4:00:00 AM 16.68 62.024 0.445 7.56 4.66 6.29
8/13/2022 4:15:00 AM 16.58 61.844 0.446 7.59 4.56 6.48
8/13/2022 4:30:00 AM 16.42 61.556 0.448 7.56 4.64 6.38
8/13/2022 4:45:00 AM 16.51 61.718 0.445 7.6 5.16 6.29
8/13/2022 5:00:00 AM 16.31 61.358 0.449 7.58 4.52 6.39
8/13/2022 5:15:00 AM 16.18 61.124 0.449 7.58 4.6 6.41
8/13/2022 5:30:00 AM 16.22 61.196 0.446 7.56 4.74 6.31
8/13/2022 5:45:00 AM 16.06 60.908 0.448 7.56 4.87 6.24
8/13/2022 6:00:00 AM 15.88 60.584 0.452 7.55 4.57 6.02
8/13/2022 6:15:00 AM 15.67 60.206 0.457 7.54 5.84 5.8
8/13/2022 6:30:00 AM 15.78 60.404 0.452 7.59 5.13 6.2
8/13/2022 6:45:00 AM 15.64 60.152 0.452 7.55 4.84 5.91
8/13/2022 7:00:00 AM 15.59 60.062 0.454 7.55 4.26 6.12
8/13/2022 7:15:00 AM 15.51 59.918 0.455 7.57 4.53 5.96
8/13/2022 7:30:00 AM 15.59 60.062 0.449 7.56 5.14 6.19
8/13/2022 7:45:00 AM 15.44 59.792 0.454 7.56 4.21 5.88
8/13/2022 8:00:00 AM 15.42 59.756 0.453 7.55 4.96 6.08
8/13/2022 8:15:00 AM 15.3 59.54 0.453 7.54 4.7 5.86
8/13/2022 8:30:00 AM 15.39 59.702 0.454 7.55 4.51 6.06
8/13/2022 8:45:00 AM 15.38 59.684 0.453 7.54 5.23 6.08
8/13/2022 9:00:00 AM 15.43 59.774 0.452 7.58 4.36 6.26
8/13/2022 9:15:00 AM 15.47 59.846 0.457 7.55 4.6 6.25
8/13/2022 9:30:00 AM 15.41 59.738 0.457 7.5 4.28 6.11
8/13/2022 9:45:00 AM 15.66 60.188 0.451 7.55 4.42 6.43
8/13/2022 10:00:00 AM 15.77 60.386 0.452 7.59 5.54 6.48
8/13/2022 10:15:00 AM 15.8 60.44 0.453 7.57 3.85 6.47
8/13/2022 10:30:00 AM 15.96 60.728 0.457 7.58 4.37 6.74
8/13/2022 10:45:00 AM 16.02 60.836 0.459 7.54 3.84 6.77
8/13/2022 11:00:00 AM 16.23 61.214 0.455 7.59 4.02 6.91
8/13/2022 11:15:00 AM 16.31 61.358 0.457 7.57 3.84 7
8/13/2022 11:30:00 AM 16.46 61.628 0.455 7.58 3.93 7.05
8/13/2022 11:45:00 AM 16.55 61.79 0.457 7.57 3.56 7.19
8/13/2022 12:00:00 PM 16.69 62.042 0.456 7.59 3.66 7.16
8/13/2022 12:15:00 PM 16.85 62.33 0.452 7.58 3.64 7.11
8/13/2022 12:30:00 PM 16.91 62.438 0.456 7.59 3.55 7.25
8/13/2022 12:45:00 PM 17.16 62.888 0.449 7.63 3.91 7.39
8/13/2022 1:00:00 PM 17.24 63.032 0.451 7.61 3.62 7.53
8/13/2022 1:15:00 PM 17.33 63.194 0.452 7.61 3.49 7.52
8/13/2022 1:30:00 PM 17.35 63.23 0.452 7.61 3.28 7.47
8/13/2022 1:45:00 PM 17.63 63.734 0.448 7.65 3.35 7.63
8/13/2022 2:00:00 PM 17.64 63.752 0.452 7.65 3.47 7.88
8/13/2022 2:15:00 PM 17.72 63.896 0.452 7.63 3.4 7.77
8/13/2022 2:30:00 PM 17.83 64.094 0.449 7.63 3.09 7.8
8/13/2022 2:45:00 PM 17.93 64.274 0.449 7.64 3.2 7.96
8/13/2022 3:00:00 PM 18.04 64.472 0.449 7.64 3.2 8
8/13/2022 3:15:00 PM 18.14 64.652 0.449 7.66 3.18 8.12
8/13/2022 3:30:00 PM 18.24 64.832 0.449 7.65 3.29 8.08
8/13/2022 3:45:00 PM 18.33 64.994 0.447 7.68 3.15 8.37
8/13/2022 4:00:00 PM 18.5 65.3 0.447 7.68 4.19 8.32
8/13/2022 4:15:00 PM 18.56 65.408 0.446 7.7 2.9 8.47
8/13/2022 4:30:00 PM 18.6 65.48 0.447 7.7 3.17 8.39
8/13/2022 4:45:00 PM 18.54 65.372 0.447 7.69 3.73 8.43
8/13/2022 5:00:00 PM 18.39 65.102 0.447 7.68 3.62 8.29
8/13/2022 5:15:00 PM 18.49 65.282 0.446 7.69 3.42 8.18
8/13/2022 5:30:00 PM 18.48 65.264 0.446 7.69 3.25 8.31
8/13/2022 5:45:00 PM 18.41 65.138 0.446 7.69 3.14 8.4
8/13/2022 6:00:00 PM 18.32 64.976 0.446 7.69 4.2 8.28
8/13/2022 6:15:00 PM 18.28 64.904 0.445 7.69 3.37 8.18
8/13/2022 6:30:00 PM 18.25 64.85 0.444 7.67 3.48 8.03
8/13/2022 6:45:00 PM 18.25 64.85 0.444 7.69 3.32 7.93
8/13/2022 7:00:00 PM 18.18 64.724 0.444 7.67 3.14 7.82
8/13/2022 7:15:00 PM 18.13 64.634 0.444 7.67 3.71 7.73
8/13/2022 7:30:00 PM 17.97 64.346 0.445 7.64 5.58 7.49
8/13/2022 7:45:00 PM 17.94 64.292 0.445 7.64 3.28 7.39
8/13/2022 8:00:00 PM 17.95 64.31 0.443 7.66 3.23 7.35
8/13/2022 8:15:00 PM 17.89 64.202 0.443 7.66 3.35 7.43
8/13/2022 8:30:00 PM 17.76 63.968 0.444 7.65 3.36 7.29
8/13/2022 8:45:00 PM 17.8 64.04 0.443 7.66 3.54 7.37
8/13/2022 9:00:00 PM 17.77 63.986 0.442 7.65 3.39 7.36
8/13/2022 9:15:00 PM 17.62 63.716 0.443 7.64 3.36 7.26
8/13/2022 9:30:00 PM 17.71 63.878 0.441 7.66 4.01 7.34
8/13/2022 9:45:00 PM 17.6 63.68 0.441 7.64 3.87 7.33
8/13/2022 10:00:00 PM 17.58 63.644 0.442 7.63 3.97 7.24
8/13/2022 10:15:00 PM 17.4 63.32 0.444 7.6 4.33 7.12
8/13/2022 10:30:00 PM 17.54 63.572 0.441 7.65 4.01 7.26
8/13/2022 10:45:00 PM 17.48 63.464 0.442 7.62 3.59 7.25
8/13/2022 11:00:00 PM 17.44 63.392 0.441 7.62 4.21 7.2
8/13/2022 11:15:00 PM 17.33 63.194 0.443 7.62 3.71 7.26
8/13/2022 11:30:00 PM 17.39 63.302 0.443 7.61 4.58 7.11
8/13/2022 11:45:00 PM 17.3 63.14 0.444 7.61 4.37 7.11
8/14/2022 12:00:00 AM 17.35 63.23 0.443 7.63 3.87 7.26
8/14/2022 12:15:00 AM 17.33 63.194 0.442 7.62 4.05 7.29
8/14/2022 12:30:00 AM 17.21 62.978 0.442 7.61 4.66 6.96
8/14/2022 12:45:00 AM 17.11 62.798 0.444 7.59 4.3 6.94
8/14/2022 1:00:00 AM 17.13 62.834 0.447 7.6 3.87 7.08
8/14/2022 1:15:00 AM 17.16 62.888 0.441 7.62 4.83 7.15
8/14/2022 1:30:00 AM 17.08 62.744 0.444 7.61 4.19 7.04
8/14/2022 1:45:00 AM 17.03 62.654 0.446 7.57 4.55 7.04
8/14/2022 2:00:00 AM 16.94 62.492 0.446 7.58 4.33 6.89
8/14/2022 2:15:00 AM 16.81 62.258 0.447 7.6 4.46 6.98
8/14/2022 2:30:00 AM 16.8 62.24 0.443 7.6 5.19 6.94
8/14/2022 2:45:00 AM 16.85 62.33 0.443 7.62 4.88 6.92
8/14/2022 3:00:00 AM 16.77 62.186 0.445 7.57 5.58 6.78
8/14/2022 3:15:00 AM 16.75 62.15 0.442 7.61 5.36 6.85
8/14/2022 3:30:00 AM 16.58 61.844 0.444 7.56 4.83 6.82
8/14/2022 3:45:00 AM 16.53 61.754 0.446 7.57 5.72 6.85
8/14/2022 4:00:00 AM 16.58 61.844 0.442 7.58 5.26 6.86
8/14/2022 4:15:00 AM 16.37 61.466 0.447 7.56 4.81 6.61
8/14/2022 4:30:00 AM 16.41 61.538 0.446 7.58 5.38 6.61
8/14/2022 4:45:00 AM 16.32 61.376 0.448 7.57 4.89 6.65
8/14/2022 5:00:00 AM 16.21 61.178 0.447 7.58 5.12 6.42
8/14/2022 5:15:00 AM 16.03 60.854 0.451 7.55 4.25 6.31
8/14/2022 5:30:00 AM 16.04 60.872 0.448 7.54 4.72 6.36
8/14/2022 5:45:00 AM 16 60.8 0.449 7.57 4.59 6.39
8/14/2022 6:00:00 AM 15.88 60.584 0.449 7.54 5.1 6.33
8/14/2022 6:15:00 AM 15.86 60.548 0.45 7.56 4.94 6.31
8/14/2022 6:30:00 AM 15.83 60.494 0.45 7.58 5.25 6.34
8/14/2022 6:45:00 AM 15.77 60.386 0.449 7.52 4.98 6.26
8/14/2022 7:00:00 AM 15.63 60.134 0.454 7.53 4.9 6.01
8/14/2022 7:15:00 AM 15.49 59.882 0.454 7.55 102.7 6.29
8/14/2022 7:30:00 AM 15.64 60.152 0.45 7.58 4.83 6.29
8/14/2022 7:45:00 AM 15.58 60.044 0.451 7.55 4.87 6.26
8/14/2022 8:00:00 AM 15.47 59.846 0.454 7.53 12.07 6.17
8/14/2022 8:15:00 AM 15.55 59.99 0.449 7.57 6.56 6.3
8/14/2022 8:30:00 AM 15.59 60.062 0.45 7.56 3.97 6.26
8/14/2022 8:45:00 AM 15.56 60.008 0.451 7.55 4.16 6.32
8/14/2022 9:00:00 AM 15.57 60.026 0.451 7.58 4.49 6.41
8/14/2022 9:15:00 AM 15.66 60.188 0.452 7.58 4.78 6.49
8/14/2022 9:30:00 AM 15.75 60.35 0.451 7.59 4.19 6.5
8/14/2022 9:45:00 AM 15.81 60.458 0.452 7.58 4.02 6.63
8/14/2022 10:00:00 AM 15.93 60.674 0.451 7.6 4.32 6.65
8/14/2022 10:15:00 AM 15.99 60.782 0.452 7.58 4.25 6.68
8/14/2022 10:30:00 AM 16.09 60.962 0.453 7.6 4.29 6.86
8/14/2022 10:45:00 AM 16.26 61.268 0.454 7.6 4.56 7.03
8/14/2022 11:00:00 AM 16.4 61.52 0.454 7.61 5.1 7.11
8/14/2022 11:15:00 AM 16.56 61.808 0.452 7.6 4.78 7.16
8/14/2022 11:30:00 AM 16.7 62.06 0.452 7.61 4.9 7.26
8/14/2022 11:45:00 AM 16.72 62.096 0.456 7.59 3.7 6.98
8/14/2022 12:00:00 PM 16.91 62.438 0.455 7.6 3.92 7.28
8/14/2022 12:15:00 PM 17.17 62.906 0.451 7.62 3.52 7.36
8/14/2022 12:30:00 PM 17.32 63.176 0.451 7.61 3.42 7.41
8/14/2022 12:45:00 PM 17.41 63.338 0.451 7.61 3.57 7.48
8/14/2022 1:00:00 PM 17.53 63.554 0.449 7.63 3.6 7.62
8/14/2022 1:15:00 PM 17.62 63.716 0.45 7.63 3.69 7.59
8/14/2022 1:30:00 PM 17.62 63.716 0.451 7.62 3.9 7.64
8/14/2022 1:45:00 PM 17.94 64.292 0.45 7.65 3.36 7.9
8/14/2022 2:00:00 PM 18.06 64.508 0.45 7.66 3.14 7.74
8/14/2022 2:15:00 PM 18.23 64.814 0.449 7.65 4.07 8.08
8/14/2022 2:30:00 PM 18.19 64.742 0.45 7.65 3.5 8.05
8/14/2022 2:45:00 PM 18.23 64.814 0.45 7.66 3.46 8.26
8/14/2022 3:00:00 PM 18.29 64.922 0.45 7.63 3.44 8.23
8/14/2022 3:15:00 PM 18.46 65.228 0.449 7.67 3.71 8.39
8/14/2022 3:30:00 PM 18.44 65.192 0.449 7.65 3.28 8.31
8/14/2022 3:45:00 PM 18.52 65.336 0.447 7.69 3.17 8.56
8/14/2022 4:00:00 PM 18.42 65.156 0.448 7.69 3.24 8.56
8/14/2022 4:15:00 PM 18.42 65.156 0.447 7.69 3.33 8.57
8/14/2022 4:30:00 PM 18.32 64.976 0.447 7.7 3.5 8.68
8/14/2022 4:45:00 PM 18.38 65.084 0.446 7.7 3.7 8.64
8/14/2022 5:00:00 PM 18.46 65.228 0.445 7.71 3.94 8.79
8/14/2022 5:15:00 PM 18.44 65.192 0.444 7.71 4.07 8.77
8/14/2022 5:30:00 PM 18.39 65.102 0.444 7.71 3.28 8.82
8/14/2022 5:45:00 PM 18.4 65.12 0.444 7.71 3.21 8.75
8/14/2022 6:00:00 PM 18.47 65.246 0.443 7.72 3.29 8.74
8/14/2022 6:15:00 PM 18.49 65.282 0.442 7.71 3.03 8.62
8/14/2022 6:30:00 PM 18.44 65.192 0.442 7.7 5 8.54
8/14/2022 6:45:00 PM 18.43 65.174 0.442 7.7 3.33 8.38
8/14/2022 7:00:00 PM 18.47 65.246 0.441 7.71 2.86 8.3
8/14/2022 7:15:00 PM 18.37 65.066 0.442 7.69 3.31 8.01
8/14/2022 7:30:00 PM 18.43 65.174 0.441 7.7 3.23 8.07
8/14/2022 7:45:00 PM 18.42 65.156 0.441 7.69 3.11 7.69
8/14/2022 8:00:00 PM 18.49 65.282 0.44 7.7 3.02 7.87
8/14/2022 8:15:00 PM 18.44 65.192 0.441 7.68 2.91 7.68
8/14/2022 8:30:00 PM 18.41 65.138 0.441 7.68 2.95 7.56
8/14/2022 8:45:00 PM 18.46 65.228 0.44 7.68 3.21 7.56
8/14/2022 9:00:00 PM 18.41 65.138 0.44 7.68 3.07 7.53
8/14/2022 9:15:00 PM 18.35 65.03 0.441 7.66 3.15 7.36
8/14/2022 9:30:00 PM 18.29 64.922 0.442 7.63 3.31 7.23
8/14/2022 9:45:00 PM 18.24 64.832 0.442 7.64 3.56 7.29
8/14/2022 10:00:00 PM 18.29 64.922 0.441 7.65 3.66 7.24
8/14/2022 10:15:00 PM 18.25 64.85 0.441 7.65 4.09 7.25
8/14/2022 10:30:00 PM 18.31 64.958 0.44 7.64 4.19 7.28
8/14/2022 10:45:00 PM 18.3 64.94 0.44 7.64 4.08 7.14
8/14/2022 11:00:00 PM 18.23 64.814 0.44 7.64 3.51 7.27
8/14/2022 11:15:00 PM 18.29 64.922 0.44 7.64 3.17 7.16
8/14/2022 11:30:00 PM 18.23 64.814 0.441 7.64 3.9 7.17
8/14/2022 11:45:00 PM 18.21 64.778 0.44 7.65 3.84 7.2
8/15/2022 12:00:00 AM 18.1 64.58 0.441 7.64 3.56 7.12
8/15/2022 12:15:00 AM 18.17 64.706 0.441 7.64 4.57 7.22
8/15/2022 12:30:00 AM 18.07 64.526 0.441 7.63 4.87 7.09
8/15/2022 12:45:00 AM 17.99 64.382 0.441 7.64 4.17 7.12
8/15/2022 1:00:00 AM 17.94 64.292 0.442 7.61 4.04 6.97
8/15/2022 1:15:00 AM 17.96 64.328 0.441 7.63 4.61 7.1
8/15/2022 1:30:00 AM 17.88 64.184 0.441 7.62 3.95 6.99
8/15/2022 1:45:00 AM 17.87 64.166 0.441 7.63 3.75 6.99
8/15/2022 2:00:00 AM 17.79 64.022 0.442 7.63 4.26 6.98
8/15/2022 2:15:00 AM 17.64 63.752 0.445 7.61 4.39 6.89
8/15/2022 2:30:00 AM 17.66 63.788 0.442 7.62 4.24 7.03
8/15/2022 2:45:00 AM 17.58 63.644 0.442 7.59 5.3 6.88
8/15/2022 3:00:00 AM 17.59 63.662 0.443 7.62 5.08 6.92
8/15/2022 3:15:00 AM 17.58 63.644 0.441 7.62 5.32 6.91
8/15/2022 3:30:00 AM 17.45 63.41 0.444 7.6 4.71 6.72
8/15/2022 3:45:00 AM 17.33 63.194 0.445 7.59 5.96 6.8
8/15/2022 4:00:00 AM 17.45 63.41 0.442 7.62 5.09 6.92
8/15/2022 4:15:00 AM 17.32 63.176 0.444 7.6 4.91 6.74
8/15/2022 4:30:00 AM 17.33 63.194 0.442 7.58 5.06 6.71
8/15/2022 4:45:00 AM 17.28 63.104 0.442 7.6 5.07 6.75
8/15/2022 5:00:00 AM 17.18 62.924 0.445 7.58 4.72 6.7
8/15/2022 5:15:00 AM 17.16 62.888 0.443 7.6 4.5 6.76
8/15/2022 5:30:00 AM 17.05 62.69 0.445 7.59 5.36 6.61
8/15/2022 5:45:00 AM 17.05 62.69 0.444 7.58 4.55 6.61
8/15/2022 6:00:00 AM 17 62.6 0.445 7.58 5.28 6.56
8/15/2022 6:15:00 AM 16.86 62.348 0.447 7.57 15.88 6.41
8/15/2022 6:30:00 AM 16.62 61.916 0.453 7.55 6.51 6.3
8/15/2022 6:45:00 AM 16.76 62.168 0.451 7.55 6.07 6.36
8/15/2022 7:00:00 AM 16.76 62.168 0.448 7.56 5.57 6.17
8/15/2022 7:15:00 AM 16.7 62.06 0.45 7.54 5.32 6.19
8/15/2022 7:30:00 AM 16.75 62.15 0.447 7.54 4.73 6.28
8/15/2022 7:45:00 AM 16.67 62.006 0.449 7.56 5.77 6.26
8/15/2022 8:00:00 AM 16.76 62.168 0.447 7.59 4.78 6.38
8/15/2022 8:15:00 AM 16.73 62.114 0.447 7.58 4.68 6.27
8/15/2022 8:30:00 AM 16.78 62.204 0.447 7.58 4.88 6.34
8/15/2022 8:45:00 AM 16.69 62.042 0.448 7.57 4.08 6.28
8/15/2022 9:00:00 AM 16.74 62.132 0.449 7.56 4.83 6.36
8/15/2022 9:15:00 AM 16.82 62.276 0.448 7.58 3.81 6.35
8/15/2022 9:30:00 AM 16.96 62.528 0.448 7.59 6.01 6.43
8/15/2022 9:45:00 AM 17.05 62.69 0.447 7.59 4.48 6.47
8/15/2022 10:00:00 AM 17.03 62.654 0.45 7.58 3.63 6.61
8/15/2022 10:15:00 AM 17.09 62.762 0.45 7.58 3.94 6.46
8/15/2022 10:30:00 AM 17.27 63.086 0.451 7.58 4.16 6.62
8/15/2022 10:45:00 AM 17.44 63.392 0.45 7.6 4.15 6.89
8/15/2022 11:00:00 AM 17.64 63.752 0.449 7.62 3.56 7.05
8/15/2022 11:15:00 AM 17.77 63.986 0.449 7.6 3.92 6.96
8/15/2022 11:30:00 AM 17.8 64.04 0.451 7.61 3.58 6.94
8/15/2022 11:45:00 AM 17.96 64.328 0.449 7.61 4.04 7.06
8/15/2022 12:00:00 PM 18.19 64.742 0.45 7.61 3.79 7.28
8/15/2022 12:15:00 PM 18.42 65.156 0.448 7.61 3.97 7.46
8/15/2022 12:30:00 PM 18.5 65.3 0.447 7.65 3.9 7.61
8/15/2022 12:45:00 PM 18.48 65.264 0.447 7.65 4.04 7.73
8/15/2022 1:00:00 PM 18.34 65.012 0.447 7.63 3.72 7.54
8/15/2022 1:15:00 PM 18.29 64.922 0.449 7.64 4.76 7.65
8/15/2022 1:30:00 PM 18.36 65.048 0.447 7.66 4.09 7.6
8/15/2022 1:45:00 PM 18.34 65.012 0.447 7.66 4.85 7.61
8/15/2022 2:00:00 PM 18.35 65.03 0.446 7.64 6.14 7.78
8/15/2022 2:15:00 PM 18.27 64.886 0.446 7.65 4.23 7.75
8/15/2022 2:30:00 PM 18.22 64.796 0.445 7.64 4.03 7.5
8/15/2022 2:45:00 PM 18.1 64.58 0.447 7.64 3.57 7.44
8/15/2022 3:00:00 PM 18.06 64.508 0.446 7.6 3.97 7.26
8/15/2022 3:15:00 PM 18.09 64.562 0.445 7.64 3.53 7.3
8/15/2022 3:30:00 PM 18.1 64.58 0.445 7.62 3.64 7.24
8/15/2022 3:45:00 PM 18.06 64.508 0.445 7.62 3.15 7.26
8/15/2022 4:00:00 PM 17.93 64.274 0.446 7.59 3.38 7.08
8/15/2022 4:15:00 PM 18.01 64.418 0.445 7.64 3.7 7.39
8/15/2022 4:30:00 PM 18.12 64.616 0.444 7.64 3.57 7.52
8/15/2022 4:45:00 PM 18.18 64.724 0.442 7.65 3.14 7.58
8/15/2022 5:00:00 PM 18.3 64.94 0.442 7.68 3.43 7.78
8/15/2022 5:15:00 PM 18.33 64.994 0.442 7.65 3.55 7.84
8/15/2022 5:30:00 PM 18.38 65.084 0.442 7.66 3.32 8
8/15/2022 5:45:00 PM 18.41 65.138 0.441 7.68 3.55 7.83
8/15/2022 6:00:00 PM 18.35 65.03 0.442 7.66 3.15 7.77
8/15/2022 6:15:00 PM 18.49 65.282 0.441 7.67 3.34 7.55
8/15/2022 6:30:00 PM 18.35 65.03 0.442 7.66 3.18 7.46
8/15/2022 6:45:00 PM 18.31 64.958 0.443 7.66 2.94 7.43
8/15/2022 7:00:00 PM 18.41 65.138 0.442 7.65 3.24 7.52
8/15/2022 7:15:00 PM 18.43 65.174 0.442 7.64 3.24 7.31
8/15/2022 7:30:00 PM 18.54 65.372 0.44 7.66 3.05 7.32
8/15/2022 7:45:00 PM 18.48 65.264 0.441 7.64 3.06 7.26
8/15/2022 8:00:00 PM 18.5 65.3 0.442 7.64 3.44 7.2
8/15/2022 8:15:00 PM 18.36 65.048 0.442 7.63 3.1 6.96
8/15/2022 8:30:00 PM 18.25 64.85 0.444 7.61 3.04 6.96
8/15/2022 8:45:00 PM 18.34 65.012 0.441 7.62 4.22 7.07
8/15/2022 9:00:00 PM 18.21 64.778 0.441 7.6 3.22 6.89
8/15/2022 9:15:00 PM 18.12 64.616 0.44 7.63 3.86 6.93
8/15/2022 9:30:00 PM 18.22 64.796 0.438 7.64 4.07 7.04
8/15/2022 9:45:00 PM 18.3 64.94 0.435 7.66 4.08 7.18
8/15/2022 10:00:00 PM 18.19 64.742 0.437 7.64 3.52 6.94
8/15/2022 10:15:00 PM 18.21 64.778 0.436 7.65 3.68 6.88
8/15/2022 10:30:00 PM 18.18 64.724 0.437 7.62 4.56 6.74
8/15/2022 10:45:00 PM 18.1 64.58 0.438 7.61 3.85 6.74
8/15/2022 11:00:00 PM 18.18 64.724 0.437 7.62 4.23 6.85
8/15/2022 11:15:00 PM 18.25 64.85 0.436 7.62 4.27 6.84
8/15/2022 11:30:00 PM 18.33 64.994 0.436 7.63 3.87 6.86
8/15/2022 11:45:00 PM 18.18 64.724 0.438 7.62 4.17 6.7
8/16/2022 12:00:00 AM 18.17 64.706 0.438 7.6 3.75 6.7
8/16/2022 12:15:00 AM 18.24 64.832 0.438 7.62 3.68 6.78
8/16/2022 12:30:00 AM 18.19 64.742 0.438 7.6 3.93 6.75
8/16/2022 12:45:00 AM 18.25 64.85 0.437 7.62 3.87 6.78
8/16/2022 1:00:00 AM 18.15 64.67 0.438 7.62 4.07 6.78
8/16/2022 1:15:00 AM 18.07 64.526 0.441 7.61 3.9 6.68
8/16/2022 1:30:00 AM 18.1 64.58 0.438 7.61 4.09 6.69
8/16/2022 1:45:00 AM 18.06 64.508 0.438 7.6 4.2 6.7
8/16/2022 2:00:00 AM 18.04 64.472 0.439 7.61 4.36 6.67
8/16/2022 2:15:00 AM 17.96 64.328 0.439 7.6 4.06 6.39
8/16/2022 2:30:00 AM 18 64.4 0.438 7.62 4.02 6.69
8/16/2022 2:45:00 AM 17.98 64.364 0.438 7.61 4.06 6.68
8/16/2022 3:00:00 AM 17.95 64.31 0.438 7.61 4.1 6.63
8/16/2022 3:15:00 AM 17.89 64.202 0.438 7.6 4.63 6.59
8/16/2022 3:30:00 AM 17.84 64.112 0.439 7.62 4.49 6.56
8/16/2022 3:45:00 AM 17.84 64.112 0.438 7.59 4.07 6.58
8/16/2022 4:00:00 AM 17.84 64.112 0.438 7.59 4.24 6.5
8/16/2022 4:15:00 AM 17.85 64.13 0.438 7.61 4.75 6.62
8/16/2022 4:30:00 AM 17.86 64.148 0.437 7.61 5.19 6.65
8/16/2022 4:45:00 AM 17.83 64.094 0.437 7.6 4.18 6.59
8/16/2022 5:00:00 AM 17.81 64.058 0.438 7.61 7.78 6.45
8/16/2022 5:15:00 AM 17.74 63.932 0.438 7.61 4.97 6.46
8/16/2022 5:30:00 AM 17.68 63.824 0.439 7.61 4.97 6.4
8/16/2022 5:45:00 AM 17.69 63.842 0.439 7.61 5.55 6.44
8/16/2022 6:00:00 AM 17.55 63.59 0.44 7.58 4.6 6.3
8/16/2022 6:15:00 AM 17.6 63.68 0.44 7.58 6.33 6.27
8/16/2022 6:30:00 AM 17.45 63.41 0.441 7.56 5.24 6.19
8/16/2022 6:45:00 AM 17.52 63.536 0.441 7.58 5.04 6.21
8/16/2022 7:00:00 AM 17.36 63.248 0.442 7.57 4.71 6.16
8/16/2022 7:15:00 AM 17.51 63.518 0.441 7.57 4.18 6.12
8/16/2022 7:30:00 AM 17.43 63.374 0.441 7.57 4.78 5.94
8/16/2022 7:45:00 AM 17.39 63.302 0.44 7.58 5.14 6.13
8/16/2022 8:00:00 AM 17.36 63.248 0.441 7.58 5.07 6.07
8/16/2022 8:15:00 AM 17.41 63.338 0.44 7.58 4.26 6.19
8/16/2022 8:30:00 AM 17.4 63.32 0.44 7.59 4.25 6.19
8/16/2022 8:45:00 AM 17.34 63.212 0.441 7.56 4.11 6.21
8/16/2022 9:00:00 AM 17.44 63.392 0.439 7.58 6 6.43
8/16/2022 9:15:00 AM 17.42 63.356 0.439 7.61 3.97 6.54
8/16/2022 9:30:00 AM 17.45 63.41 0.44 7.59 4.11 6.45
8/16/2022 9:45:00 AM 17.5 63.5 0.439 7.6 3.64 6.66
8/16/2022 10:00:00 AM 17.41 63.338 0.441 7.57 3.94 6.66
8/16/2022 10:15:00 AM 17.48 63.464 0.44 7.63 4.11 6.98
8/16/2022 10:30:00 AM 17.57 63.626 0.439 7.62 3.82 7.14
8/16/2022 10:45:00 AM 17.64 63.752 0.439 7.63 3.8 7.06
8/16/2022 11:00:00 AM 17.64 63.752 0.44 7.63 3.64 7.15
8/16/2022 11:15:00 AM 17.74 63.932 0.439 7.64 4.54 7.44
8/16/2022 11:30:00 AM 17.9 64.22 0.439 7.65 3.8 7.54
8/16/2022 11:45:00 AM 18.03 64.454 0.439 7.66 4 7.69
8/16/2022 12:00:00 PM 18.06 64.508 0.44 7.63 4.01 7.55
8/16/2022 12:15:00 PM 18.21 64.778 0.441 7.64 4.11 7.49
8/16/2022 12:30:00 PM 18.42 65.156 0.437 7.66 3.62 7.57
8/16/2022 12:45:00 PM 18.48 65.264 0.438 7.62 4 7.57
8/16/2022 1:00:00 PM 18.71 65.67799 0.437 7.67 3.74 7.74
8/16/2022 1:15:00 PM 18.79 65.82201 0.437 7.67 3.76 7.78
8/16/2022 1:30:00 PM 18.86 65.948 0.437 7.67 3.64 7.74
8/16/2022 1:45:00 PM 18.87 65.966 0.437 7.67 3.76 7.86
8/16/2022 2:00:00 PM 18.76 65.768 0.437 7.65 3.42 7.76
8/16/2022 2:15:00 PM 18.77 65.786 0.437 7.67 3.7 7.78
8/16/2022 2:30:00 PM 18.63 65.534 0.436 7.65 3.72 7.74
8/16/2022 2:45:00 PM 18.68 65.624 0.435 7.67 3.83 7.74
8/16/2022 3:00:00 PM 18.76 65.768 0.434 7.67 3.21 7.7
8/16/2022 3:15:00 PM 18.72 65.696 0.435 7.66 3.31 7.77
8/16/2022 3:30:00 PM 18.28 64.904 0.44 7.63 3.97 7.43
8/16/2022 3:45:00 PM 18.49 65.282 0.436 7.65 3.41 7.51
8/16/2022 4:00:00 PM 18.51 65.318 0.435 7.65 3.89 7.35
8/16/2022 4:15:00 PM 18.46 65.228 0.434 7.63 3.65 7.19
8/16/2022 4:30:00 PM 18.39 65.102 0.435 7.61 3.62 6.87
8/16/2022 4:45:00 PM 18.42 65.156 0.434 7.62 3.43 6.98
8/16/2022 5:00:00 PM 18.32 64.976 0.434 7.61 3.36 6.81
8/16/2022 5:15:00 PM 18.32 64.976 0.434 7.59 3.55 6.68
8/16/2022 5:30:00 PM 18.33 64.994 0.435 7.62 3.35 6.88
8/16/2022 5:45:00 PM 18.46 65.228 0.432 7.63 3.35 7.08
8/16/2022 6:00:00 PM 18.36 65.048 0.433 7.62 3.55 7.03
8/16/2022 6:15:00 PM 18.53 65.354 0.431 7.64 3.48 7.35
8/16/2022 6:30:00 PM 18.52 65.336 0.431 7.65 3.34 7.28
8/16/2022 6:45:00 PM 18.52 65.336 0.431 7.65 3.79 7.31
8/16/2022 7:00:00 PM 18.51 65.318 0.431 7.64 3.61 7.23
8/16/2022 7:15:00 PM 18.42 65.156 0.431 7.65 3.45 7.2
8/16/2022 7:30:00 PM 18.41 65.138 0.431 7.64 3.58 7.02
8/16/2022 7:45:00 PM 18.43 65.174 0.43 7.64 3.36 6.96
8/16/2022 8:00:00 PM 18.41 65.138 0.43 7.62 3.31 7.01
8/16/2022 8:15:00 PM 18.37 65.066 0.43 7.62 3.69 6.88
8/16/2022 8:30:00 PM 18.43 65.174 0.429 7.63 3.9 7.09
8/16/2022 8:45:00 PM 18.35 65.03 0.429 7.64 3.68 6.96
8/16/2022 9:00:00 PM 18.06 64.508 0.433 7.61 5.73 7.03
8/16/2022 9:15:00 PM 18.42 65.156 0.428 7.64 3.62 7.15
8/16/2022 9:30:00 PM 18.33 64.994 0.429 7.63 4.11 7.02
8/16/2022 9:45:00 PM 18.39 65.102 0.427 7.65 4.03 7.07
8/16/2022 10:00:00 PM 18.24 64.832 0.428 7.64 4.48 7.09
8/16/2022 10:15:00 PM 18.28 64.904 0.427 7.64 4.54 7.15
8/16/2022 10:30:00 PM 18.33 64.994 0.426 7.65 4.68 7.14
8/16/2022 10:45:00 PM 18.26 64.868 0.429 7.63 4.75 6.91
8/16/2022 11:00:00 PM 18.28 64.904 0.426 7.65 4.46 7.09
8/16/2022 11:15:00 PM 18.25 64.85 0.426 7.64 4.31 7.16
8/16/2022 11:30:00 PM 18.22 64.796 0.426 7.66 5.05 7.12
8/16/2022 11:45:00 PM 18.29 64.922 0.425 7.66 4.42 7.12
8/17/2022 12:00:00 AM 18.18 64.724 0.426 7.65 4.89 6.99
8/17/2022 12:15:00 AM 18.12 64.616 0.426 7.65 4.75 6.93
8/17/2022 12:30:00 AM 18.13 64.634 0.426 7.64 5 7.03
8/17/2022 12:45:00 AM 18.07 64.526 0.426 7.63 4.72 6.97
8/17/2022 1:00:00 AM 18.07 64.526 0.428 7.63 4.11 6.93
8/17/2022 1:15:00 AM 17.97 64.346 0.427 7.64 5.39 6.91
8/17/2022 1:30:00 AM 17.99 64.382 0.425 7.64 5.18 6.88
8/17/2022 1:45:00 AM 17.98 64.364 0.426 7.64 4.91 6.87
8/17/2022 2:00:00 AM 17.61 63.698 0.435 7.59 5.12 6.62
8/17/2022 2:15:00 AM 17.85 64.13 0.427 7.62 4.8 6.66
8/17/2022 2:30:00 AM 17.75 63.95 0.428 7.63 4.06 6.75
8/17/2022 2:45:00 AM 17.58 63.644 0.432 7.61 4.42 6.61
8/17/2022 3:00:00 AM 17.66 63.788 0.429 7.61 4.3 6.54
8/17/2022 3:15:00 AM 17.56 63.608 0.43 7.61 4.79 6.54
8/17/2022 3:30:00 AM 17.56 63.608 0.431 7.61 4.53 6.56
8/17/2022 3:45:00 AM 17.59 63.662 0.429 7.61 4.68 6.56
8/17/2022 4:00:00 AM 17.58 63.644 0.428 7.62 5.16 6.5
8/17/2022 4:15:00 AM 17.43 63.374 0.43 7.6 4.3 6.36
8/17/2022 4:30:00 AM 17.51 63.518 0.428 7.61 5.03 6.39
8/17/2022 4:45:00 AM 17.4 63.32 0.43 7.6 4.54 6.3
8/17/2022 5:00:00 AM 17.42 63.356 0.429 7.61 4.3 6.37
8/17/2022 5:15:00 AM 17.3 63.14 0.43 7.6 4.71 6.33
8/17/2022 5:30:00 AM 17.3 63.14 0.431 7.57 4.79 6.24
8/17/2022 5:45:00 AM 17.15 62.87 0.433 7.54 4.62 6.07
8/17/2022 6:00:00 AM 16.66 61.988 0.437 7.59 4.46 6.22
8/17/2022 6:15:00 AM 17.14 62.852 0.431 7.56 4.9 6.11
8/17/2022 6:30:00 AM 17 62.6 0.434 7.56 4.96 6.06
8/17/2022 6:45:00 AM 16.97 62.546 0.432 7.58 6.02 6.03
8/17/2022 7:00:00 AM 16.96 62.528 0.435 7.57 4.93 6.05
8/17/2022 7:15:00 AM 16.92 62.456 0.433 7.57 4.96 6.05
8/17/2022 7:30:00 AM 17.06 62.708 0.43 7.58 4.68 6.19
8/17/2022 7:45:00 AM 17.02 62.636 0.431 7.57 4.82 6.11
8/17/2022 8:00:00 AM 16.83 62.294 0.438 7.56 4.96 6.09
8/17/2022 8:15:00 AM 16.86 62.348 0.436 7.56 5.7 6.27
8/17/2022 8:30:00 AM 17.13 62.834 0.428 7.58 5.17 6.37
8/17/2022 8:45:00 AM 16.99 62.582 0.432 7.59 5.22 6.14
8/17/2022 9:00:00 AM 17.16 62.888 0.429 7.6 5.37 6.57
8/17/2022 9:15:00 AM 17.13 62.834 0.429 7.58 4.73 6.59
8/17/2022 9:30:00 AM 17.21 62.978 0.43 7.61 4.22 6.7
8/17/2022 9:45:00 AM 17.3 63.14 0.43 7.62 4.1 6.94
8/17/2022 10:00:00 AM 17.4 63.32 0.428 7.62 4.12 7.09
8/17/2022 10:15:00 AM 17.48 63.464 0.427 7.64 4.03 7.13
8/17/2022 10:30:00 AM 17.52 63.536 0.427 7.64 4.08 7.31
8/17/2022 10:45:00 AM 17.55 63.59 0.428 7.64 4.07 7.22
8/17/2022 11:00:00 AM 17.64 63.752 0.426 7.65 4.17 7.51
8/17/2022 11:15:00 AM 17.61 63.698 0.427 7.64 8.65 7.41
8/17/2022 11:30:00 AM 17.81 64.058 0.425 7.66 4.71 7.72
8/17/2022 11:45:00 AM 17.83 64.094 0.424 7.66 4.17 7.73
8/17/2022 12:00:00 PM 17.75 63.95 0.426 7.64 3.9 7.57
8/17/2022 12:15:00 PM 17.85 64.13 0.424 7.67 4.21 7.79
8/17/2022 12:30:00 PM 17.88 64.184 0.424 7.66 4.02 7.73
8/17/2022 12:45:00 PM 17.86 64.148 0.424 7.65 4.49 7.58
8/17/2022 1:00:00 PM 17.88 64.184 0.423 7.63 4.4 7.62
8/17/2022 1:15:00 PM 17.96 64.328 0.422 7.66 4.01 7.73
8/17/2022 1:30:00 PM 18.01 64.418 0.423 7.65 3.76 7.7
8/17/2022 1:45:00 PM 18.24 64.832 0.421 7.66 3.69 7.91
8/17/2022 2:00:00 PM 18.31 64.958 0.422 7.66 3.64 7.88
8/17/2022 2:15:00 PM 18.35 65.03 0.42 7.66 3.59 7.9
8/17/2022 2:30:00 PM 18.47 65.246 0.42 7.67 3.56 8.06
8/17/2022 2:45:00 PM 18.4 65.12 0.42 7.67 3.51 8
8/17/2022 3:00:00 PM 18.35 65.03 0.423 7.65 6.06 7.79
8/17/2022 3:15:00 PM 18.56 65.408 0.42 7.67 4.54 8.07
8/17/2022 3:30:00 PM 18.36 65.048 0.425 7.63 5.86 7.78
8/17/2022 3:45:00 PM 18.65 65.57 0.419 7.67 4.46 7.98
8/17/2022 4:00:00 PM 18.69 65.642 0.419 7.67 4.33 8.01
8/17/2022 4:15:00 PM 18.58 65.444 0.419 7.67 3.86 7.82
8/17/2022 4:30:00 PM 18.54 65.372 0.42 7.66 3.68 7.84
8/17/2022 4:45:00 PM 18.55 65.39 0.417 7.67 4.33 7.89
8/17/2022 5:00:00 PM 18.44 65.192 0.417 7.67 3.82 7.8
8/17/2022 5:15:00 PM 18.34 65.012 0.416 7.68 3.62 7.67
8/17/2022 5:30:00 PM 18.32 64.976 0.415 7.68 4.33 7.54
8/17/2022 5:45:00 PM 18.25 64.85 0.415 7.68 3.79 7.46
8/17/2022 6:00:00 PM 18.28 64.904 0.414 7.66 3.94 7.38
8/17/2022 6:15:00 PM 18.21 64.778 0.415 7.63 4.49 7.32
8/17/2022 6:30:00 PM 18.21 64.778 0.415 7.65 4.08 7.24
8/17/2022 6:45:00 PM 18.25 64.85 0.415 7.66 4.09 7.39
8/17/2022 7:00:00 PM 18.2 64.76 0.416 7.66 3.88 7.37
8/17/2022 7:15:00 PM 18.2 64.76 0.417 7.64 3.81 7.33
8/17/2022 7:30:00 PM 18.21 64.778 0.416 7.64 3.73 7.31
8/17/2022 7:45:00 PM 18.14 64.652 0.417 7.66 3.83 7.35
8/17/2022 8:00:00 PM 18.26 64.868 0.415 7.67 3.98 7.34
8/17/2022 8:15:00 PM 18.11 64.598 0.416 7.64 3.76 7.18
8/17/2022 8:30:00 PM 18.18 64.724 0.415 7.67 5.56 7.38
8/17/2022 8:45:00 PM 18.03 64.454 0.418 7.66 3.91 7.18
8/17/2022 9:00:00 PM 18.1 64.58 0.418 7.67 3.64 7.36
8/17/2022 9:15:00 PM 18.04 64.472 0.416 7.66 3.94 7.36
8/17/2022 9:30:00 PM 18 64.4 0.417 7.65 4.16 7.15
8/17/2022 9:45:00 PM 18.06 64.508 0.415 7.67 4.03 7.37
8/17/2022 10:00:00 PM 17.96 64.328 0.416 7.64 4.2 7.15
8/17/2022 10:15:00 PM 17.98 64.364 0.416 7.65 4.89 7.36
8/17/2022 10:30:00 PM 17.96 64.328 0.416 7.67 4.96 7.34
8/17/2022 10:45:00 PM 17.85 64.13 0.418 7.64 4.41 7.17
8/17/2022 11:00:00 PM 17.83 64.094 0.417 7.64 5 7.29
8/17/2022 11:15:00 PM 17.88 64.184 0.416 7.65 5.65 7.34
8/17/2022 11:30:00 PM 17.84 64.112 0.417 7.66 4.68 7.3
8/17/2022 11:45:00 PM 17.81 64.058 0.417 7.67 4.59 7.28
8/18/2022 12:00:00 AM 17.8 64.04 0.418 7.64 5.31 7.19
8/18/2022 12:15:00 AM 17.84 64.112 0.417 7.65 5.82 7.17
8/18/2022 12:30:00 AM 17.84 64.112 0.417 7.65 6.37 7.2
8/18/2022 12:45:00 AM 17.74 63.932 0.418 7.66 5.36 7.2
8/18/2022 1:00:00 AM 17.83 64.094 0.416 7.67 4.64 7.25
8/18/2022 1:15:00 AM 17.79 64.022 0.417 7.67 4.5 7.3
8/18/2022 1:30:00 AM 17.69 63.842 0.418 7.66 4.35 7.23
8/18/2022 1:45:00 AM 17.74 63.932 0.417 7.67 4.05 7.26
8/18/2022 2:00:00 AM 17.72 63.896 0.418 7.64 4.47 7.04
8/18/2022 2:15:00 AM 17.61 63.698 0.419 7.64 4.56 7.11
8/18/2022 2:30:00 AM 17.65 63.77 0.418 7.65 5.26 6.97
8/18/2022 2:45:00 AM 17.66 63.788 0.417 7.66 4.1 7.03
8/18/2022 3:00:00 AM 17.54 63.572 0.42 7.65 4.7 6.85
8/18/2022 3:15:00 AM 17.61 63.698 0.417 7.66 4.7 6.98
8/18/2022 3:30:00 AM 17.52 63.536 0.417 7.65 4.57 6.9
8/18/2022 3:45:00 AM 17.47 63.446 0.417 7.65 4.55 6.86
8/18/2022 4:00:00 AM 17.47 63.446 0.417 7.65 4.93 6.86
8/18/2022 4:15:00 AM 17.38 63.284 0.418 7.64 4.33 6.79
8/18/2022 4:30:00 AM 17.3 63.14 0.417 7.62 4.53 6.7
8/18/2022 4:45:00 AM 17.22 62.996 0.42 7.62 4.94 6.33
8/18/2022 5:00:00 AM 17.16 62.888 0.422 7.63 4.8 6.53
8/18/2022 5:15:00 AM 17.15 62.87 0.418 7.62 4.97 6.49
8/18/2022 5:30:00 AM 17.17 62.906 0.418 7.62 4.54 6.47
8/18/2022 5:45:00 AM 17.06 62.708 0.42 7.6 4.5 6.47
8/18/2022 6:00:00 AM 17.01 62.618 0.418 7.61 5.33 6.43
8/18/2022 6:15:00 AM 16.85 62.33 0.422 7.58 4.41 6.23
8/18/2022 6:30:00 AM 16.8 62.24 0.421 7.58 5.63 6.25
8/18/2022 6:45:00 AM 16.82 62.276 0.419 7.59 4.57 6.24
8/18/2022 7:00:00 AM 16.76 62.168 0.42 7.56 4.65 6.19
8/18/2022 7:15:00 AM 16.68 62.024 0.421 7.59 4.53 6.28
8/18/2022 7:30:00 AM 16.67 62.006 0.421 7.58 4.64 6.21
8/18/2022 7:45:00 AM 16.7 62.06 0.419 7.59 4.68 6.41
8/18/2022 8:00:00 AM 16.7 62.06 0.419 7.58 4.66 6.38
8/18/2022 8:15:00 AM 16.7 62.06 0.419 7.59 4.17 6.54
8/18/2022 8:30:00 AM 16.68 62.024 0.42 7.58 4.36 6.44
8/18/2022 8:45:00 AM 16.68 62.024 0.419 7.61 4.61 6.73
8/18/2022 9:00:00 AM 16.69 62.042 0.42 7.6 3.75 6.71
8/18/2022 9:15:00 AM 16.77 62.186 0.419 7.62 3.8 6.77
8/18/2022 9:30:00 AM 16.76 62.168 0.421 7.61 4.15 6.89
8/18/2022 9:45:00 AM 16.88 62.384 0.418 7.62 3.77 7.12
8/18/2022 10:00:00 AM 16.9 62.42 0.419 7.63 3.61 6.99
8/18/2022 10:15:00 AM 17.04 62.672 0.419 7.63 3.66 6.77
8/18/2022 10:30:00 AM 17.19 62.942 0.419 7.63 3.72 7.27
8/18/2022 10:45:00 AM 17.36 63.248 0.418 7.64 4.17 7.42
8/18/2022 11:00:00 AM 17.46 63.428 0.418 7.65 4.1 7.53
8/18/2022 11:15:00 AM 17.56 63.608 0.419 7.64 3.98 7.31
8/18/2022 11:30:00 AM 17.64 63.752 0.418 7.65 3.69 7.49
8/18/2022 11:45:00 AM 17.71 63.878 0.419 7.64 4.3 7.38
8/18/2022 12:00:00 PM 17.81 64.058 0.418 7.64 3.78 7.57
8/18/2022 12:15:00 PM 17.86 64.148 0.418 7.61 3.96 7.25
8/18/2022 12:30:00 PM 18.04 64.472 0.417 7.66 4.12 7.69
8/18/2022 12:45:00 PM 18.14 64.652 0.417 7.66 3.71 7.75
8/18/2022 1:00:00 PM 18.18 64.724 0.416 7.66 3.62 7.86
8/18/2022 1:15:00 PM 18.2 64.76 0.417 7.64 3.86 7.79
8/18/2022 1:30:00 PM 18.26 64.868 0.417 7.65 3.48 7.93
8/18/2022 1:45:00 PM 18.36 65.048 0.417 7.68 3.69 8.04
8/18/2022 2:00:00 PM 18.39 65.102 0.417 7.68 3.66 8.19
8/18/2022 2:15:00 PM 18.44 65.192 0.418 7.69 3.62 8.16
8/18/2022 2:30:00 PM 18.53 65.354 0.417 7.69 3.44 8.19
8/18/2022 2:45:00 PM 18.58 65.444 0.417 7.68 3.72 8.12
8/18/2022 3:00:00 PM 18.68 65.624 0.416 7.7 3.7 8.2
8/18/2022 3:15:00 PM 18.67 65.606 0.417 7.69 3.66 8.26
8/18/2022 3:30:00 PM 18.76 65.768 0.416 7.7 3.58 8.37
8/18/2022 3:45:00 PM 18.61 65.498 0.419 7.66 3.67 8.3
8/18/2022 4:00:00 PM 18.68 65.624 0.418 7.7 3.27 8.33
8/18/2022 4:15:00 PM 18.76 65.768 0.417 7.7 3.44 8.47
8/18/2022 4:30:00 PM 18.82 65.876 0.415 7.71 3.86 8.45
8/18/2022 4:45:00 PM 18.73 65.714 0.416 7.7 3.76 8.11
8/18/2022 5:00:00 PM 18.57 65.426 0.419 7.68 3.25 7.92
8/18/2022 5:15:00 PM 18.59 65.462 0.417 7.68 3.62 7.88
8/18/2022 5:30:00 PM 18.47 65.246 0.418 7.67 3.43 7.69
8/18/2022 5:45:00 PM 18.45 65.21 0.417 7.69 3.24 7.77
8/18/2022 6:00:00 PM 18.41 65.138 0.417 7.68 3.17 7.55
8/18/2022 6:15:00 PM 18.34 65.012 0.419 7.66 3.39 7.51
8/18/2022 6:30:00 PM 18.3 64.94 0.42 7.67 3.64 7.55
8/18/2022 6:45:00 PM 18.43 65.174 0.417 7.69 23.8 7.68
8/18/2022 7:00:00 PM 18.53 65.354 0.416 7.69 3.71 7.58
8/18/2022 7:15:00 PM 18.46 65.228 0.416 7.67 3.17 7.57
8/18/2022 7:30:00 PM 18.54 65.372 0.416 7.7 3.37 7.74
8/18/2022 7:45:00 PM 18.39 65.102 0.418 7.69 3.25 7.48
8/18/2022 8:00:00 PM 18.47 65.246 0.416 7.67 3.24 7.66
8/18/2022 8:15:00 PM 18.43 65.174 0.417 7.7 3.48 7.52
8/18/2022 8:30:00 PM 18.37 65.066 0.417 7.69 3.61 7.51
8/18/2022 8:45:00 PM 18.41 65.138 0.416 7.69 3.78 7.52
8/18/2022 9:00:00 PM 18.32 64.976 0.416 7.66 3.47 7.36
8/18/2022 9:15:00 PM 18.34 65.012 0.416 7.69 3.87 7.51
8/18/2022 9:30:00 PM 18.22 64.796 0.417 7.65 3.54 7.23
8/18/2022 9:45:00 PM 18.27 64.886 0.416 7.68 3.72 7.38
8/18/2022 10:00:00 PM 18.19 64.742 0.418 7.66 3.71 7.38
8/18/2022 10:15:00 PM 18.21 64.778 0.415 7.66 3.88 7.35
8/18/2022 10:30:00 PM 18.11 64.598 0.418 7.63 4.82 7.18
8/18/2022 10:45:00 PM 18.17 64.706 0.415 7.67 4.08 7.4
8/18/2022 11:00:00 PM 18.14 64.652 0.416 7.68 4.55 7.4
8/18/2022 11:15:00 PM 18.12 64.616 0.417 7.68 4.66 7.41
8/18/2022 11:30:00 PM 18.03 64.454 0.417 7.66 4.37 7.19
8/18/2022 11:45:00 PM 18.11 64.598 0.415 7.67 4.39 7.39
8/19/2022 12:00:00 AM 18.01 64.418 0.416 7.65 3.76 7.24
8/19/2022 12:15:00 AM 18.12 64.616 0.415 7.68 3.96 7.45
8/19/2022 12:30:00 AM 18.07 64.526 0.415 7.68 4.33 7.31
8/19/2022 12:45:00 AM 17.94 64.292 0.416 7.64 4.31 7.13
8/19/2022 1:00:00 AM 17.93 64.274 0.417 7.67 4.38 7.21
8/19/2022 1:15:00 AM 18 64.4 0.415 7.67 4.89 7.25
8/19/2022 1:30:00 AM 17.87 64.166 0.417 7.66 4.51 7.25
8/19/2022 1:45:00 AM 17.89 64.202 0.416 7.67 5.07 7.24
8/19/2022 2:00:00 AM 17.79 64.022 0.417 7.68 5.31 7.24
8/19/2022 2:15:00 AM 17.83 64.094 0.415 7.68 5.25 7.12
8/19/2022 2:30:00 AM 17.72 63.896 0.418 7.64 4.4 7.04
8/19/2022 2:45:00 AM 17.72 63.896 0.416 7.68 3.86 7.21
8/19/2022 3:00:00 AM 17.53 63.554 0.42 7.63 4.15 6.86
8/19/2022 3:15:00 AM 17.63 63.734 0.416 7.66 4.43 7.13
8/19/2022 3:30:00 AM 17.49 63.482 0.417 7.66 3.94 7.07
8/19/2022 3:45:00 AM 17.44 63.392 0.418 7.64 3.82 7.07
8/19/2022 4:00:00 AM 17.4 63.32 0.418 7.64 3.98 6.94
8/19/2022 4:15:00 AM 17.4 63.32 0.417 7.66 4.51 6.98
8/19/2022 4:30:00 AM 17.37 63.266 0.417 7.66 4.38 7.02
8/19/2022 4:45:00 AM 17.27 63.086 0.418 7.65 5.2 6.88
8/19/2022 5:00:00 AM 17.26 63.068 0.418 7.64 5.18 6.71
8/19/2022 5:15:00 AM 17.19 62.942 0.418 7.63 4.89 6.67
8/19/2022 5:30:00 AM 17.04 62.672 0.421 7.62 4.9 6.46
8/19/2022 5:45:00 AM 17.05 62.69 0.419 7.63 4.95 6.6
8/19/2022 6:00:00 AM 17.02 62.636 0.422 7.63 4.46 6.62
8/19/2022 6:15:00 AM 16.96 62.528 0.421 7.63 5.98 6.41
8/19/2022 6:30:00 AM 16.91 62.438 0.422 7.61 5.56 6.48
8/19/2022 6:45:00 AM 16.82 62.276 0.422 7.6 5.06 6.4
8/19/2022 7:00:00 AM 16.75 62.15 0.424 7.59 4.97 6.31
8/19/2022 7:15:00 AM 16.78 62.204 0.422 7.62 5 6.4
8/19/2022 7:30:00 AM 16.65 61.97 0.424 7.58 4.98 6.29
8/19/2022 7:45:00 AM 16.62 61.916 0.425 7.58 4.43 6.28
8/19/2022 8:00:00 AM 16.66 61.988 0.425 7.61 4.22 6.36
8/19/2022 8:15:00 AM 16.65 61.97 0.422 7.61 4.36 6.59
8/19/2022 8:30:00 AM 16.69 62.042 0.422 7.62 3.71 6.6
8/19/2022 8:45:00 AM 16.69 62.042 0.423 7.63 4.09 6.63
8/19/2022 9:00:00 AM 16.57 61.826 0.426 7.58 3.49 6.62
8/19/2022 9:15:00 AM 16.63 61.934 0.427 7.61 3.47 6.47
8/19/2022 9:30:00 AM 16.81 62.258 0.423 7.61 4.01 6.86
8/19/2022 9:45:00 AM 16.86 62.348 0.422 7.61 3.84 6.91
8/19/2022 10:00:00 AM 16.9 62.42 0.426 7.63 3.81 6.89
8/19/2022 10:15:00 AM 17.08 62.744 0.422 7.62 3.86 7
8/19/2022 10:30:00 AM 17.27 63.086 0.423 7.6 4.04 7.07
8/19/2022 10:45:00 AM 17.38 63.284 0.423 7.62 4.01 7.16
8/19/2022 11:00:00 AM 17.52 63.536 0.422 7.65 3.73 7.24
8/19/2022 11:15:00 AM 17.66 63.788 0.422 7.65 3.5 7.32
8/19/2022 11:30:00 AM 17.76 63.968 0.424 7.66 3.42 7.34
8/19/2022 11:45:00 AM 17.94 64.292 0.422 7.65 3.68 7.41
8/19/2022 12:00:00 PM 18.03 64.454 0.421 7.65 3.8 7.43
8/19/2022 12:15:00 PM 18.04 64.472 0.422 7.64 3.81 7.43
8/19/2022 12:30:00 PM 18.18 64.724 0.421 7.66 4.26 7.29
8/19/2022 12:45:00 PM 18.28 64.904 0.42 7.65 3.49 7.39
8/19/2022 1:00:00 PM 18.41 65.138 0.419 7.66 3.69 7.49
8/19/2022 1:15:00 PM 18.56 65.408 0.419 7.66 3.72 7.53
8/19/2022 1:30:00 PM 18.58 65.444 0.421 7.64 3.48 7.53
8/19/2022 1:45:00 PM 18.7 65.66 0.421 7.66 3.81 7.59
8/19/2022 2:00:00 PM 18.9 66.02 0.419 7.68 3.45 7.72
8/19/2022 2:15:00 PM 19 66.2 0.42 7.67 3.69 7.74
8/19/2022 2:30:00 PM 18.99 66.182 0.42 7.66 4.09 7.68
8/19/2022 2:45:00 PM 19.12 66.416 0.419 7.67 4.48 7.88
8/19/2022 3:00:00 PM 19.24 66.632 0.42 7.68 3.36 7.88
8/19/2022 3:15:00 PM 19.37 66.866 0.419 7.69 3.15 7.96
8/19/2022 3:30:00 PM 19.47 67.046 0.419 7.7 3.32 8.01
8/19/2022 3:45:00 PM 19.5 67.1 0.42 7.67 3.35 7.74
8/19/2022 4:00:00 PM 19.69 67.442 0.419 7.69 3.5 8.15
8/19/2022 4:15:00 PM 19.77 67.586 0.419 7.71 3.13 8.21
8/19/2022 4:30:00 PM 19.69 67.442 0.42 7.7 4.19 8.01
8/19/2022 4:45:00 PM 19.71 67.478 0.419 7.71 3.75 8.23
8/19/2022 5:00:00 PM 19.72 67.496 0.419 7.72 3.71 8.08
8/19/2022 5:15:00 PM 19.84 67.712 0.418 7.73 3.78 8.31
8/19/2022 5:30:00 PM 19.77 67.586 0.418 7.72 3.73 8.24
8/19/2022 5:45:00 PM 19.73 67.514 0.417 7.72 3.16 8.19
8/19/2022 6:00:00 PM 19.7 67.46 0.416 7.73 3.23 8.14
8/19/2022 6:15:00 PM 19.73 67.514 0.416 7.72 3.17 7.99
8/19/2022 6:30:00 PM 19.72 67.496 0.417 7.7 3.04 7.85
8/19/2022 6:45:00 PM 19.75 67.55 0.417 7.71 3.19 7.88
8/19/2022 7:00:00 PM 19.82 67.676 0.416 7.72 3.16 7.81
8/19/2022 7:15:00 PM 19.8 67.64 0.416 7.73 3.52 7.8
8/19/2022 7:30:00 PM 19.77 67.586 0.415 7.7 3.4 7.71
8/19/2022 7:45:00 PM 19.77 67.586 0.415 7.73 3.18 7.7
8/19/2022 8:00:00 PM 19.81 67.658 0.415 7.72 3.3 7.57
8/19/2022 8:15:00 PM 19.7 67.46 0.417 7.7 3.55 7.5
8/19/2022 8:30:00 PM 19.71 67.478 0.415 7.71 3.21 7.45
8/19/2022 8:45:00 PM 19.74 67.532 0.415 7.69 3.75 7.34
8/19/2022 9:00:00 PM 19.7 67.46 0.415 7.7 3.47 7.37
8/19/2022 9:15:00 PM 19.65 67.37 0.415 7.69 3.7 7.35
8/19/2022 9:30:00 PM 19.61 67.298 0.415 7.68 3.93 7.35
8/19/2022 9:45:00 PM 19.58 67.244 0.415 7.68 4.05 7.29
8/19/2022 10:00:00 PM 19.56 67.208 0.415 7.68 4.08 7.27
8/19/2022 10:15:00 PM 19.45 67.01 0.416 7.65 4.69 7.14
8/19/2022 10:30:00 PM 19.35 66.83 0.417 7.66 3.7 7.15
8/19/2022 10:45:00 PM 19.41 66.938 0.416 7.68 3.65 7.14
8/19/2022 11:00:00 PM 19.34 66.812 0.416 7.67 3.61 7.2
8/19/2022 11:15:00 PM 19.3 66.74 0.416 7.68 4.17 7.13
8/19/2022 11:30:00 PM 19.3 66.74 0.416 7.67 4.28 7.13
8/19/2022 11:45:00 PM 19.15 66.47 0.416 7.66 4.59 7.15
8/20/2022 12:00:00 AM 19.23 66.614 0.416 7.66 5.08 7.14
8/20/2022 12:15:00 AM 18.97 66.146 0.419 7.63 4.36 6.93
8/20/2022 12:30:00 AM 19.13 66.434 0.416 7.66 4.14 7.13
8/20/2022 12:45:00 AM 19.02 66.236 0.416 7.65 4.18 7.03
8/20/2022 1:00:00 AM 19.05 66.29 0.416 7.66 4.68 7.04
8/20/2022 1:15:00 AM 18.99 66.182 0.416 7.66 5.29 7.07
8/20/2022 1:30:00 AM 18.95 66.11 0.416 7.65 4.5 7
8/20/2022 1:45:00 AM 18.88 65.984 0.417 7.64 4.06 6.95
8/20/2022 2:00:00 AM 18.73 65.714 0.419 7.63 4 6.81
8/20/2022 2:15:00 AM 18.78 65.804 0.417 7.65 4.47 6.91
8/20/2022 2:30:00 AM 18.71 65.67799 0.418 7.62 4.11 6.76
8/20/2022 2:45:00 AM 18.61 65.498 0.418 7.63 4.44 6.87
8/20/2022 3:00:00 AM 18.62 65.516 0.418 7.64 11.84 6.83
8/20/2022 3:15:00 AM 18.54 65.372 0.418 7.63 3.95 6.78
8/20/2022 3:30:00 AM 18.42 65.156 0.419 7.62 3.76 6.61
8/20/2022 3:45:00 AM 18.38 65.084 0.419 7.63 4.61 6.74
8/20/2022 4:00:00 AM 18.41 65.138 0.418 7.62 6.02 6.68
8/20/2022 4:15:00 AM 18.26 64.868 0.42 7.61 4.34 6.71
8/20/2022 4:30:00 AM 18.21 64.778 0.42 7.62 4.84 6.62
8/20/2022 4:45:00 AM 18.22 64.796 0.419 7.62 4.27 6.65
8/20/2022 5:00:00 AM 18.2 64.76 0.419 7.62 4.3 6.61
8/20/2022 5:15:00 AM 18 64.4 0.422 7.6 4.16 6.44
8/20/2022 5:30:00 AM 17.89 64.202 0.421 7.59 4.1 6.38
8/20/2022 5:45:00 AM 17.95 64.31 0.421 7.59 6.17 6.44
8/20/2022 6:00:00 AM 17.95 64.31 0.419 7.6 4.87 6.44
8/20/2022 6:15:00 AM 17.82 64.076 0.421 7.59 5.05 6.31
8/20/2022 6:30:00 AM 17.89 64.202 0.419 7.58 4.73 6.27
8/20/2022 6:45:00 AM 17.77 63.986 0.42 7.6 5.34 6.29
8/20/2022 7:00:00 AM 17.83 64.094 0.419 7.6 4.67 6.32
8/20/2022 7:15:00 AM 17.65 63.77 0.422 7.58 5.85 6.2
8/20/2022 7:30:00 AM 17.57 63.626 0.422 7.57 4.83 6.21
8/20/2022 7:45:00 AM 17.67 63.806 0.421 7.57 4.87 6.2
8/20/2022 8:00:00 AM 17.72 63.896 0.42 7.59 5.18 6.32
8/20/2022 8:15:00 AM 17.55 63.59 0.423 7.58 7.91 6.3
8/20/2022 8:30:00 AM 17.7 63.86 0.421 7.59 4.72 6.33
8/20/2022 8:45:00 AM 17.74 63.932 0.42 7.6 4.98 6.34
8/20/2022 9:00:00 AM 17.74 63.932 0.421 7.6 4.65 6.36
8/20/2022 9:15:00 AM 17.82 64.076 0.421 7.59 4.62 6.43
8/20/2022 9:30:00 AM 17.88 64.184 0.422 7.6 5.07 6.49
8/20/2022 9:45:00 AM 17.95 64.31 0.421 7.6 4.89 6.65
8/20/2022 10:00:00 AM 17.91 64.238 0.424 7.6 5.17 6.5
8/20/2022 10:15:00 AM 18.13 64.634 0.422 7.62 4.09 6.74
8/20/2022 10:30:00 AM 18.24 64.832 0.422 7.62 4.44 6.82
8/20/2022 10:45:00 AM 18.43 65.174 0.422 7.62 4.81 6.86
8/20/2022 11:00:00 AM 18.3 64.94 0.429 7.58 4.12 6.63
8/20/2022 11:15:00 AM 18.65 65.57 0.422 7.63 3.94 7.02
8/20/2022 11:30:00 AM 18.81 65.858 0.422 7.63 4.48 7.09
8/20/2022 11:45:00 AM 18.99 66.182 0.422 7.64 4.31 7.14
8/20/2022 12:00:00 PM 19.07 66.326 0.422 7.63 4.54 7.22
8/20/2022 12:15:00 PM 19.25 66.65 0.423 7.63 5.6 7.26
8/20/2022 12:30:00 PM 19.36 66.848 0.423 7.63 4.82 7.26
8/20/2022 12:45:00 PM 19.46 67.028 0.423 7.62 4.2 7.18
8/20/2022 1:00:00 PM 19.67 67.406 0.42 7.65 3.97 7.49
8/20/2022 1:15:00 PM 19.69 67.442 0.42 7.66 3.63 7.59
8/20/2022 1:30:00 PM 19.67 67.406 0.421 7.66 3.82 7.64
8/20/2022 1:45:00 PM 19.68 67.424 0.42 7.66 3.82 7.7
8/20/2022 2:00:00 PM 19.58 67.244 0.42 7.67 4.08 7.66
8/20/2022 2:15:00 PM 19.42 66.956 0.418 7.64 4.61 7.56
8/20/2022 2:30:00 PM 19.13 66.434 0.394 7.68 8.21 7.62
8/20/2022 2:45:00 PM 19.28 66.704 0.388 7.71 11.52 7.82
8/20/2022 3:00:00 PM 19.3 66.74 0.391 7.7 9.21 7.78
8/20/2022 3:15:00 PM 19.45 67.01 0.392 7.68 9.44 7.77
8/20/2022 3:30:00 PM 19.68 67.424 0.395 7.68 8.05 7.67
8/20/2022 3:45:00 PM 19.87 67.766 0.397 7.68 6.87 7.81
8/20/2022 4:00:00 PM 19.88 67.784 0.402 7.66 6.58 7.84
8/20/2022 4:15:00 PM 20.02 68.036 0.404 7.67 5.64 7.82
8/20/2022 4:30:00 PM 19.92 67.856 0.406 7.67 5.52 7.72
8/20/2022 4:45:00 PM 19.91 67.838 0.406 7.66 4.13 7.56
8/20/2022 5:00:00 PM 19.85 67.73 0.407 7.66 4.66 7.44
8/20/2022 5:15:00 PM 19.74 67.532 0.408 7.63 4.73 7.14
8/20/2022 5:30:00 PM 19.75 67.55 0.408 7.64 3.83 6.89
8/20/2022 5:45:00 PM 19.81 67.658 0.407 7.64 3.39 7.05
8/20/2022 6:00:00 PM 19.76 67.568 0.407 7.64 3.3 7.01
8/20/2022 6:15:00 PM 19.69 67.442 0.408 7.61 10.08 6.89
8/20/2022 6:30:00 PM 19.47 67.046 0.412 7.61 5.74 6.84
8/20/2022 6:45:00 PM 19.7 67.46 0.409 7.65 3.72 7.09
8/20/2022 7:00:00 PM 19.65 67.37 0.409 7.64 3.78 7.07
8/20/2022 7:15:00 PM 19.7 67.46 0.408 7.65 3.24 7.08
8/20/2022 7:30:00 PM 19.71 67.478 0.408 7.65 3.6 7.12
8/20/2022 7:45:00 PM 19.68 67.424 0.409 7.64 3.36 7.06
8/20/2022 8:00:00 PM 19.68 67.424 0.409 7.62 3.43 6.89
8/20/2022 8:15:00 PM 19.66 67.388 0.409 7.64 3.53 6.97
8/20/2022 8:30:00 PM 19.69 67.442 0.408 7.64 3.23 6.91
8/20/2022 8:45:00 PM 19.68 67.424 0.409 7.64 3.48 6.83
8/20/2022 9:00:00 PM 19.64 67.352 0.409 7.64 3.75 6.8
8/20/2022 9:15:00 PM 19.73 67.514 0.407 7.64 3.82 6.85
8/20/2022 9:30:00 PM 19.71 67.478 0.408 7.63 3.98 6.73
8/20/2022 9:45:00 PM 19.73 67.514 0.407 7.63 4.14 6.82
8/20/2022 10:00:00 PM 19.65 67.37 0.408 7.63 4.21 6.68
8/20/2022 10:15:00 PM 19.66 67.388 0.407 7.63 4.18 6.8
8/20/2022 10:30:00 PM 19.63 67.334 0.408 7.63 4.07 6.74
8/20/2022 10:45:00 PM 19.61 67.298 0.408 7.63 4.45 6.68
8/20/2022 11:00:00 PM 19.58 67.244 0.409 7.62 4.34 6.69
8/20/2022 11:15:00 PM 19.6 67.28 0.408 7.61 4.48 6.67
8/20/2022 11:30:00 PM 19.61 67.298 0.407 7.62 4.15 6.69
8/20/2022 11:45:00 PM 19.57 67.226 0.408 7.62 3.93 6.71
8/21/2022 12:00:00 AM 19.64 67.352 0.406 7.63 3.96 6.66
8/21/2022 12:15:00 AM 19.65 67.37 0.407 7.63 4.51 6.67
8/21/2022 12:30:00 AM 19.6 67.28 0.407 7.62 4.75 6.68
8/21/2022 12:45:00 AM 19.59 67.262 0.407 7.62 4.78 6.62
8/21/2022 1:00:00 AM 19.47 67.046 0.407 7.62 4.39 6.61
8/21/2022 1:15:00 AM 19.52 67.136 0.407 7.61 4.2 6.54
8/21/2022 1:30:00 AM 19.48 67.064 0.407 7.61 4.26 6.42
8/21/2022 1:45:00 AM 19.51 67.118 0.407 7.6 4.74 6.48
8/21/2022 2:00:00 AM 19.42 66.956 0.409 7.61 4.21 6.49
8/21/2022 2:15:00 AM 19.46 67.028 0.407 7.62 4.83 6.59
8/21/2022 2:30:00 AM 19.4 66.92 0.409 7.61 3.93 6.46
8/21/2022 2:45:00 AM 19.37 66.866 0.408 7.61 4.71 6.46
8/21/2022 3:00:00 AM 19.34 66.812 0.408 7.61 8.53 6.42
8/21/2022 3:15:00 AM 19.29 66.722 0.409 7.6 4.31 6.42
8/21/2022 3:30:00 AM 19.27 66.686 0.409 7.6 4.71 6.42
8/21/2022 3:45:00 AM 19.26 66.668 0.409 7.59 4.14 6.37
8/21/2022 4:00:00 AM 19.17 66.506 0.41 7.57 4.16 6.26
8/21/2022 4:15:00 AM 19.16 66.488 0.411 7.58 5.72 6.22
8/21/2022 4:30:00 AM 19.15 66.47 0.41 7.59 4.89 6.29
8/21/2022 4:45:00 AM 19.09 66.362 0.411 7.58 4.62 6.21
8/21/2022 5:00:00 AM 19.08 66.344 0.411 7.58 4.89 6.18
8/21/2022 5:15:00 AM 18.99 66.182 0.413 7.59 6.46 6.15
8/21/2022 5:30:00 AM 18.91 66.038 0.413 7.58 4.76 6.12
8/21/2022 5:45:00 AM 18.93 66.074 0.413 7.58 4.96 6.11
8/21/2022 6:00:00 AM 18.82 65.876 0.414 7.55 4.9 6.03
8/21/2022 6:15:00 AM 18.79 65.82201 0.414 7.57 4.45 6.04
8/21/2022 6:30:00 AM 18.79 65.82201 0.414 7.56 5.09 5.98
8/21/2022 6:45:00 AM 18.72 65.696 0.414 7.56 4.72 5.91
8/21/2022 7:00:00 AM 18.67 65.606 0.415 7.55 4.8 5.88
8/21/2022 7:15:00 AM 18.69 65.642 0.413 7.55 4.48 5.82
8/21/2022 7:30:00 AM 18.66 65.588 0.413 7.55 4.34 5.84
8/21/2022 7:45:00 AM 18.69 65.642 0.413 7.55 5.78 5.9
8/21/2022 8:00:00 AM 18.66 65.588 0.413 7.55 5.5 5.88
8/21/2022 8:15:00 AM 18.63 65.534 0.414 7.55 5.9 5.84
8/21/2022 8:30:00 AM 18.61 65.498 0.414 7.54 4.53 5.85
8/21/2022 8:45:00 AM 18.69 65.642 0.412 7.56 4.77 6
8/21/2022 9:00:00 AM 18.74 65.732 0.412 7.56 4.51 6.1
8/21/2022 9:15:00 AM 18.75 65.75 0.413 7.56 4.55 6.15
8/21/2022 9:30:00 AM 18.78 65.804 0.412 7.55 4.23 6.15
8/21/2022 9:45:00 AM 18.78 65.804 0.412 7.56 4.14 6.18
8/21/2022 10:00:00 AM 18.84 65.912 0.413 7.57 4.1 6.24
8/21/2022 10:15:00 AM 18.84 65.912 0.413 7.57 4.16 6.23
8/21/2022 10:30:00 AM 18.87 65.966 0.413 7.57 4.74 6.26
8/21/2022 10:45:00 AM 18.84 65.912 0.414 7.57 4.93 6.33
8/21/2022 11:00:00 AM 18.87 65.966 0.414 7.55 4.13 6.15
8/21/2022 11:15:00 AM 18.85 65.93 0.415 7.56 4.02 6.26
8/21/2022 11:30:00 AM 18.98 66.164 0.414 7.58 4.36 6.62
8/21/2022 11:45:00 AM 19.02 66.236 0.415 7.58 4.02 6.51
8/21/2022 12:00:00 PM 19.16 66.488 0.416 7.59 4.08 6.64
8/21/2022 12:15:00 PM 19.24 66.632 0.414 7.6 4.41 6.86
8/21/2022 12:30:00 PM 19.4 66.92 0.414 7.61 4.14 7.1
8/21/2022 12:45:00 PM 19.46 67.028 0.415 7.61 4.56 7.14
8/21/2022 1:00:00 PM 19.53 67.154 0.415 7.61 5.47 7.1
8/21/2022 1:15:00 PM 19.59 67.262 0.416 7.6 4.2 7.09
8/21/2022 1:30:00 PM 19.74 67.532 0.415 7.63 4.27 7.24
8/21/2022 1:45:00 PM 19.75 67.55 0.418 7.58 326.27 6.95
8/21/2022 2:00:00 PM 19.88 67.784 0.416 7.63 4.19 7.43
8/21/2022 2:15:00 PM 19.98 67.964 0.416 7.65 3.94 7.53
8/21/2022 2:30:00 PM 20.02 68.036 0.416 7.63 3.98 7.48
8/21/2022 2:45:00 PM 20.02 68.036 0.416 7.65 4.32 7.68
8/21/2022 3:00:00 PM 19.98 67.964 0.416 7.64 4.1 7.44
8/21/2022 3:15:00 PM 19.81 67.658 0.417 7.63 3.29 7.16
8/21/2022 3:30:00 PM 19.67 67.406 0.417 7.62 3.67 7.06
8/21/2022 3:45:00 PM 19.52 67.136 0.417 7.6 3.61 6.79
8/21/2022 4:00:00 PM 19.52 67.136 0.417 7.59 3.73 6.73
8/21/2022 4:15:00 PM 19.44 66.992 0.417 7.59 3.55 6.56
8/21/2022 4:30:00 PM 19.36 66.848 0.415 7.6 3.45 6.54
8/21/2022 4:45:00 PM 19.33 66.794 0.414 7.6 3.81 6.6
8/21/2022 5:00:00 PM 19.28 66.704 0.413 7.6 3.8 6.56
8/21/2022 5:15:00 PM 19.25 66.65 0.413 7.6 4.05 6.57
8/21/2022 5:30:00 PM 19.24 66.632 0.413 7.58 3.65 6.44
8/21/2022 5:45:00 PM 19.26 66.668 0.413 7.56 4.01 6.56
8/21/2022 6:00:00 PM 19.34 66.812 0.412 7.6 4.94 6.52
8/21/2022 6:15:00 PM 19.38 66.884 0.412 7.61 3.41 6.92
8/21/2022 6:30:00 PM 19.39 66.902 0.413 7.62 3.48 6.96
8/21/2022 6:45:00 PM 19.38 66.884 0.413 7.62 3.55 6.97
8/21/2022 7:00:00 PM 19.31 66.758 0.414 7.62 3.92 6.8
8/21/2022 7:15:00 PM 19.31 66.758 0.414 7.6 3.59 6.81
8/21/2022 7:30:00 PM 19.39 66.902 0.413 7.61 3.5 6.75
8/21/2022 7:45:00 PM 19.38 66.884 0.413 7.61 3.65 6.72
8/21/2022 8:00:00 PM 19.26 66.668 0.415 7.61 3.63 6.59
8/21/2022 8:15:00 PM 19.29 66.722 0.414 7.6 3.69 6.55
8/21/2022 8:30:00 PM 19.23 66.614 0.414 7.58 3.48 6.44
8/21/2022 8:45:00 PM 19.21 66.578 0.415 7.58 3.65 6.5
8/21/2022 9:00:00 PM 19.31 66.758 0.414 7.6 3.95 6.51
8/21/2022 9:15:00 PM 19.22 66.596 0.414 7.59 4.17 6.5
8/21/2022 9:30:00 PM 19.23 66.614 0.414 7.58 4.36 6.44
8/21/2022 9:45:00 PM 19.26 66.668 0.414 7.59 4.03 6.53
8/21/2022 10:00:00 PM 19.02 66.236 0.42 7.6 3.88 6.52
8/21/2022 10:15:00 PM 19.19 66.542 0.413 7.6 4.85 6.46
8/21/2022 10:30:00 PM 19.13 66.434 0.415 7.6 3.72 6.49
8/21/2022 10:45:00 PM 19.13 66.434 0.415 7.59 3.84 6.52
8/21/2022 11:00:00 PM 19.09 66.362 0.415 7.6 4.18 6.48
8/21/2022 11:15:00 PM 19.07 66.326 0.415 7.6 5 6.47
8/21/2022 11:30:00 PM 19.03 66.254 0.416 7.59 3.85 6.37
8/21/2022 11:45:00 PM 19.06 66.308 0.415 7.6 4.38 6.54
8/22/2022 12:00:00 AM 19.05 66.29 0.415 7.6 4.38 6.49
8/22/2022 12:15:00 AM 18.91 66.038 0.417 7.59 5.64 6.44
8/22/2022 12:30:00 AM 19.06 66.308 0.415 7.6 4.16 6.52
8/22/2022 12:45:00 AM 18.99 66.182 0.416 7.6 4.44 6.44
8/22/2022 1:00:00 AM 18.95 66.11 0.416 7.59 5.14 6.4
8/22/2022 1:15:00 AM 19 66.2 0.416 7.6 4.62 6.49
8/22/2022 1:30:00 AM 18.98 66.164 0.415 7.59 4.8 6.39
8/22/2022 1:45:00 AM 19 66.2 0.415 7.6 4.83 6.43
8/22/2022 2:00:00 AM 18.89 66.002 0.417 7.6 4.4 6.43
8/22/2022 2:15:00 AM 18.94 66.092 0.416 7.59 7.96 6.37
8/22/2022 2:30:00 AM 18.98 66.164 0.415 7.6 4.28 6.44
8/22/2022 2:45:00 AM 18.91 66.038 0.416 7.59 4.07 6.41
8/22/2022 3:00:00 AM 18.84 65.912 0.416 7.59 4.59 6.32
8/22/2022 3:15:00 AM 18.82 65.876 0.416 7.58 4.51 6.34
8/22/2022 3:30:00 AM 18.84 65.912 0.416 7.59 4.06 6.36
8/22/2022 3:45:00 AM 18.73 65.714 0.419 7.57 4.61 6.3
8/22/2022 4:00:00 AM 18.76 65.768 0.417 7.58 4.25 6.24
8/22/2022 4:15:00 AM 18.75 65.75 0.417 7.58 4.86 6.23
8/22/2022 4:30:00 AM 18.77 65.786 0.416 7.59 3.92 6.25
8/22/2022 4:45:00 AM 18.63 65.534 0.419 7.58 4.53 6.23
8/22/2022 5:00:00 AM 18.57 65.426 0.414 7.59 5.53 6.42
8/22/2022 5:15:00 AM 18.35 65.03 0.418 7.58 8.64 6.25
8/22/2022 5:30:00 AM 18.54 65.372 0.412 7.6 6.75 6.42
8/22/2022 5:45:00 AM 18.51 65.318 0.412 7.6 5.39 6.33
8/22/2022 6:00:00 AM 18.42 65.156 0.414 7.57 5.77 6.27
8/22/2022 6:15:00 AM 18.47 65.246 0.414 7.58 6.45 6.19
8/22/2022 6:30:00 AM 18.37 65.066 0.415 7.58 4.82 6.05
8/22/2022 6:45:00 AM 18.41 65.138 0.414 7.59 5.4 6.14
8/22/2022 7:00:00 AM 18.31 64.958 0.416 7.57 4.88 6.01
8/22/2022 7:15:00 AM 18.33 64.994 0.416 7.57 5.43 6.02
8/22/2022 7:30:00 AM 18.21 64.778 0.421 7.56 7.29 5.88
8/22/2022 7:45:00 AM 18.25 64.85 0.417 7.55 6.98 5.74
8/22/2022 8:00:00 AM 18.34 65.012 0.416 7.58 5.61 5.98
8/22/2022 8:15:00 AM 18.39 65.102 0.416 7.57 5.07 6.13
8/22/2022 8:30:00 AM 18.37 65.066 0.417 7.57 4.28 6.04
8/22/2022 8:45:00 AM 18.44 65.192 0.416 7.57 4.54 6.12
8/22/2022 9:00:00 AM 18.42 65.156 0.415 7.58 4.6 6.24
8/22/2022 9:15:00 AM 18.41 65.138 0.415 7.59 4.07 6.33
8/22/2022 9:30:00 AM 18.4 65.12 0.416 7.58 4.16 6.34
8/22/2022 9:45:00 AM 18.39 65.102 0.416 7.59 4.41 6.4
8/22/2022 10:00:00 AM 18.51 65.318 0.415 7.6 3.93 6.55
8/22/2022 10:15:00 AM 18.48 65.264 0.416 7.61 4.32 6.62
8/22/2022 10:30:00 AM 18.51 65.318 0.419 7.59 3.46 6.59
8/22/2022 10:45:00 AM 18.88 65.984 0.414 7.62 3.82 6.98
8/22/2022 11:00:00 AM 18.97 66.146 0.416 7.62 3.8 6.95
8/22/2022 11:15:00 AM 19.04 66.272 0.416 7.62 4.58 6.96
8/22/2022 11:30:00 AM 19.09 66.362 0.416 7.63 3.66 7.26
8/22/2022 11:45:00 AM 19.2 66.56 0.415 7.64 4.94 7.32
8/22/2022 12:00:00 PM 19.26 66.668 0.415 7.64 5.57 7.36
8/22/2022 12:15:00 PM 19.24 66.632 0.415 7.63 4.12 7.27
8/22/2022 12:30:00 PM 19.22 66.596 0.415 7.63 4.09 7.21
8/22/2022 12:45:00 PM 19.16 66.488 0.415 7.62 4.2 7.16
8/22/2022 1:00:00 PM 19.2 66.56 0.415 7.63 3.75 7.2
8/22/2022 1:15:00 PM 19.31 66.758 0.414 7.64 3.36 7.38
8/22/2022 1:30:00 PM 19.41 66.938 0.413 7.62 3.97 7.27
8/22/2022 1:45:00 PM 19.66 67.388 0.412 7.66 3.61 7.61
8/22/2022 2:00:00 PM 19.62 67.316 0.413 7.65 3.36 7.67
8/22/2022 2:15:00 PM 19.6 67.28 0.414 7.64 3.37 7.61
8/22/2022 2:30:00 PM 19.68 67.424 0.413 7.66 3.79 7.59
8/22/2022 2:45:00 PM 19.6 67.28 0.413 7.66 3.54 7.62
8/22/2022 3:00:00 PM 19.49 67.082 0.413 7.65 3.77 7.38
8/22/2022 3:15:00 PM 19.51 67.118 0.413 7.65 3.54 7.43
8/22/2022 3:30:00 PM 19.51 67.118 0.412 7.64 3.64 7.3
8/22/2022 3:45:00 PM 19.65 67.37 0.412 7.64 4.28 7.53
8/22/2022 4:00:00 PM 19.76 67.568 0.41 7.66 3.49 7.59
8/22/2022 4:15:00 PM 19.93 67.874 0.41 7.67 3.32 7.74
8/22/2022 4:30:00 PM 20.06 68.108 0.41 7.67 3.73 7.88
8/22/2022 4:45:00 PM 20.08 68.144 0.41 7.68 3.83 7.88
8/22/2022 5:00:00 PM 20.04 68.07201 0.41 7.67 3.58 7.77
8/22/2022 5:15:00 PM 19.94 67.892 0.41 7.66 3.57 7.62
8/22/2022 5:30:00 PM 19.82 67.676 0.41 7.65 3.63 7.37
8/22/2022 5:45:00 PM 19.8 67.64 0.409 7.65 3.34 7.22
8/22/2022 6:00:00 PM 19.78 67.604 0.406 7.67 3.66 7.24
8/22/2022 6:15:00 PM 19.76 67.568 0.407 7.67 3.71 7.39
8/22/2022 6:30:00 PM 19.74 67.532 0.407 7.66 3.58 7.31
8/22/2022 6:45:00 PM 19.69 67.442 0.407 7.67 3.38 7.36
8/22/2022 7:00:00 PM 19.71 67.478 0.407 7.65 3.29 7.25
8/22/2022 7:15:00 PM 19.66 67.388 0.408 7.65 3.82 7.19
8/22/2022 7:30:00 PM 19.7 67.46 0.407 7.65 3.25 7.11
8/22/2022 7:45:00 PM 19.73 67.514 0.407 7.64 3.16 7.1
8/22/2022 8:00:00 PM 19.74 67.532 0.407 7.65 3.39 7.15
8/22/2022 8:15:00 PM 19.79 67.622 0.406 7.66 3.63 7.14
8/22/2022 8:30:00 PM 19.79 67.622 0.406 7.66 3.64 7.1
8/22/2022 8:45:00 PM 19.71 67.478 0.406 7.64 3.44 6.98
8/22/2022 9:00:00 PM 19.74 67.532 0.406 7.64 3.5 6.96
8/22/2022 9:15:00 PM 19.78 67.604 0.406 7.64 4.52 7.01
8/22/2022 9:30:00 PM 19.75 67.55 0.405 7.63 3.98 6.97
8/22/2022 9:45:00 PM 19.78 67.604 0.405 7.63 4.18 6.99
8/22/2022 10:00:00 PM 19.8 67.64 0.404 7.64 4.1 7.01
8/22/2022 10:15:00 PM 19.68 67.424 0.405 7.64 4.14 6.98
8/22/2022 10:30:00 PM 19.65 67.37 0.405 7.64 4.35 6.94
8/22/2022 10:45:00 PM 19.76 67.568 0.405 7.64 3.91 6.91
8/22/2022 11:00:00 PM 19.64 67.352 0.406 7.64 3.98 6.94
8/22/2022 11:15:00 PM 19.75 67.55 0.405 7.64 3.92 6.95
8/22/2022 11:30:00 PM 19.8 67.64 0.404 7.64 4.27 6.93
8/22/2022 11:45:00 PM 19.75 67.55 0.405 7.64 5.08 6.9
8/23/2022 12:00:00 AM 19.75 67.55 0.405 7.62 4.29 6.77
8/23/2022 12:15:00 AM 19.77 67.586 0.405 7.64 4.28 6.88
8/23/2022 12:30:00 AM 19.7 67.46 0.406 7.62 4.27 6.84
8/23/2022 12:45:00 AM 19.62 67.316 0.406 7.64 4.21 6.84
8/23/2022 1:00:00 AM 19.76 67.568 0.404 7.64 4.33 6.85
8/23/2022 1:15:00 AM 19.71 67.478 0.405 7.63 4.12 6.6
8/23/2022 1:30:00 AM 19.73 67.514 0.404 7.64 4.66 6.85
8/23/2022 1:45:00 AM 19.72 67.496 0.404 7.61 4.6 6.79
8/23/2022 2:00:00 AM 19.66 67.388 0.405 7.61 4.67 6.71
8/23/2022 2:15:00 AM 19.66 67.388 0.405 7.62 4.5 6.73
8/23/2022 2:30:00 AM 19.58 67.244 0.405 7.63 4.45 6.61
8/23/2022 2:45:00 AM 19.63 67.334 0.405 7.62 5.1 6.58
8/23/2022 3:00:00 AM 19.52 67.136 0.406 7.61 4.66 6.49
8/23/2022 3:15:00 AM 19.5 67.1 0.405 7.62 6.01 6.62
8/23/2022 3:30:00 AM 19.51 67.118 0.401 7.61 6.1 6.55
8/23/2022 3:45:00 AM 19.8 67.64 0.394 7.65 6.85 6.86
8/23/2022 4:00:00 AM 19.93 67.874 0.391 7.66 8.95 6.84
8/23/2022 4:15:00 AM 20 68 0.389 7.67 6.47 6.92
8/23/2022 4:30:00 AM 20.07 68.126 0.386 7.68 6.45 6.92
8/23/2022 4:45:00 AM 20.05 68.09 0.387 7.67 7.09 6.73
8/23/2022 5:00:00 AM 20 68 0.385 7.66 6.61 6.67
8/23/2022 5:15:00 AM 19.99 67.982 0.385 7.65 6.3 6.62
8/23/2022 5:30:00 AM 19.97 67.946 0.384 7.64 5.81 6.4
8/23/2022 5:45:00 AM 19.92 67.856 0.385 7.63 6.11 6.4
8/23/2022 6:00:00 AM 19.85 67.73 0.387 7.62 6.16 6.3
8/23/2022 6:15:00 AM 19.93 67.874 0.382 7.63 6.75 6.39
8/23/2022 6:30:00 AM 19.88 67.784 0.384 7.62 5.66 6.24
8/23/2022 6:45:00 AM 19.92 67.856 0.382 7.63 6.23 6.4
8/23/2022 7:00:00 AM 19.9 67.82 0.382 7.62 5.8 6.34
8/23/2022 7:15:00 AM 19.7 67.46 0.384 7.61 8.13 6.15
8/23/2022 7:30:00 AM 19.84 67.712 0.383 7.62 8.26 6.33
8/23/2022 7:45:00 AM 19.87 67.766 0.379 7.61 8.16 6.35
8/23/2022 8:00:00 AM 19.73 67.514 0.388 7.62 7.32 6.33
8/23/2022 8:15:00 AM 19.69 67.442 0.384 7.61 6.32 6.36
8/23/2022 8:30:00 AM 19.77 67.586 0.38 7.64 5.99 6.48
8/23/2022 8:45:00 AM 19.92 67.856 0.377 7.64 6.02 6.65
8/23/2022 9:00:00 AM 19.81 67.658 0.375 7.64 6.17 6.56
8/23/2022 9:15:00 AM 19.83 67.694 0.374 7.65 8.33 6.65
8/23/2022 9:30:00 AM 19.98 67.964 0.372 7.67 7.65 6.87
8/23/2022 9:45:00 AM 19.77 67.586 0.378 7.64 5.77 6.82
8/23/2022 10:00:00 AM 19.85 67.73 0.375 7.62 5.7 6.79
8/23/2022 10:15:00 AM 19.88 67.784 0.373 7.64 5.96 6.83
8/23/2022 10:30:00 AM 19.89 67.802 0.373 7.65 7.43 6.87
8/23/2022 10:45:00 AM 19.56 67.208 0.381 7.62 5.45 6.68
8/23/2022 11:00:00 AM 19.71 67.478 0.378 7.65 5.03 6.89
8/23/2022 11:15:00 AM 19.87 67.766 0.375 7.66 5.31 7.06
8/23/2022 11:30:00 AM 19.9 67.82 0.373 7.66 5.76 6.98
8/23/2022 11:45:00 AM 19.88 67.784 0.374 7.65 6.17 6.98
8/23/2022 12:00:00 PM 20.06 68.108 0.371 7.66 6.48 7.21
8/23/2022 12:15:00 PM 20.08 68.144 0.372 7.67 5.49 7.31
8/23/2022 12:30:00 PM 20.29 68.522 0.366 7.7 6.27 7.45
8/23/2022 12:45:00 PM 19.9 67.82 0.371 7.66 5.15 6.87
8/23/2022 1:00:00 PM 19.84 67.712 0.37 7.62 6.1 6.87
8/23/2022 1:15:00 PM 20.13 68.234 0.359 7.68 5.49 7.26
8/23/2022 1:30:00 PM 20.08 68.144 0.358 7.69 5.43 7.19
8/23/2022 1:45:00 PM 20.16 68.288 0.356 7.69 5.96 7.28
8/23/2022 2:00:00 PM 20.24 68.432 0.357 7.69 4.99 7.44
8/23/2022 2:15:00 PM 20.3 68.54 0.355 7.69 5.26 7.59
8/23/2022 2:30:00 PM 20.16 68.288 0.355 7.68 4.89 7.42
8/23/2022 2:45:00 PM 20.2 68.36 0.35 7.7 5.12 7.38
8/23/2022 3:00:00 PM 20.04 68.07201 0.35 7.68 4.74 7.21
8/23/2022 3:15:00 PM 19.97 67.946 0.348 7.66 4.8 7.06
8/23/2022 3:30:00 PM 20.08 68.144 0.345 7.7 4.91 7.46
8/23/2022 3:45:00 PM 20.14 68.252 0.343 7.69 4.95 7.61
8/23/2022 4:00:00 PM 20.28 68.504 0.34 7.73 4.7 7.97
8/23/2022 4:15:00 PM 20.38 68.684 0.339 7.74 4.51 8.12
8/23/2022 4:30:00 PM 20.24 68.432 0.343 7.67 4.9 7.84
8/23/2022 4:45:00 PM 20.46 68.828 0.337 7.74 4.52 8.03
8/23/2022 5:00:00 PM 20.58 69.044 0.332 7.75 4.8 8.08
8/23/2022 5:15:00 PM 20.41 68.738 0.333 7.71 4.69 7.92
8/23/2022 5:30:00 PM 20.28 68.504 0.335 7.72 5.73 7.81
8/23/2022 5:45:00 PM 20.26 68.468 0.334 7.68 5.44 7.63
8/23/2022 6:00:00 PM 20.29 68.522 0.331 7.73 5.6 7.73
8/23/2022 6:15:00 PM 20.3 68.54 0.33 7.71 4.83 7.78
8/23/2022 6:30:00 PM 20.36 68.648 0.328 7.73 4.51 7.87
8/23/2022 6:45:00 PM 20.28 68.504 0.329 7.71 4.37 7.72
8/23/2022 7:00:00 PM 20.26 68.468 0.328 7.71 4.78 7.73
8/23/2022 7:15:00 PM 20.17 68.306 0.327 7.7 4.48 7.5
8/23/2022 7:30:00 PM 20.14 68.252 0.326 7.66 4.69 7.11
8/23/2022 7:45:00 PM 20.15 68.27 0.326 7.69 5.6 7.46
8/23/2022 8:00:00 PM 20.03 68.054 0.328 7.66 4.19 7.3
8/23/2022 8:15:00 PM 19.93 67.874 0.327 7.67 4.73 7.26
8/23/2022 8:30:00 PM 19.65 67.37 0.332 7.62 4.64 7.05
8/23/2022 8:45:00 PM 19.84 67.712 0.33 7.64 4.92 7.19
8/23/2022 9:00:00 PM 19.93 67.874 0.325 7.65 4.86 7.21
8/23/2022 9:15:00 PM 19.86 67.748 0.326 7.64 5.44 7.16
8/23/2022 9:30:00 PM 19.71 67.478 0.329 7.64 10.02 7.12
8/23/2022 9:45:00 PM 19.83 67.694 0.326 7.65 5.47 7.19
8/23/2022 10:00:00 PM 19.65 67.37 0.329 7.64 5.31 7.07
8/23/2022 10:15:00 PM 19.77 67.586 0.327 7.64 4.81 7.08
8/23/2022 10:30:00 PM 19.8 67.64 0.325 7.62 5.04 6.91
8/23/2022 10:45:00 PM 19.61 67.298 0.328 7.61 4.94 6.99
8/23/2022 11:00:00 PM 19.66 67.388 0.328 7.61 4.81 7.03
8/23/2022 11:15:00 PM 19.7 67.46 0.328 7.61 5.09 7.01
8/23/2022 11:30:00 PM 19.7 67.46 0.327 7.62 5.19 7.04
8/23/2022 11:45:00 PM 19.62 67.316 0.329 7.62 4.83 6.99
8/24/2022 12:00:00 AM 19.62 67.316 0.328 7.61 5.43 6.91
8/24/2022 12:15:00 AM 19.58 67.244 0.329 7.62 5.04 6.98
8/24/2022 12:30:00 AM 19.63 67.334 0.329 7.63 5.46 7.01
8/24/2022 12:45:00 AM 19.51 67.118 0.329 7.61 5.77 6.93
8/24/2022 1:00:00 AM 19.54 67.172 0.33 7.61 4.96 6.81
8/24/2022 1:15:00 AM 19.48 67.064 0.331 7.61 5.05 6.8
8/24/2022 1:30:00 AM 19.44 66.992 0.332 7.59 5.57 6.78
8/24/2022 1:45:00 AM 19.48 67.064 0.332 7.6 5.29 6.79
8/24/2022 2:00:00 AM 19.39 66.902 0.333 7.58 5.58 6.68
8/24/2022 2:15:00 AM 19.31 66.758 0.334 7.58 5.29 6.54
8/24/2022 2:30:00 AM 19.34 66.812 0.333 7.58 5.33 6.56
8/24/2022 2:45:00 AM 19.26 66.668 0.335 7.58 5.15 6.54
8/24/2022 3:00:00 AM 19.22 66.596 0.336 7.57 5.72 6.48
8/24/2022 3:15:00 AM 19.12 66.416 0.338 7.57 5.07 6.42
8/24/2022 3:30:00 AM 18.98 66.164 0.341 7.53 5.79 6.13
8/24/2022 3:45:00 AM 19.06 66.308 0.338 7.55 6.26 6.33
8/24/2022 4:00:00 AM 18.97 66.146 0.339 7.54 5.12 6.29
8/24/2022 4:15:00 AM 18.88 65.984 0.342 7.53 5.09 6.23
8/24/2022 4:30:00 AM 18.85 65.93 0.343 7.53 5.32 6.2
8/24/2022 4:45:00 AM 18.77 65.786 0.344 7.53 7.15 6.16
8/24/2022 5:00:00 AM 18.81 65.858 0.343 7.54 6.4 6.18
8/24/2022 5:15:00 AM 18.73 65.714 0.344 7.53 5.42 6.13
8/24/2022 5:30:00 AM 18.69 65.642 0.345 7.51 5.62 6.07
8/24/2022 5:45:00 AM 18.6 65.48 0.347 7.52 5.91 6.07
8/24/2022 6:00:00 AM 18.59 65.462 0.35 7.52 5.79 6.05
8/24/2022 6:15:00 AM 18.51 65.318 0.351 7.52 5.97 6.05
8/24/2022 6:30:00 AM 18.41 65.138 0.353 7.49 5.93 5.93
8/24/2022 6:45:00 AM 18.39 65.102 0.353 7.51 6.02 5.93
8/24/2022 7:00:00 AM 18.34 65.012 0.354 7.49 6.96 5.81
8/24/2022 7:15:00 AM 18.18 64.724 0.358 7.51 4.88 5.87
8/24/2022 7:30:00 AM 18.37 65.066 0.355 7.51 5.21 5.96
8/24/2022 7:45:00 AM 18.33 64.994 0.356 7.51 5.58 6.01
8/24/2022 8:00:00 AM 18.36 65.048 0.357 7.52 4.85 6.08
8/24/2022 8:15:00 AM 18.3 64.94 0.359 7.49 4.91 6.01
8/24/2022 8:30:00 AM 18.34 65.012 0.358 7.52 4.35 6.17
8/24/2022 8:45:00 AM 18.33 64.994 0.36 7.51 5.76 6.14
8/24/2022 9:00:00 AM 18.37 65.066 0.359 7.52 4.38 6.07
8/24/2022 9:15:00 AM 18.48 65.264 0.359 7.51 4.62 6.22
8/24/2022 9:30:00 AM 18.52 65.336 0.36 7.54 5.24 6.33
8/24/2022 9:45:00 AM 18.5 65.3 0.363 7.51 4.66 6.31
8/24/2022 10:00:00 AM 18.66 65.588 0.361 7.53 4.56 6.38
8/24/2022 10:15:00 AM 18.77 65.786 0.363 7.55 4.35 6.44
8/24/2022 10:30:00 AM 18.74 65.732 0.367 7.55 4.45 6.47
8/24/2022 10:45:00 AM 18.98 66.164 0.364 7.56 4.56 6.71
8/24/2022 11:00:00 AM 19.06 66.308 0.364 7.57 4.45 6.79
8/24/2022 11:15:00 AM 19.09 66.362 0.366 7.57 4.53 6.84
8/24/2022 11:30:00 AM 19.27 66.686 0.365 7.57 4.35 6.81
8/24/2022 11:45:00 AM 19.38 66.884 0.366 7.58 4.77 6.88
8/24/2022 12:00:00 PM 19.43 66.974 0.366 7.58 4.83 7.11
8/24/2022 12:15:00 PM 19.45 67.01 0.366 7.59 4.11 7.15
8/24/2022 12:30:00 PM 19.48 67.064 0.368 7.6 4.35 7.18
8/24/2022 12:45:00 PM 19.49 67.082 0.368 7.61 5.09 7.33
8/24/2022 1:00:00 PM 19.58 67.244 0.369 7.61 5.16 7.34
8/24/2022 1:15:00 PM 19.71 67.478 0.369 7.62 4.06 7.28
8/24/2022 1:30:00 PM 19.64 67.352 0.37 7.61 4.47 7.35
8/24/2022 1:45:00 PM 19.7 67.46 0.371 7.62 4.44 7.43
8/24/2022 2:00:00 PM 19.51 67.118 0.375 7.58 4.16 6.93
8/24/2022 2:15:00 PM 19.68 67.424 0.374 7.6 3.94 7.45
8/24/2022 2:30:00 PM 19.85 67.73 0.372 7.62 3.85 7.39
8/24/2022 2:45:00 PM 19.94 67.892 0.375 7.64 3.93 7.57
8/24/2022 3:00:00 PM 20.09 68.162 0.373 7.62 3.44 7.68
8/24/2022 3:15:00 PM 20.16 68.288 0.374 7.64 4.16 7.59
8/24/2022 3:30:00 PM 19.96 67.92799 0.379 7.61 3.86 7.7
8/24/2022 3:45:00 PM 20.32 68.576 0.374 7.65 3.9 7.83
8/24/2022 4:00:00 PM 20.29 68.522 0.374 7.65 3.49 7.68
8/24/2022 4:15:00 PM 20.17 68.306 0.376 7.66 3.55 7.79
8/24/2022 4:30:00 PM 20.11 68.198 0.376 7.66 3.74 7.75
8/24/2022 4:45:00 PM 20.11 68.198 0.376 7.66 4.04 7.67
8/24/2022 5:00:00 PM 20.13 68.234 0.377 7.66 3.74 7.66
8/24/2022 5:15:00 PM 20.17 68.306 0.376 7.66 3.77 7.53
8/24/2022 5:30:00 PM 19.95 67.91 0.38 7.67 3.43 7.67
8/24/2022 5:45:00 PM 20.08 68.144 0.376 7.65 3.46 7.51
8/24/2022 6:00:00 PM 19.96 67.92799 0.379 7.64 4.27 7.41
8/24/2022 6:15:00 PM 20.06 68.108 0.377 7.66 3.48 7.39
8/24/2022 6:30:00 PM 20.02 68.036 0.377 7.65 3.66 7.49
8/24/2022 6:45:00 PM 19.98 67.964 0.377 7.66 4.18 7.45
8/24/2022 7:00:00 PM 19.84 67.712 0.384 7.63 4.78 7.42
8/24/2022 7:15:00 PM 19.9 67.82 0.379 7.66 3.58 7.35
8/24/2022 7:30:00 PM 19.87 67.766 0.379 7.65 3.88 7.25
8/24/2022 7:45:00 PM 19.83 67.694 0.379 7.65 3.76 7.19
8/24/2022 8:00:00 PM 19.75 67.55 0.38 7.63 3.61 7.14
8/24/2022 8:15:00 PM 19.76 67.568 0.379 7.64 3.74 7.13
8/24/2022 8:30:00 PM 19.72 67.496 0.379 7.64 3.83 7.16
8/24/2022 8:45:00 PM 19.58 67.244 0.381 7.63 3.89 7.02
8/24/2022 9:00:00 PM 19.55 67.19 0.383 7.63 6.3 7
8/24/2022 9:15:00 PM 19.56 67.208 0.38 7.63 3.98 7.08
8/24/2022 9:30:00 PM 19.46 67.028 0.383 7.61 4.18 6.97
8/24/2022 9:45:00 PM 19.53 67.154 0.38 7.64 4.11 7.11
8/24/2022 10:00:00 PM 19.46 67.028 0.381 7.61 3.91 7.1
8/24/2022 10:15:00 PM 19.39 66.902 0.381 7.63 4.49 7.11
8/24/2022 10:30:00 PM 19.37 66.866 0.381 7.63 4.59 7.07
8/24/2022 10:45:00 PM 19.37 66.866 0.381 7.6 3.85 6.94
8/24/2022 11:00:00 PM 19.34 66.812 0.381 7.61 4.26 6.93
8/24/2022 11:15:00 PM 19.33 66.794 0.381 7.62 4.49 7.02
8/24/2022 11:30:00 PM 19.28 66.704 0.382 7.62 4.17 6.95
8/24/2022 11:45:00 PM 19.22 66.596 0.383 7.61 4.28 6.93
8/25/2022 12:00:00 AM 19.24 66.632 0.382 7.62 4.77 6.99
8/25/2022 12:15:00 AM 19.24 66.632 0.382 7.62 4.68 7.02
8/25/2022 12:30:00 AM 19.23 66.614 0.382 7.61 4.68 6.95
8/25/2022 12:45:00 AM 19.19 66.542 0.382 7.61 4.48 6.85
8/25/2022 1:00:00 AM 19.11 66.398 0.387 7.6 4.56 6.9
8/25/2022 1:15:00 AM 19.09 66.362 0.384 7.6 4.72 6.71
8/25/2022 1:30:00 AM 19.04 66.272 0.384 7.59 4.64 6.87
8/25/2022 1:45:00 AM 19 66.2 0.383 7.61 5.19 6.7
8/25/2022 2:00:00 AM 18.96 66.128 0.384 7.6 4.78 6.73
8/25/2022 2:15:00 AM 18.88 65.984 0.386 7.59 5.45 6.75
8/25/2022 2:30:00 AM 18.91 66.038 0.384 7.61 4.77 6.84
8/25/2022 2:45:00 AM 18.89 66.002 0.384 7.61 4.65 6.8
8/25/2022 3:00:00 AM 18.79 65.82201 0.385 7.6 5.24 6.76
8/25/2022 3:15:00 AM 18.8 65.84 0.386 7.61 4.59 6.62
8/25/2022 3:30:00 AM 18.77 65.786 0.386 7.6 4.51 6.52
8/25/2022 3:45:00 AM 18.7 65.66 0.387 7.6 4.88 6.64
8/25/2022 4:00:00 AM 18.6 65.48 0.389 7.58 5.22 6.5
8/25/2022 4:15:00 AM 18.58 65.444 0.388 7.59 4.64 6.46
8/25/2022 4:30:00 AM 18.59 65.462 0.387 7.59 5.34 6.42
8/25/2022 4:45:00 AM 18.47 65.246 0.389 7.58 4.67 6.32
8/25/2022 5:00:00 AM 18.43 65.174 0.39 7.58 4.58 6.33
8/25/2022 5:15:00 AM 18.38 65.084 0.39 7.58 4.6 6.28
8/25/2022 5:30:00 AM 18.31 64.958 0.391 7.57 4.22 6.25
8/25/2022 5:45:00 AM 18.29 64.922 0.391 7.57 4.23 6.27
8/25/2022 6:00:00 AM 18.21 64.778 0.392 7.58 4.87 6.07
8/25/2022 6:15:00 AM 18.02 64.436 0.395 7.55 5.13 5.9
8/25/2022 6:30:00 AM 18.11 64.598 0.393 7.54 5.21 6.04
8/25/2022 6:45:00 AM 17.79 64.022 0.401 7.52 11.65 5.8
8/25/2022 7:00:00 AM 17.92 64.256 0.396 7.53 8.47 5.8
8/25/2022 7:15:00 AM 17.88 64.184 0.396 7.53 5.33 5.75
8/25/2022 7:30:00 AM 17.9 64.22 0.395 7.53 5.2 5.88
8/25/2022 7:45:00 AM 17.85 64.13 0.395 7.52 4.99 5.84
8/25/2022 8:00:00 AM 17.77 63.986 0.398 7.53 4.46 5.87
8/25/2022 8:15:00 AM 17.77 63.986 0.4 7.54 4.61 5.98
8/25/2022 8:30:00 AM 17.84 64.112 0.396 7.54 4.2 5.98
8/25/2022 8:45:00 AM 17.78 64.004 0.398 7.54 4.97 5.96
8/25/2022 9:00:00 AM 17.92 64.256 0.396 7.55 4.31 5.92
8/25/2022 9:15:00 AM 17.96 64.328 0.397 7.57 3.97 6.2
8/25/2022 9:30:00 AM 17.95 64.31 0.396 7.54 4.77 6.25
8/25/2022 9:45:00 AM 17.95 64.31 0.4 7.53 3.9 6.16
8/25/2022 10:00:00 AM 18.15 64.67 0.398 7.56 4.72 6.28
8/25/2022 10:15:00 AM 18.27 64.886 0.397 7.58 4.08 6.53
8/25/2022 10:30:00 AM 18.4 65.12 0.399 7.58 4.71 6.36
8/25/2022 10:45:00 AM 18.45 65.21 0.399 7.58 3.77 6.52